MYDAX CHILLER For M1 mirror 
            

Key: (Temperatures in Centigrade) 
A) System is ON or OFF
B) Actual Tank Temperature as sensed by the Output RTD                   
C) Set point Temperature 
D) Calculated temperature of the refrigerant line at the suction pressure transducer
E) Pressure in PSIg of the refrigerant line at the suction pressure transducer
F & G) Temperature in the refrigerant line at the Superheat and Condenser RTDs
H) Temperature in the refrigerant line at the Discharge RTD (2-stage design only)
I) Temperature in the refrigerant line at the Subcooler RTD (inactive)
J) Valve drives of evaporator 

----------- DATE ----------: A    B     C     D     E    F    G    H   I J

 last update: Wed Sep 20 16:39:01 PDT 2017
Wed Sep 20 16:38:55 PDT 2017 ON: 19.99 +20.0 20.05 -15.5 27.4 16.7 31.4 8 10 Alarm State:  0
Wed Sep 20 16:37:54 PDT 2017 ON: 19.99 +20.0 20.05 -15.5 27.5 16.6 31.4 7 10 Alarm State:  0
Wed Sep 20 16:36:52 PDT 2017 ON: 20.00 +20.0 20.06 -15.4 27.6 16.5 31.4 7 10 Alarm State:  0
Wed Sep 20 16:35:51 PDT 2017 ON: 19.99 +20.0 20.06 -15.3 27.7 16.5 31.4 7 10 Alarm State:  0
Wed Sep 20 16:34:49 PDT 2017 ON: 20.00 +20.0 20.05 -15.3 27.7 16.5 31.4 7 10 Alarm State:  0
Wed Sep 20 16:33:48 PDT 2017 ON: 19.99 +20.0 20.05 -15.5 27.5 16.6 31.4 8 10 Alarm State:  0
Wed Sep 20 16:32:46 PDT 2017 ON: 19.99 +20.0 20.06 -15.5 27.5 16.6 31.3 7 10 Alarm State:  0
Wed Sep 20 16:31:45 PDT 2017 ON: 19.99 +20.0 20.04 -15.4 27.6 16.5 31.4 7 10 Alarm State:  0
Wed Sep 20 16:30:43 PDT 2017 ON: 20.00 +20.0 20.07 -15.4 27.6 16.5 31.3 8 9 Alarm State:  0
Wed Sep 20 16:29:42 PDT 2017 ON: 19.99 +20.0 20.05 -15.3 27.7 16.5 31.4 7 10 Alarm State:  0
Wed Sep 20 16:28:40 PDT 2017 ON: 20.00 +20.0 20.04 -15.2 27.9 16.3 31.4 7 11 Alarm State:  0
Wed Sep 20 16:27:39 PDT 2017 ON: 19.99 +20.0 20.06 -15.3 27.8 16.4 31.5 7 10 Alarm State:  0
Wed Sep 20 16:26:37 PDT 2017 ON: 19.99 +20.0 20.05 -15.4 27.6 16.5 31.4 7 10 Alarm State:  0
Wed Sep 20 16:25:36 PDT 2017 ON: 20.00 +20.0 20.06 -15.7 27.2 16.8 31.4 8 9 Alarm State:  0
Wed Sep 20 16:24:34 PDT 2017 ON: 20.00 +20.0 20.06 -15.5 27.5 16.6 31.4 7 10 Alarm State:  0
Wed Sep 20 16:23:33 PDT 2017 ON: 19.99 +20.0 20.05 -15.2 27.9 16.3 31.4 7 10 Alarm State:  0
Wed Sep 20 16:22:31 PDT 2017 ON: 20.00 +20.0 20.06 -15.7 27.2 16.8 31.4 8 9 Alarm State:  0
Wed Sep 20 16:21:30 PDT 2017 ON: 20.00 +20.0 20.05 -15.2 27.9 16.3 31.5 7 10 Alarm State:  0
Wed Sep 20 16:20:28 PDT 2017 ON: 20.00 +20.0 20.06 -15.3 27.8 16.4 31.4 7 10 Alarm State:  0
Wed Sep 20 16:19:27 PDT 2017 ON: 19.99 +20.0 20.05 -15.5 27.4 16.7 31.3 8 10 Alarm State:  0
Wed Sep 20 16:18:25 PDT 2017 ON: 20.00 +20.0 20.05 -15.6 27.3 16.8 31.2 7 10 Alarm State:  0
Wed Sep 20 16:17:24 PDT 2017 ON: 20.00 +20.0 20.05 -15.2 27.9 16.3 31.4 7 10 Alarm State:  0
Wed Sep 20 16:16:22 PDT 2017 ON: 19.99 +20.0 20.05 -15.2 27.9 16.3 31.3 7 11 Alarm State:  0
Wed Sep 20 16:15:21 PDT 2017 ON: 19.98 +20.0 20.05 -15.3 27.7 16.5 31.3 7 10 Alarm State:  0
Wed Sep 20 16:14:19 PDT 2017 ON: 19.99 +20.0 20.04 -15.3 27.7 16.5 31.3 7 10 Alarm State:  0
Wed Sep 20 16:13:18 PDT 2017 ON: 20.01 +20.0 20.06 -15.7 27.2 16.8 31.1 8 9 Alarm State:  0
Wed Sep 20 16:12:16 PDT 2017 ON: 20.01 +20.0 20.07 -15.4 27.6 16.5 31.2 7 10 Alarm State:  0
Wed Sep 20 16:11:15 PDT 2017 ON: 19.99 +20.0 20.06 -15.3 27.8 16.4 31.5 8 10 Alarm State:  0
Wed Sep 20 16:10:13 PDT 2017 ON: 19.99 +20.0 20.06 -15.8 27.0 17.0 31.2 7 9 Alarm State:  0
Wed Sep 20 16:09:12 PDT 2017 ON: 20.00 +20.0 20.07 -15.5 27.4 16.7 31.3 7 9 Alarm State:  0
Wed Sep 20 16:08:10 PDT 2017 ON: 19.99 +20.0 20.06 -15.4 27.6 16.5 31.4 7 9 Alarm State:  0
Wed Sep 20 16:07:09 PDT 2017 ON: 20.00 +20.0 20.06 -15.1 28.0 16.3 31.5 7 10 Alarm State:  0
Wed Sep 20 16:06:07 PDT 2017 ON: 19.99 +20.0 20.05 -15.5 27.5 16.6 31.5 8 10 Alarm State:  0
Wed Sep 20 16:05:06 PDT 2017 ON: 19.99 +20.0 20.03 -15.4 27.6 16.5 31.4 7 10 Alarm State:  0
Wed Sep 20 16:04:04 PDT 2017 ON: 20.00 +20.0 20.05 -15.5 27.5 16.6 31.3 7 9 Alarm State:  0
Wed Sep 20 16:03:03 PDT 2017 ON: 20.00 +20.0 20.06 -15.4 27.6 16.5 31.4 8 9 Alarm State:  0
Wed Sep 20 16:02:01 PDT 2017 ON: 19.99 +20.0 20.05 -15.3 27.8 16.4 31.5 7 10 Alarm State:  0
Wed Sep 20 16:01:00 PDT 2017 ON: 19.99 +20.0 20.05 -15.5 27.4 16.7 31.4 7 9 Alarm State:  0
Wed Sep 20 15:59:59 PDT 2017 ON: 20.00 +20.0 20.05 -15.7 27.2 16.8 31.2 7 9 Alarm State:  0
Wed Sep 20 15:58:57 PDT 2017 ON: 20.00 +20.0 20.06 -15.4 27.6 16.5 31.4 7 9 Alarm State:  0
Wed Sep 20 15:57:56 PDT 2017 ON: 19.99 +20.0 20.05 -15.5 27.4 16.7 31.4 8 10 Alarm State:  0
Wed Sep 20 15:56:54 PDT 2017 ON: 19.99 +20.0 20.05 -15.5 27.5 16.6 31.4 7 9 Alarm State:  0
Wed Sep 20 15:55:53 PDT 2017 ON: 19.99 +20.0 20.04 -15.3 27.7 16.5 31.4 7 10 Alarm State:  0
Wed Sep 20 15:54:51 PDT 2017 ON: 20.00 +20.0 20.06 -15.5 27.5 16.6 31.5 7 9 Alarm State:  0
Wed Sep 20 15:53:50 PDT 2017 ON: 19.99 +20.0 20.06 -15.5 27.4 16.7 31.4 7 9 Alarm State:  0
Wed Sep 20 15:52:48 PDT 2017 ON: 20.00 +20.0 20.05 -15.5 27.5 16.6 31.4 7 9 Alarm State:  0
Wed Sep 20 15:51:47 PDT 2017 ON: 20.00 +20.0 20.06 -15.3 27.7 16.5 31.4 7 9 Alarm State:  0
Wed Sep 20 15:50:45 PDT 2017 ON: 19.99 +20.0 20.06 -15.4 27.6 16.5 31.5 7 9 Alarm State:  0
Wed Sep 20 15:49:44 PDT 2017 ON: 20.00 +20.0 20.06 -15.5 27.4 16.7 31.4 8 9 Alarm State:  0
Wed Sep 20 15:48:42 PDT 2017 ON: 19.99 +20.0 20.04 -15.4 27.6 16.5 31.4 7 10 Alarm State:  0
Wed Sep 20 15:47:41 PDT 2017 ON: 20.00 +20.0 20.05 -15.3 27.8 16.4 31.4 7 10 Alarm State:  0
Wed Sep 20 15:46:39 PDT 2017 ON: 19.99 +20.0 20.05 -15.2 27.9 16.3 31.4 7 10 Alarm State:  0
Wed Sep 20 15:45:38 PDT 2017 ON: 19.99 +20.0 20.06 -15.5 27.4 16.7 31.4 7 9 Alarm State:  0
Wed Sep 20 15:44:36 PDT 2017 ON: 19.99 +20.0 20.04 -15.5 27.4 16.7 31.4 7 10 Alarm State:  0
Wed Sep 20 15:43:35 PDT 2017 ON: 20.00 +20.0 20.06 -15.5 27.4 16.7 31.3 7 9 Alarm State:  0
Wed Sep 20 15:42:33 PDT 2017 ON: 19.99 +20.0 20.06 -15.5 27.4 16.7 31.4 7 10 Alarm State:  0
Wed Sep 20 15:41:32 PDT 2017 ON: 19.99 +20.0 20.05 -15.3 27.8 16.4 31.4 7 10 Alarm State:  0
Wed Sep 20 15:40:30 PDT 2017 ON: 20.00 +20.0 20.04 -15.5 27.4 16.7 31.3 7 10 Alarm State:  0
Wed Sep 20 15:39:29 PDT 2017 ON: 19.99 +20.0 20.06 -15.7 27.1 16.9 31.3 7 9 Alarm State:  0
Wed Sep 20 15:38:27 PDT 2017 ON: 20.00 +20.0 20.06 -15.7 27.2 16.8 31.3 8 8 Alarm State:  0
Wed Sep 20 15:37:26 PDT 2017 ON: 20.00 +20.0 20.07 -15.7 27.1 16.9 31.3 7 8 Alarm State:  0
Wed Sep 20 15:36:24 PDT 2017 ON: 19.99 +20.0 20.06 -15.6 27.3 16.8 31.3 7 10 Alarm State:  0
Wed Sep 20 15:35:23 PDT 2017 ON: 19.99 +20.0 20.05 -15.4 27.6 16.5 31.4 8 10 Alarm State:  0
Wed Sep 20 15:34:21 PDT 2017 ON: 20.00 +20.0 20.05 -15.4 27.6 16.5 31.4 7 9 Alarm State:  0
Wed Sep 20 15:33:20 PDT 2017 ON: 20.00 +20.0 20.06 -15.3 27.7 16.5 31.4 7 9 Alarm State:  0
Wed Sep 20 15:32:18 PDT 2017 ON: 19.99 +20.0 20.05 -15.1 28.1 16.2 31.6 7 10 Alarm State:  0
Wed Sep 20 15:31:17 PDT 2017 ON: 20.00 +20.0 20.06 -15.5 27.5 16.6 31.3 7 10 Alarm State:  0
Wed Sep 20 15:30:15 PDT 2017 ON: 19.99 +20.0 20.06 -15.5 27.5 16.6 31.4 8 9 Alarm State:  0
Wed Sep 20 15:29:14 PDT 2017 ON: 20.00 +20.0 20.06 -15.7 27.1 16.9 31.2 7 9 Alarm State:  0
Wed Sep 20 15:28:12 PDT 2017 ON: 20.00 +20.0 20.06 -15.2 27.9 16.3 31.5 7 9 Alarm State:  0
Wed Sep 20 15:27:11 PDT 2017 ON: 19.99 +20.0 20.08 -15.5 27.4 16.7 31.4 8 9 Alarm State:  0
Wed Sep 20 15:26:09 PDT 2017 ON: 19.99 +20.0 20.05 -15.5 27.5 16.6 31.3 7 10 Alarm State:  0
Wed Sep 20 15:25:08 PDT 2017 ON: 20.00 +20.0 20.05 -15.5 27.4 16.7 31.4 7 9 Alarm State:  0
Wed Sep 20 15:24:06 PDT 2017 ON: 20.00 +20.0 20.06 -15.5 27.5 16.6 31.3 7 9 Alarm State:  0
Wed Sep 20 15:23:05 PDT 2017 ON: 19.99 +20.0 20.05 -15.4 27.6 16.5 31.5 7 10 Alarm State:  0
Wed Sep 20 15:22:03 PDT 2017 ON: 19.99 +20.0 20.04 -15.3 27.7 16.5 31.5 7 10 Alarm State:  0
Wed Sep 20 15:21:02 PDT 2017 ON: 20.00 +20.0 20.04 -15.3 27.7 16.5 31.4 7 10 Alarm State:  0
Wed Sep 20 15:20:00 PDT 2017 ON: 20.00 +20.0 20.05 -15.2 27.9 16.3 31.5 7 10 Alarm State:  0
Wed Sep 20 15:18:59 PDT 2017 ON: 19.99 +20.0 20.05 -15.4 27.6 16.5 31.4 7 10 Alarm State:  0
Wed Sep 20 15:17:57 PDT 2017 ON: 19.99 +20.0 20.04 -15.4 27.6 16.5 31.5 7 10 Alarm State:  0
Wed Sep 20 15:16:56 PDT 2017 ON: 20.00 +20.0 20.05 -15.7 27.2 16.8 31.3 7 9 Alarm State:  0
Wed Sep 20 15:15:54 PDT 2017 ON: 20.00 +20.0 20.06 -15.5 27.5 16.6 31.4 7 10 Alarm State:  0
Wed Sep 20 15:14:53 PDT 2017 ON: 19.99 +20.0 20.05 -15.3 27.7 16.5 31.4 7 10 Alarm State:  0
Wed Sep 20 15:13:51 PDT 2017 ON: 19.99 +20.0 20.04 -15.3 27.7 16.5 31.5 8 10 Alarm State:  0
Wed Sep 20 15:12:50 PDT 2017 ON: 20.00 +20.0 20.05 -15.3 27.7 16.5 31.5 7 10 Alarm State:  0
Wed Sep 20 15:11:48 PDT 2017 ON: 19.99 +20.0 20.05 -15.3 27.8 16.4 31.4 7 10 Alarm State:  0
Wed Sep 20 15:10:47 PDT 2017 ON: 20.00 +20.0 20.06 -15.6 27.3 16.8 31.3 7 9 Alarm State:  0
Wed Sep 20 15:09:46 PDT 2017 ON: 20.00 +20.0 20.05 -15.5 27.5 16.6 31.4 7 10 Alarm State:  0
Wed Sep 20 15:08:44 PDT 2017 ON: 19.99 +20.0 20.04 -15.3 27.7 16.5 31.4 7 10 Alarm State:  0
Wed Sep 20 15:07:43 PDT 2017 ON: 19.99 +20.0 20.04 -15.4 27.6 16.5 31.4 7 10 Alarm State:  0
Wed Sep 20 15:06:41 PDT 2017 ON: 20.00 +20.0 20.07 -15.7 27.2 16.8 31.2 7 9 Alarm State:  0
Wed Sep 20 15:05:40 PDT 2017 ON: 20.00 +20.0 20.05 -15.2 27.9 16.3 31.4 7 10 Alarm State:  0
Wed Sep 20 15:04:38 PDT 2017 ON: 19.99 +20.0 20.05 -15.4 27.6 16.5 31.4 7 10 Alarm State:  0
Wed Sep 20 15:03:37 PDT 2017 ON: 19.99 +20.0 20.03 -15.3 27.8 16.4 31.4 7 10 Alarm State:  0
Wed Sep 20 15:02:35 PDT 2017 ON: 20.00 +20.0 20.06 -15.4 27.6 16.5 31.4 7 9 Alarm State:  0
Wed Sep 20 15:01:34 PDT 2017 ON: 20.00 +20.0 20.05 -15.3 27.7 16.5 31.4 7 10 Alarm State:  0
Wed Sep 20 15:00:32 PDT 2017 ON: 20.00 +20.0 20.05 -15.3 27.7 16.5 31.4 7 9 Alarm State:  0
Wed Sep 20 14:59:31 PDT 2017 ON: 19.99 +20.0 20.05 -15.4 27.6 16.5 31.4 7 10 Alarm State:  0
Wed Sep 20 14:58:29 PDT 2017 ON: 19.99 +20.0 20.05 -15.3 27.7 16.5 31.4 7 9 Alarm State:  0
Wed Sep 20 14:57:28 PDT 2017 ON: 20.00 +20.0 20.04 -15.3 27.8 16.4 31.4 7 10 Alarm State:  0
Wed Sep 20 14:56:26 PDT 2017 ON: 19.99 +20.0 20.06 -15.4 27.6 16.5 31.4 7 10 Alarm State:  0
Wed Sep 20 14:55:25 PDT 2017 ON: 19.99 +20.0 20.05 -15.3 27.7 16.5 31.5 7 9 Alarm State:  0
Wed Sep 20 14:54:23 PDT 2017 ON: 20.00 +20.0 20.05 -15.6 27.3 16.8 31.3 8 10 Alarm State:  0
Wed Sep 20 14:53:22 PDT 2017 ON: 19.99 +20.0 20.05 -15.5 27.5 16.6 31.4 7 10 Alarm State:  0
Wed Sep 20 14:52:20 PDT 2017 ON: 20.00 +20.0 20.06 -15.5 27.5 16.6 31.4 7 9 Alarm State:  0
Wed Sep 20 14:51:19 PDT 2017 ON: 20.00 +20.0 20.06 -15.5 27.5 16.6 31.5 8 9 Alarm State:  0
Wed Sep 20 14:50:17 PDT 2017 ON: 19.99 +20.0 20.06 -15.2 27.9 16.3 31.5 7 10 Alarm State:  0
Wed Sep 20 14:49:16 PDT 2017 ON: 19.99 +20.0 20.05 -15.3 27.8 16.4 31.4 7 10 Alarm State:  0
Wed Sep 20 14:48:14 PDT 2017 ON: 20.00 +20.0 20.04 -15.5 27.5 16.6 31.3 7 10 Alarm State:  0
Wed Sep 20 14:47:13 PDT 2017 ON: 20.00 +20.0 20.05 -15.4 27.6 16.5 31.4 7 10 Alarm State:  0
Wed Sep 20 14:46:11 PDT 2017 ON: 19.99 +20.0 20.04 -15.1 28.1 16.2 31.5 7 10 Alarm State:  0
Wed Sep 20 14:45:10 PDT 2017 ON: 19.99 +20.0 20.05 -15.2 27.9 16.3 31.5 7 10 Alarm State:  0
Wed Sep 20 14:44:08 PDT 2017 ON: 19.99 +20.0 20.06 -15.5 27.5 16.6 31.3 7 9 Alarm State:  0
Wed Sep 20 14:43:07 PDT 2017 ON: 20.00 +20.0 20.05 -15.5 27.4 16.7 31.3 8 10 Alarm State:  0
Wed Sep 20 14:42:05 PDT 2017 ON: 20.00 +20.0 20.06 -15.7 27.2 16.8 31.3 7 9 Alarm State:  0
Wed Sep 20 14:41:04 PDT 2017 ON: 19.99 +20.0 20.04 -15.3 27.7 16.5 31.4 7 10 Alarm State:  0
Wed Sep 20 14:40:02 PDT 2017 ON: 20.00 +20.0 20.07 -15.5 27.4 16.7 31.3 7 9 Alarm State:  0
Wed Sep 20 14:39:01 PDT 2017 ON: 20.00 +20.0 20.07 -15.5 27.4 16.7 31.5 7 9 Alarm State:  0
Wed Sep 20 14:37:59 PDT 2017 ON: 19.99 +20.0 20.06 -15.4 27.6 16.5 31.5 8 9 Alarm State:  0
Wed Sep 20 14:36:58 PDT 2017 ON: 20.00 +20.0 20.07 -15.5 27.4 16.7 31.3 7 8 Alarm State:  0
Wed Sep 20 14:35:56 PDT 2017 ON: 20.00 +20.0 20.07 -15.4 27.6 16.5 31.4 7 9 Alarm State:  0
Wed Sep 20 14:34:55 PDT 2017 ON: 19.99 +20.0 20.05 -15.5 27.5 16.6 31.4 8 10 Alarm State:  0
Wed Sep 20 14:33:53 PDT 2017 ON: 20.00 +20.0 20.05 -15.3 27.7 16.5 31.5 7 9 Alarm State:  0
Wed Sep 20 14:32:52 PDT 2017 ON: 20.00 +20.0 20.07 -15.6 27.3 16.8 31.3 7 9 Alarm State:  0
Wed Sep 20 14:31:50 PDT 2017 ON: 19.99 +20.0 20.06 -15.5 27.5 16.6 31.3 7 9 Alarm State:  0
Wed Sep 20 14:30:49 PDT 2017 ON: 20.00 +20.0 20.06 -15.5 27.4 16.7 31.3 7 9 Alarm State:  0
Wed Sep 20 14:29:47 PDT 2017 ON: 19.99 +20.0 20.06 -15.5 27.4 16.7 31.4 8 9 Alarm State:  0
Wed Sep 20 14:28:46 PDT 2017 ON: 20.00 +20.0 20.05 -15.6 27.3 16.8 31.3 7 9 Alarm State:  0
Wed Sep 20 14:27:44 PDT 2017 ON: 20.00 +20.0 20.04 -15.2 27.9 16.3 31.4 7 10 Alarm State:  0
Wed Sep 20 14:26:43 PDT 2017 ON: 20.00 +20.0 20.07 -15.6 27.3 16.8 31.3 8 9 Alarm State:  0
Wed Sep 20 14:25:41 PDT 2017 ON: 19.99 +20.0 20.05 -15.5 27.4 16.7 31.4 7 10 Alarm State:  0
Wed Sep 20 14:24:40 PDT 2017 ON: 20.00 +20.0 20.06 -15.5 27.4 16.7 31.3 7 9 Alarm State:  0
Wed Sep 20 14:23:38 PDT 2017 ON: 19.99 +20.0 20.04 -15.2 27.9 16.3 31.4 7 10 Alarm State:  0
Wed Sep 20 14:22:37 PDT 2017 ON: 19.99 +20.0 20.05 -15.3 27.7 16.5 31.5 7 10 Alarm State:  0
Wed Sep 20 14:21:36 PDT 2017 ON: 20.00 +20.0 20.05 -15.1 28.0 16.3 31.5 7 10 Alarm State:  0
Wed Sep 20 14:20:34 PDT 2017 ON: 19.99 +20.0 20.05 -15.3 27.7 16.5 31.3 7 10 Alarm State:  0
Wed Sep 20 14:19:33 PDT 2017 ON: 19.99 +20.0 20.05 -15.3 27.7 16.5 31.4 7 10 Alarm State:  0
Wed Sep 20 14:18:31 PDT 2017 ON: 19.99 +20.0 20.04 -15.1 28.1 16.2 31.6 7 10 Alarm State:  0
Wed Sep 20 14:17:30 PDT 2017 ON: 20.00 +20.0 20.05 -15.4 27.6 16.5 31.5 7 10 Alarm State:  0
Wed Sep 20 14:16:28 PDT 2017 ON: 19.99 +20.0 20.05 -15.3 27.7 16.5 31.4 7 10 Alarm State:  0
Wed Sep 20 14:15:27 PDT 2017 ON: 19.99 +20.0 20.05 -15.3 27.7 16.5 31.4 7 9 Alarm State:  0
Wed Sep 20 14:14:25 PDT 2017 ON: 20.00 +20.0 20.07 -15.4 27.6 16.5 31.4 7 9 Alarm State:  0
Wed Sep 20 14:13:24 PDT 2017 ON: 19.99 +20.0 20.05 -15.3 27.8 16.4 31.5 7 10 Alarm State:  0
Wed Sep 20 14:12:22 PDT 2017 ON: 20.00 +20.0 20.05 -15.1 28.0 16.3 31.6 7 10 Alarm State:  0
Wed Sep 20 14:11:21 PDT 2017 ON: 19.99 +20.0 20.05 -15.3 27.7 16.5 31.5 7 10 Alarm State:  0
Wed Sep 20 14:10:19 PDT 2017 ON: 20.00 +20.0 20.07 -15.4 27.6 16.5 31.4 7 8 Alarm State:  0
Wed Sep 20 14:09:18 PDT 2017 ON: 20.00 +20.0 20.06 -15.4 27.6 16.5 31.4 7 9 Alarm State:  0
Wed Sep 20 14:08:16 PDT 2017 ON: 19.99 +20.0 20.04 -15.4 27.6 16.5 31.4 7 10 Alarm State:  0
Wed Sep 20 14:07:15 PDT 2017 ON: 19.99 +20.0 20.06 -15.4 27.6 16.5 31.4 7 9 Alarm State:  0
Wed Sep 20 14:06:13 PDT 2017 ON: 20.00 +20.0 20.05 -15.5 27.4 16.7 31.4 7 9 Alarm State:  0
Wed Sep 20 14:05:12 PDT 2017 ON: 20.00 +20.0 20.05 -15.3 27.7 16.5 31.4 7 10 Alarm State:  0
Wed Sep 20 14:04:10 PDT 2017 ON: 19.99 +20.0 20.05 -15.3 27.8 16.4 31.5 7 10 Alarm State:  0
Wed Sep 20 14:03:09 PDT 2017 ON: 19.99 +20.0 20.06 -15.5 27.4 16.7 31.3 7 9 Alarm State:  0
Wed Sep 20 14:02:07 PDT 2017 ON: 20.00 +20.0 20.05 -15.3 27.7 16.5 31.4 7 9 Alarm State:  0
Wed Sep 20 14:01:06 PDT 2017 ON: 20.00 +20.0 20.05 -15.3 27.8 16.4 31.4 7 10 Alarm State:  0
Wed Sep 20 14:00:04 PDT 2017 ON: 20.00 +20.0 20.05 -15.3 27.7 16.5 31.4 7 10 Alarm State:  0
Wed Sep 20 13:59:03 PDT 2017 ON: 19.99 +20.0 20.04 -15.4 27.6 16.5 31.4 7 10 Alarm State:  0
Wed Sep 20 13:58:01 PDT 2017 ON: 20.00 +20.0 20.08 -15.7 27.2 16.8 31.3 7 8 Alarm State:  0
Wed Sep 20 13:57:00 PDT 2017 ON: 19.99 +20.0 20.07 -15.5 27.4 16.7 31.4 7 9 Alarm State:  0
Wed Sep 20 13:55:58 PDT 2017 ON: 19.99 +20.0 20.05 -15.4 27.6 16.5 31.3 7 9 Alarm State:  0
Wed Sep 20 13:54:57 PDT 2017 ON: 19.99 +20.0 20.05 -15.4 27.6 16.5 31.5 7 10 Alarm State:  0
Wed Sep 20 13:53:55 PDT 2017 ON: 20.00 +20.0 20.06 -15.4 27.6 16.5 31.4 7 10 Alarm State:  0
Wed Sep 20 13:52:54 PDT 2017 ON: 19.99 +20.0 20.05 -15.5 27.5 16.6 31.3 7 9 Alarm State:  0
Wed Sep 20 13:51:52 PDT 2017 ON: 20.00 +20.0 20.05 -15.5 27.4 16.7 31.3 7 9 Alarm State:  0
Wed Sep 20 13:50:51 PDT 2017 ON: 20.00 +20.0 20.05 -15.2 27.9 16.3 31.4 7 10 Alarm State:  0
Wed Sep 20 13:49:49 PDT 2017 ON: 20.00 +20.0 20.06 -15.3 27.7 16.5 31.4 7 10 Alarm State:  0
Wed Sep 20 13:48:48 PDT 2017 ON: 19.99 +20.0 20.05 -15.7 27.2 16.8 31.3 7 9 Alarm State:  0
Wed Sep 20 13:47:46 PDT 2017 ON: 20.00 +20.0 20.05 -15.5 27.5 16.6 31.3 7 10 Alarm State:  0
Wed Sep 20 13:46:45 PDT 2017 ON: 19.99 +20.0 20.05 -15.3 27.7 16.5 31.4 7 10 Alarm State:  0
Wed Sep 20 13:45:43 PDT 2017 ON: 20.00 +20.0 20.05 -15.7 27.2 16.8 31.3 8 9 Alarm State:  0
Wed Sep 20 13:44:42 PDT 2017 ON: 20.00 +20.0 20.06 -15.3 27.8 16.4 31.4 7 9 Alarm State:  0
Wed Sep 20 13:43:40 PDT 2017 ON: 20.00 +20.0 20.05 -15.4 27.6 16.5 31.4 7 10 Alarm State:  0
Wed Sep 20 13:42:39 PDT 2017 ON: 19.99 +20.0 20.06 -15.4 27.6 16.5 31.3 7 9 Alarm State:  0
Wed Sep 20 13:41:37 PDT 2017 ON: 20.00 +20.0 20.04 -15.3 27.8 16.5 31.4 7 10 Alarm State:  0
Wed Sep 20 13:40:36 PDT 2017 ON: 20.00 +20.0 20.07 -15.5 27.4 16.7 31.4 7 9 Alarm State:  0
Wed Sep 20 13:39:34 PDT 2017 ON: 19.99 +20.0 20.05 -15.4 27.6 16.5 31.4 7 10 Alarm State:  0
Wed Sep 20 13:38:33 PDT 2017 ON: 19.99 +20.0 20.04 -15.3 27.8 16.4 31.5 7 10 Alarm State:  0
Wed Sep 20 13:37:31 PDT 2017 ON: 20.00 +20.0 20.05 -15.3 27.8 16.4 31.5 7 9 Alarm State:  0
Wed Sep 20 13:36:30 PDT 2017 ON: 20.00 +20.0 20.05 -15.2 27.9 16.3 31.5 7 10 Alarm State:  0
Wed Sep 20 13:35:28 PDT 2017 ON: 19.99 +20.0 20.05 -15.4 27.6 16.5 31.5 7 10 Alarm State:  0
Wed Sep 20 13:34:27 PDT 2017 ON: 19.99 +20.0 20.05 -15.4 27.6 16.6 31.4 8 10 Alarm State:  0
Wed Sep 20 13:33:25 PDT 2017 ON: 19.99 +20.0 20.05 -15.7 27.2 16.8 31.3 7 9 Alarm State:  0
Wed Sep 20 13:32:24 PDT 2017 ON: 20.00 +20.0 20.06 -15.3 27.7 16.5 31.5 7 9 Alarm State:  0
Wed Sep 20 13:31:22 PDT 2017 ON: 19.99 +20.0 20.05 -15.5 27.4 16.7 31.3 7 10 Alarm State:  0
Wed Sep 20 13:30:21 PDT 2017 ON: 19.99 +20.0 20.05 -15.4 27.6 16.5 31.4 7 9 Alarm State:  0
Wed Sep 20 13:29:20 PDT 2017 ON: 20.00 +20.0 20.05 -15.4 27.6 16.5 31.4 7 10 Alarm State:  0
Wed Sep 20 13:28:18 PDT 2017 ON: 19.99 +20.0 20.04 -15.3 27.7 16.5 31.4 7 10 Alarm State:  0
Wed Sep 20 13:27:17 PDT 2017 ON: 20.00 +20.0 20.05 -15.3 27.7 16.5 31.4 7 9 Alarm State:  0
Wed Sep 20 13:26:15 PDT 2017 ON: 20.00 +20.0 20.06 -15.8 27.0 16.9 31.3 8 9 Alarm State:  0
Wed Sep 20 13:25:14 PDT 2017 ON: 20.00 +20.0 20.06 -15.4 27.6 16.5 31.3 7 10 Alarm State:  0
Wed Sep 20 13:24:12 PDT 2017 ON: 19.99 +20.0 20.05 -15.5 27.4 16.7 31.4 7 9 Alarm State:  0
Wed Sep 20 13:23:11 PDT 2017 ON: 20.00 +20.0 20.06 -15.5 27.5 16.6 31.4 8 9 Alarm State:  0
Wed Sep 20 13:22:09 PDT 2017 ON: 19.99 +20.0 20.06 -15.3 27.7 16.5 31.5 7 10 Alarm State:  0
Wed Sep 20 13:21:08 PDT 2017 ON: 19.99 +20.0 20.04 -15.3 27.8 16.4 31.5 7 10 Alarm State:  0
Wed Sep 20 13:20:06 PDT 2017 ON: 20.00 +20.0 20.05 -15.5 27.4 16.7 31.3 7 9 Alarm State:  0
Wed Sep 20 13:19:05 PDT 2017 ON: 20.00 +20.0 20.06 -15.5 27.4 16.7 31.3 7 10 Alarm State:  0
Wed Sep 20 13:18:03 PDT 2017 ON: 19.99 +20.0 20.06 -15.7 27.1 16.9 31.3 8 9 Alarm State:  0
Wed Sep 20 13:17:02 PDT 2017 ON: 19.99 +20.0 20.05 -15.5 27.4 16.7 31.3 7 10 Alarm State:  0
Wed Sep 20 13:16:00 PDT 2017 ON: 20.00 +20.0 20.05 -15.3 27.8 16.4 31.4 7 10 Alarm State:  0
Wed Sep 20 13:14:59 PDT 2017 ON: 20.00 +20.0 20.06 -15.3 27.8 16.4 31.5 7 9 Alarm State:  0
Wed Sep 20 13:13:57 PDT 2017 ON: 19.99 +20.0 20.05 -15.4 27.6 16.5 31.5 7 10 Alarm State:  0
Wed Sep 20 13:12:56 PDT 2017 ON: 20.00 +20.0 20.04 -15.3 27.8 16.4 31.5 7 10 Alarm State:  0
Wed Sep 20 13:11:54 PDT 2017 ON: 20.00 +20.0 20.07 -15.6 27.3 16.8 31.3 7 9 Alarm State:  0
Wed Sep 20 13:10:53 PDT 2017 ON: 19.99 +20.0 20.07 -15.5 27.5 16.6 31.3 7 9 Alarm State:  0
Wed Sep 20 13:09:51 PDT 2017 ON: 20.00 +20.0 20.06 -15.3 27.7 16.5 31.4 8 9 Alarm State:  0
Wed Sep 20 13:08:50 PDT 2017 ON: 19.99 +20.0 20.07 -15.5 27.4 16.7 31.4 7 9 Alarm State:  0
Wed Sep 20 13:07:48 PDT 2017 ON: 19.99 +20.0 20.03 -15.1 28.1 16.2 31.5 7 10 Alarm State:  0
Wed Sep 20 13:06:47 PDT 2017 ON: 20.00 +20.0 20.07 -15.7 27.2 16.8 31.3 8 9 Alarm State:  0
Wed Sep 20 13:05:45 PDT 2017 ON: 20.00 +20.0 20.05 -15.5 27.5 16.6 31.4 7 10 Alarm State:  0
Wed Sep 20 13:04:44 PDT 2017 ON: 19.99 +20.0 20.05 -15.3 27.8 16.4 31.4 7 10 Alarm State:  0
Wed Sep 20 13:03:42 PDT 2017 ON: 19.99 +20.0 20.05 -15.6 27.3 16.8 31.4 7 9 Alarm State:  0
Wed Sep 20 13:02:41 PDT 2017 ON: 20.00 +20.0 20.06 -15.5 27.5 16.6 31.4 7 9 Alarm State:  0
Wed Sep 20 13:01:39 PDT 2017 ON: 19.99 +20.0 20.05 -15.4 27.6 16.5 31.4 7 10 Alarm State:  0
Wed Sep 20 13:00:38 PDT 2017 ON: 19.99 +20.0 20.05 -15.3 27.7 16.5 31.4 7 10 Alarm State:  0
Wed Sep 20 12:59:36 PDT 2017 ON: 20.00 +20.0 20.05 -15.3 27.8 16.4 31.4 7 9 Alarm State:  0
Wed Sep 20 12:58:35 PDT 2017 ON: 20.00 +20.0 20.06 -15.3 27.7 16.5 31.4 8 9 Alarm State:  0
Wed Sep 20 12:57:33 PDT 2017 ON: 19.99 +20.0 20.06 -15.3 27.7 16.5 31.4 7 9 Alarm State:  0
Wed Sep 20 12:56:32 PDT 2017 ON: 19.99 +20.0 20.03 -15.1 28.0 16.3 31.5 7 10 Alarm State:  0
Wed Sep 20 12:55:30 PDT 2017 ON: 20.00 +20.0 20.06 -15.5 27.4 16.7 31.3 7 9 Alarm State:  0
Wed Sep 20 12:54:29 PDT 2017 ON: 20.00 +20.0 20.05 -15.5 27.4 16.7 31.3 7 10 Alarm State:  0
Wed Sep 20 12:53:27 PDT 2017 ON: 19.99 +20.0 20.06 -15.7 27.2 16.8 31.4 8 9 Alarm State:  0
Wed Sep 20 12:52:26 PDT 2017 ON: 19.99 +20.0 20.04 -15.6 27.3 16.8 31.4 7 10 Alarm State:  0
Wed Sep 20 12:51:24 PDT 2017 ON: 19.99 +20.0 20.04 -15.5 27.5 16.6 31.4 7 10 Alarm State:  0
Wed Sep 20 12:50:23 PDT 2017 ON: 20.01 +20.0 20.06 -15.5 27.5 16.6 31.5 7 9 Alarm State:  0
Wed Sep 20 12:49:21 PDT 2017 ON: 20.00 +20.0 20.07 -15.3 27.7 16.5 31.4 7 9 Alarm State:  0
Wed Sep 20 12:48:20 PDT 2017 ON: 19.99 +20.0 20.05 -15.1 28.0 16.3 31.5 7 10 Alarm State:  0
Wed Sep 20 12:47:18 PDT 2017 ON: 20.00 +20.0 20.05 -15.4 27.6 16.5 31.5 7 9 Alarm State:  0
Wed Sep 20 12:46:17 PDT 2017 ON: 20.00 +20.0 20.07 -15.5 27.4 16.7 31.4 7 9 Alarm State:  0
Wed Sep 20 12:45:15 PDT 2017 ON: 20.00 +20.0 20.06 -15.4 27.6 16.5 31.4 8 9 Alarm State:  0
Wed Sep 20 12:44:14 PDT 2017 ON: 19.99 +20.0 20.05 -15.5 27.5 16.6 31.4 7 9 Alarm State:  0
Wed Sep 20 12:43:12 PDT 2017 ON: 20.00 +20.0 20.05 -15.6 27.3 16.8 31.4 7 10 Alarm State:  0
Wed Sep 20 12:42:11 PDT 2017 ON: 20.00 +20.0 20.05 -15.4 27.6 16.5 31.4 8 10 Alarm State:  0
Wed Sep 20 12:41:10 PDT 2017 ON: 19.99 +20.0 20.05 -15.5 27.4 16.7 31.4 7 10 Alarm State:  0
Wed Sep 20 12:40:08 PDT 2017 ON: 20.00 +20.0 20.06 -15.5 27.4 16.7 31.4 7 9 Alarm State:  0
Wed Sep 20 12:39:07 PDT 2017 ON: 20.00 +20.0 20.07 -15.7 27.2 16.8 31.3 8 9 Alarm State:  0
Wed Sep 20 12:38:05 PDT 2017 ON: 19.99 +20.0 20.04 -15.3 27.7 16.5 31.5 7 10 Alarm State:  0
Wed Sep 20 12:37:04 PDT 2017 ON: 20.00 +20.0 20.05 -15.4 27.6 16.5 31.4 7 9 Alarm State:  0
Wed Sep 20 12:36:02 PDT 2017 ON: 19.99 +20.0 20.05 -15.5 27.5 16.6 31.4 7 10 Alarm State:  0
Wed Sep 20 12:35:01 PDT 2017 ON: 20.00 +20.0 20.05 -15.4 27.6 16.5 31.4 7 10 Alarm State:  0
Wed Sep 20 12:33:59 PDT 2017 ON: 19.99 +20.0 20.06 -15.5 27.5 16.6 31.4 8 9 Alarm State:  0
Wed Sep 20 12:32:58 PDT 2017 ON: 19.99 +20.0 20.06 -15.6 27.3 16.8 31.2 7 9 Alarm State:  0
Wed Sep 20 12:31:56 PDT 2017 ON: 19.98 +20.0 20.04 -15.1 28.1 16.2 31.5 7 10 Alarm State:  0
Wed Sep 20 12:30:55 PDT 2017 ON: 20.00 +20.0 20.05 -15.5 27.5 16.6 31.4 8 9 Alarm State:  0
Wed Sep 20 12:29:53 PDT 2017 ON: 20.00 +20.0 20.07 -15.5 27.5 16.6 31.3 7 9 Alarm State:  0
Wed Sep 20 12:28:52 PDT 2017 ON: 19.99 +20.0 20.06 -15.5 27.4 16.7 31.3 7 9 Alarm State:  0
Wed Sep 20 12:27:50 PDT 2017 ON: 19.99 +20.0 20.04 -15.4 27.6 16.5 31.4 8 10 Alarm State:  0
Wed Sep 20 12:26:49 PDT 2017 ON: 20.00 +20.0 20.06 -15.7 27.2 16.8 31.3 7 9 Alarm State:  0
Wed Sep 20 12:25:47 PDT 2017 ON: 19.99 +20.0 20.05 -15.4 27.6 16.5 31.5 8 9 Alarm State:  0
Wed Sep 20 12:24:46 PDT 2017 ON: 20.00 +20.0 20.05 -15.3 27.8 16.4 31.4 7 9 Alarm State:  0
Wed Sep 20 12:23:44 PDT 2017 ON: 19.99 +20.0 20.06 -15.5 27.4 16.7 31.4 7 10 Alarm State:  0
Wed Sep 20 12:22:43 PDT 2017 ON: 19.99 +20.0 20.06 -15.7 27.2 16.8 31.4 8 9 Alarm State:  0
Wed Sep 20 12:21:41 PDT 2017 ON: 20.00 +20.0 20.06 -15.4 27.6 16.5 31.4 7 9 Alarm State:  0
Wed Sep 20 12:20:40 PDT 2017 ON: 20.00 +20.0 20.05 -15.5 27.4 16.7 31.2 7 10 Alarm State:  0
Wed Sep 20 12:19:38 PDT 2017 ON: 19.99 +20.0 20.06 -15.4 27.6 16.5 31.3 7 9 Alarm State:  0
Wed Sep 20 12:18:37 PDT 2017 ON: 19.99 +20.0 20.05 -15.5 27.4 16.7 31.3 7 9 Alarm State:  0
Wed Sep 20 12:17:35 PDT 2017 ON: 20.00 +20.0 20.06 -15.3 27.7 16.5 31.4 8 9 Alarm State:  0
Wed Sep 20 12:16:34 PDT 2017 ON: 20.00 +20.0 20.06 -15.5 27.4 16.7 31.3 7 10 Alarm State:  0
Wed Sep 20 12:15:32 PDT 2017 ON: 19.99 +20.0 20.05 -15.4 27.6 16.5 31.5 7 10 Alarm State:  0
Wed Sep 20 12:14:31 PDT 2017 ON: 20.00 +20.0 20.06 -15.4 27.6 16.5 31.4 8 9 Alarm State:  0
Wed Sep 20 12:13:29 PDT 2017 ON: 20.00 +20.0 20.05 -15.3 27.7 16.5 31.5 7 10 Alarm State:  0
Wed Sep 20 12:12:28 PDT 2017 ON: 20.00 +20.0 20.06 -15.3 27.7 16.5 31.5 7 9 Alarm State:  0
Wed Sep 20 12:11:26 PDT 2017 ON: 19.99 +20.0 20.04 -15.2 27.9 16.3 31.6 7 10 Alarm State:  0
Wed Sep 20 12:10:25 PDT 2017 ON: 20.00 +20.0 20.05 -15.3 27.8 16.4 31.5 7 9 Alarm State:  0
Wed Sep 20 12:09:23 PDT 2017 ON: 20.00 +20.0 20.06 -15.5 27.5 16.6 31.4 8 10 Alarm State:  0
Wed Sep 20 12:08:22 PDT 2017 ON: 19.99 +20.0 20.05 -15.4 27.6 16.5 31.4 7 9 Alarm State:  0
Wed Sep 20 12:07:20 PDT 2017 ON: 19.99 +20.0 20.07 -15.7 27.2 16.8 31.3 7 9 Alarm State:  0
Wed Sep 20 12:06:19 PDT 2017 ON: 19.99 +20.0 20.05 -15.3 27.8 16.4 31.5 7 9 Alarm State:  0
Wed Sep 20 12:05:17 PDT 2017 ON: 20.00 +20.0 20.05 -15.5 27.5 16.6 31.4 7 9 Alarm State:  0
Wed Sep 20 12:04:16 PDT 2017 ON: 19.99 +20.0 20.05 -15.4 27.6 16.5 31.4 7 10 Alarm State:  0
Wed Sep 20 12:03:14 PDT 2017 ON: 19.99 +20.0 20.05 -15.5 27.4 16.7 31.4 7 9 Alarm State:  0
Wed Sep 20 12:02:13 PDT 2017 ON: 20.00 +20.0 20.06 -15.5 27.4 16.7 31.4 7 9 Alarm State:  0
Wed Sep 20 12:01:11 PDT 2017 ON: 19.99 +20.0 20.06 -15.5 27.5 16.6 31.4 8 9 Alarm State:  0
Wed Sep 20 12:00:10 PDT 2017 ON: 19.99 +20.0 20.05 -15.7 27.2 16.8 31.4 7 9 Alarm State:  0
Wed Sep 20 11:59:08 PDT 2017 ON: 20.00 +20.0 20.05 -15.7 27.1 16.9 31.2 7 10 Alarm State:  0
Wed Sep 20 11:58:07 PDT 2017 ON: 19.99 +20.0 20.05 -15.5 27.5 16.7 31.4 8 10 Alarm State:  0
Wed Sep 20 11:57:05 PDT 2017 ON: 19.99 +20.0 20.05 -15.7 27.2 16.8 31.4 7 9 Alarm State:  0
Wed Sep 20 11:56:04 PDT 2017 ON: 20.00 +20.0 20.05 -15.5 27.5 16.6 31.3 7 9 Alarm State:  0
Wed Sep 20 11:55:02 PDT 2017 ON: 20.00 +20.0 20.05 -15.3 27.8 16.4 31.5 7 10 Alarm State:  0
Wed Sep 20 11:54:01 PDT 2017 ON: 19.99 +20.0 20.05 -15.5 27.5 16.6 31.5 7 10 Alarm State:  0
Wed Sep 20 11:52:59 PDT 2017 ON: 20.00 +20.0 20.05 -15.2 27.9 16.3 31.5 7 9 Alarm State:  0
Wed Sep 20 11:51:58 PDT 2017 ON: 19.99 +20.0 20.05 -15.4 27.6 16.5 31.4 7 9 Alarm State:  0
Wed Sep 20 11:50:56 PDT 2017 ON: 19.99 +20.0 20.05 -15.3 27.7 16.5 31.5 7 10 Alarm State:  0
Wed Sep 20 11:49:55 PDT 2017 ON: 20.00 +20.0 20.06 -15.3 27.8 16.4 31.4 7 9 Alarm State:  0
Wed Sep 20 11:48:53 PDT 2017 ON: 20.00 +20.0 20.05 -15.4 27.6 16.5 31.4 7 10 Alarm State:  0
Wed Sep 20 11:47:52 PDT 2017 ON: 20.00 +20.0 20.06 -15.5 27.5 16.6 31.4 7 9 Alarm State:  0
Wed Sep 20 11:46:50 PDT 2017 ON: 20.00 +20.0 20.05 -15.6 27.3 16.8 31.3 8 10 Alarm State:  0
Wed Sep 20 11:45:49 PDT 2017 ON: 19.99 +20.0 20.04 -15.2 27.9 16.3 31.5 7 10 Alarm State:  0
Wed Sep 20 11:44:48 PDT 2017 ON: 20.00 +20.0 20.06 -15.7 27.2 16.8 31.3 7 9 Alarm State:  0
Wed Sep 20 11:43:46 PDT 2017 ON: 19.99 +20.0 20.06 -15.7 27.1 16.9 31.3 7 9 Alarm State:  0
Wed Sep 20 11:42:45 PDT 2017 ON: 20.00 +20.0 20.05 -15.3 27.7 16.5 31.4 7 9 Alarm State:  0
Wed Sep 20 11:41:43 PDT 2017 ON: 19.99 +20.0 20.07 -15.7 27.2 16.9 31.4 8 9 Alarm State:  0
Wed Sep 20 11:40:42 PDT 2017 ON: 19.99 +20.0 20.06 -15.5 27.5 16.6 31.5 7 9 Alarm State:  0
Wed Sep 20 11:39:40 PDT 2017 ON: 19.99 +20.0 20.05 -15.6 27.3 16.8 31.3 7 10 Alarm State:  0
Wed Sep 20 11:38:39 PDT 2017 ON: 20.00 +20.0 20.06 -15.7 27.2 16.8 31.3 8 9 Alarm State:  0
Wed Sep 20 11:37:37 PDT 2017 ON: 19.99 +20.0 20.04 -15.4 27.6 16.5 31.4 7 10 Alarm State:  0
Wed Sep 20 11:36:36 PDT 2017 ON: 20.00 +20.0 20.06 -15.5 27.5 16.6 31.4 7 9 Alarm State:  0
Wed Sep 20 11:35:34 PDT 2017 ON: 20.00 +20.0 20.06 -15.3 27.7 16.5 31.4 7 10 Alarm State:  0
Wed Sep 20 11:34:33 PDT 2017 ON: 19.99 +20.0 20.05 -15.5 27.5 16.6 31.4 7 10 Alarm State:  0
Wed Sep 20 11:33:31 PDT 2017 ON: 20.00 +20.0 20.05 -15.7 27.2 16.8 31.4 8 9 Alarm State:  0
Wed Sep 20 11:32:30 PDT 2017 ON: 20.00 +20.0 20.06 -15.5 27.4 16.7 31.3 7 9 Alarm State:  0
Wed Sep 20 11:31:28 PDT 2017 ON: 19.99 +20.0 20.05 -15.3 27.7 16.5 31.5 7 10 Alarm State:  0
Wed Sep 20 11:30:27 PDT 2017 ON: 19.99 +20.0 20.05 -15.1 28.1 16.2 31.5 7 10 Alarm State:  0
Wed Sep 20 11:29:25 PDT 2017 ON: 20.00 +20.0 20.05 -15.6 27.3 16.8 31.3 7 9 Alarm State:  0
Wed Sep 20 11:28:24 PDT 2017 ON: 20.00 +20.0 20.05 -15.1 28.1 16.2 31.5 7 10 Alarm State:  0
Wed Sep 20 11:27:22 PDT 2017 ON: 19.99 +20.0 20.05 -15.4 27.6 16.5 31.4 7 10 Alarm State:  0
Wed Sep 20 11:26:21 PDT 2017 ON: 19.99 +20.0 20.05 -15.5 27.5 16.6 31.4 7 9 Alarm State:  0
Wed Sep 20 11:25:19 PDT 2017 ON: 20.00 +20.0 20.06 -15.3 27.8 16.4 31.5 7 9 Alarm State:  0
Wed Sep 20 11:24:18 PDT 2017 ON: 19.99 +20.0 20.05 -15.3 27.8 16.4 31.5 7 10 Alarm State:  0
Wed Sep 20 11:23:16 PDT 2017 ON: 19.99 +20.0 20.04 -15.5 27.5 16.6 31.3 7 10 Alarm State:  0
Wed Sep 20 11:22:15 PDT 2017 ON: 20.00 +20.0 20.06 -15.2 27.9 16.3 31.5 8 9 Alarm State:  0
Wed Sep 20 11:21:13 PDT 2017 ON: 20.00 +20.0 20.07 -15.4 27.6 16.5 31.4 7 9 Alarm State:  0
Wed Sep 20 11:20:12 PDT 2017 ON: 19.99 +20.0 20.05 -15.1 28.1 16.2 31.6 7 10 Alarm State:  0
Wed Sep 20 11:19:10 PDT 2017 ON: 19.99 +20.0 20.04 -15.1 28.0 16.3 31.5 7 10 Alarm State:  0
Wed Sep 20 11:18:09 PDT 2017 ON: 20.00 +20.0 20.06 -15.5 27.4 16.7 31.4 7 9 Alarm State:  0
Wed Sep 20 11:17:07 PDT 2017 ON: 19.99 +20.0 20.06 -15.5 27.4 16.7 31.5 8 10 Alarm State:  0
Wed Sep 20 11:16:06 PDT 2017 ON: 19.99 +20.0 20.04 -15.1 28.0 16.3 31.5 7 10 Alarm State:  0
Wed Sep 20 11:15:04 PDT 2017 ON: 19.99 +20.0 20.06 -15.5 27.4 16.7 31.4 7 9 Alarm State:  0
Wed Sep 20 11:14:03 PDT 2017 ON: 20.00 +20.0 20.05 -15.1 28.0 16.3 31.5 7 10 Alarm State:  0
Wed Sep 20 11:13:01 PDT 2017 ON: 19.99 +20.0 20.05 -15.5 27.4 16.7 31.4 7 10 Alarm State:  0
Wed Sep 20 11:12:00 PDT 2017 ON: 20.00 +20.0 20.04 -15.3 27.7 16.5 31.4 7 9 Alarm State:  0
Wed Sep 20 11:10:58 PDT 2017 ON: 20.00 +20.0 20.06 -15.7 27.2 16.8 31.3 7 9 Alarm State:  0
Wed Sep 20 11:09:57 PDT 2017 ON: 20.00 +20.0 20.05 -15.3 27.7 16.5 31.5 7 10 Alarm State:  0
Wed Sep 20 11:08:55 PDT 2017 ON: 20.00 +20.0 20.06 -15.4 27.6 16.5 31.4 8 9 Alarm State:  0
Wed Sep 20 11:07:54 PDT 2017 ON: 20.00 +20.0 20.04 -15.4 27.6 16.5 31.4 7 9 Alarm State:  0
Wed Sep 20 11:06:52 PDT 2017 ON: 20.01 +20.0 20.06 -15.7 27.1 16.9 31.2 7 9 Alarm State:  0
Wed Sep 20 11:05:51 PDT 2017 ON: 19.99 +20.0 20.07 -15.6 27.3 16.8 31.4 8 9 Alarm State:  0
Wed Sep 20 11:04:49 PDT 2017 ON: 19.99 +20.0 20.05 -15.2 27.9 16.3 31.5 7 10 Alarm State:  0
Wed Sep 20 11:03:48 PDT 2017 ON: 20.00 +20.0 20.04 -15.3 27.8 16.4 31.5 7 10 Alarm State:  0
Wed Sep 20 11:02:46 PDT 2017 ON: 20.00 +20.0 20.05 -15.4 27.6 16.5 31.5 7 10 Alarm State:  0
Wed Sep 20 11:01:45 PDT 2017 ON: 20.00 +20.0 20.06 -15.5 27.4 16.7 31.4 7 9 Alarm State:  0
Wed Sep 20 11:00:43 PDT 2017 ON: 19.99 +20.0 20.05 -15.6 27.3 16.8 31.4 7 9 Alarm State:  0
Wed Sep 20 10:59:42 PDT 2017 ON: 20.00 +20.0 20.05 -15.5 27.4 16.7 31.4 7 10 Alarm State:  0
Wed Sep 20 10:58:40 PDT 2017 ON: 19.99 +20.0 20.05 -15.2 27.9 16.3 31.5 7 10 Alarm State:  0
Wed Sep 20 10:57:39 PDT 2017 ON: 19.99 +20.0 20.04 -15.4 27.6 16.5 31.4 8 10 Alarm State:  0
Wed Sep 20 10:56:37 PDT 2017 ON: 20.00 +20.0 20.05 -15.3 27.7 16.5 31.4 7 9 Alarm State:  0
Wed Sep 20 10:55:36 PDT 2017 ON: 20.00 +20.0 20.07 -15.5 27.4 16.7 31.4 7 9 Alarm State:  0
Wed Sep 20 10:54:34 PDT 2017 ON: 19.99 +20.0 20.05 -15.3 27.8 16.4 31.6 7 9 Alarm State:  0
Wed Sep 20 10:53:33 PDT 2017 ON: 20.00 +20.0 20.05 -15.5 27.5 16.6 31.4 7 9 Alarm State:  0
Wed Sep 20 10:52:31 PDT 2017 ON: 19.99 +20.0 20.05 -15.5 27.5 16.6 31.4 7 10 Alarm State:  0
Wed Sep 20 10:51:30 PDT 2017 ON: 19.99 +20.0 20.04 -15.5 27.5 16.6 31.4 7 10 Alarm State:  0
Wed Sep 20 10:50:28 PDT 2017 ON: 20.00 +20.0 20.06 -15.5 27.5 16.6 31.3 7 9 Alarm State:  0
Wed Sep 20 10:49:27 PDT 2017 ON: 19.99 +20.0 20.06 -15.3 27.7 16.5 31.4 7 9 Alarm State:  0
Wed Sep 20 10:48:26 PDT 2017 ON: 20.00 +20.0 20.04 -15.1 28.0 16.3 31.5 7 10 Alarm State:  0
Wed Sep 20 10:47:24 PDT 2017 ON: 19.99 +20.0 20.05 -15.3 27.8 16.4 31.4 7 10 Alarm State:  0
Wed Sep 20 10:46:23 PDT 2017 ON: 20.00 +20.0 20.06 -15.5 27.5 16.6 31.4 8 9 Alarm State:  0
Wed Sep 20 10:45:21 PDT 2017 ON: 19.99 +20.0 20.05 -15.3 27.7 16.5 31.4 7 9 Alarm State:  0
Wed Sep 20 10:44:20 PDT 2017 ON: 20.00 +20.0 20.05 -15.4 27.6 16.5 31.4 7 10 Alarm State:  0
Wed Sep 20 10:43:18 PDT 2017 ON: 19.99 +20.0 20.06 -15.4 27.6 16.5 31.4 7 9 Alarm State:  0
Wed Sep 20 10:42:17 PDT 2017 ON: 20.00 +20.0 20.07 -15.8 27.0 16.9 31.3 7 8 Alarm State:  0
Wed Sep 20 10:41:15 PDT 2017 ON: 19.99 +20.0 20.05 -15.2 27.9 16.3 31.5 7 10 Alarm State:  0
Wed Sep 20 10:40:14 PDT 2017 ON: 20.00 +20.0 20.07 -15.6 27.3 16.8 31.4 7 9 Alarm State:  0
Wed Sep 20 10:39:12 PDT 2017 ON: 20.00 +20.0 20.04 -15.3 27.7 16.5 31.5 7 10 Alarm State:  0
Wed Sep 20 10:38:11 PDT 2017 ON: 20.00 +20.0 20.06 -15.1 28.0 16.3 31.6 7 9 Alarm State:  0
Wed Sep 20 10:37:09 PDT 2017 ON: 19.99 +20.0 20.06 -15.3 27.8 16.5 31.5 7 9 Alarm State:  0
Wed Sep 20 10:36:08 PDT 2017 ON: 19.99 +20.0 20.03 -15.3 27.8 16.4 31.5 7 10 Alarm State:  0
Wed Sep 20 10:35:06 PDT 2017 ON: 20.00 +20.0 20.05 -15.3 27.8 16.4 31.5 7 10 Alarm State:  0
Wed Sep 20 10:34:05 PDT 2017 ON: 19.99 +20.0 20.06 -15.5 27.5 16.7 31.5 7 9 Alarm State:  0
Wed Sep 20 10:33:03 PDT 2017 ON: 19.99 +20.0 20.05 -15.6 27.3 16.8 31.3 8 9 Alarm State:  0
Wed Sep 20 10:32:02 PDT 2017 ON: 20.00 +20.0 20.04 -15.3 27.7 16.5 31.5 7 10 Alarm State:  0
Wed Sep 20 10:31:00 PDT 2017 ON: 20.00 +20.0 20.05 -15.1 28.0 16.3 31.5 7 10 Alarm State:  0
Wed Sep 20 10:29:59 PDT 2017 ON: 19.99 +20.0 20.05 -15.4 27.6 16.5 31.5 8 9 Alarm State:  0
Wed Sep 20 10:28:57 PDT 2017 ON: 20.00 +20.0 20.07 -15.4 27.6 16.5 31.5 7 9 Alarm State:  0
Wed Sep 20 10:27:56 PDT 2017 ON: 19.99 +20.0 20.05 -15.5 27.4 16.7 31.3 7 10 Alarm State:  0
Wed Sep 20 10:26:54 PDT 2017 ON: 19.99 +20.0 20.04 -15.3 27.8 16.4 31.5 7 10 Alarm State:  0
Wed Sep 20 10:25:53 PDT 2017 ON: 20.00 +20.0 20.06 -15.9 26.8 17.1 31.2 7 9 Alarm State:  0
Wed Sep 20 10:24:51 PDT 2017 ON: 20.00 +20.0 20.06 -15.4 27.6 16.5 31.4 7 9 Alarm State:  0
Wed Sep 20 10:23:50 PDT 2017 ON: 19.99 +20.0 20.06 -15.5 27.4 16.7 31.4 7 9 Alarm State:  0
Wed Sep 20 10:22:48 PDT 2017 ON: 19.99 +20.0 20.05 -15.4 27.6 16.5 31.4 7 9 Alarm State:  0
Wed Sep 20 10:21:47 PDT 2017 ON: 20.00 +20.0 20.06 -15.5 27.4 16.7 31.3 8 9 Alarm State:  0
Wed Sep 20 10:20:45 PDT 2017 ON: 19.99 +20.0 20.05 -15.3 27.7 16.5 31.4 7 9 Alarm State:  0
Wed Sep 20 10:19:44 PDT 2017 ON: 20.00 +20.0 20.05 -15.3 27.7 16.5 31.4 7 10 Alarm State:  0
Wed Sep 20 10:18:42 PDT 2017 ON: 19.99 +20.0 20.06 -15.6 27.3 16.8 31.3 8 9 Alarm State:  0
Wed Sep 20 10:17:41 PDT 2017 ON: 19.99 +20.0 20.05 -15.3 27.7 16.5 31.5 7 9 Alarm State:  0
Wed Sep 20 10:16:39 PDT 2017 ON: 20.00 +20.0 20.06 -15.4 27.6 16.5 31.3 7 9 Alarm State:  0
Wed Sep 20 10:15:38 PDT 2017 ON: 19.99 +20.0 20.04 -15.2 27.9 16.3 31.5 7 10 Alarm State:  0
Wed Sep 20 10:14:36 PDT 2017 ON: 19.99 +20.0 20.05 -15.3 27.8 16.4 31.6 7 9 Alarm State:  0
Wed Sep 20 10:13:35 PDT 2017 ON: 20.00 +20.0 20.07 -15.3 27.7 16.5 31.6 8 9 Alarm State:  0
Wed Sep 20 10:12:33 PDT 2017 ON: 19.99 +20.0 20.06 -15.3 27.7 16.5 31.4 7 10 Alarm State:  0
Wed Sep 20 10:11:32 PDT 2017 ON: 19.99 +20.0 20.06 -15.5 27.5 16.6 31.4 7 9 Alarm State:  0
Wed Sep 20 10:10:30 PDT 2017 ON: 20.00 +20.0 20.06 -15.5 27.5 16.6 31.5 7 9 Alarm State:  0
Wed Sep 20 10:09:29 PDT 2017 ON: 19.99 +20.0 20.05 -15.5 27.4 16.7 31.3 7 10 Alarm State:  0
Wed Sep 20 10:08:27 PDT 2017 ON: 20.00 +20.0 20.05 -15.2 27.9 16.3 31.5 7 9 Alarm State:  0
Wed Sep 20 10:07:26 PDT 2017 ON: 20.00 +20.0 20.06 -15.3 27.7 16.5 31.5 7 9 Alarm State:  0
Wed Sep 20 10:06:24 PDT 2017 ON: 20.00 +20.0 20.05 -15.5 27.5 16.6 31.4 7 10 Alarm State:  0
Wed Sep 20 10:05:23 PDT 2017 ON: 19.99 +20.0 20.05 -15.5 27.5 16.6 31.5 8 10 Alarm State:  0
Wed Sep 20 10:04:21 PDT 2017 ON: 20.00 +20.0 20.05 -15.3 27.7 16.5 31.5 7 9 Alarm State:  0
Wed Sep 20 10:03:20 PDT 2017 ON: 19.99 +20.0 20.06 -15.6 27.3 16.8 31.4 7 9 Alarm State:  0
Wed Sep 20 10:02:18 PDT 2017 ON: 19.99 +20.0 20.06 -15.5 27.4 16.7 31.4 8 9 Alarm State:  0
Wed Sep 20 10:01:17 PDT 2017 ON: 20.00 +20.0 20.07 -15.5 27.4 16.7 31.4 7 8 Alarm State:  0
Wed Sep 20 10:00:15 PDT 2017 ON: 19.99 +20.0 20.05 -15.4 27.6 16.5 31.5 7 10 Alarm State:  0
Wed Sep 20 09:59:14 PDT 2017 ON: 19.99 +20.0 20.05 -15.6 27.3 16.8 31.3 7 9 Alarm State:  0
Wed Sep 20 09:58:12 PDT 2017 ON: 19.99 +20.0 20.06 -15.7 27.1 16.9 31.3 7 9 Alarm State:  0
Wed Sep 20 09:57:11 PDT 2017 ON: 20.00 +20.0 20.06 -15.4 27.6 16.5 31.5 8 9 Alarm State:  0
Wed Sep 20 09:56:09 PDT 2017 ON: 19.99 +20.0 20.04 -15.3 27.7 16.5 31.4 7 10 Alarm State:  0
Wed Sep 20 09:55:08 PDT 2017 ON: 19.99 +20.0 20.05 -15.4 27.6 16.5 31.4 7 10 Alarm State:  0
Wed Sep 20 09:54:06 PDT 2017 ON: 20.00 +20.0 20.07 -15.8 27.0 17.0 31.2 8 9 Alarm State:  0
Wed Sep 20 09:53:05 PDT 2017 ON: 19.99 +20.0 20.05 -15.5 27.5 16.6 31.4 7 9 Alarm State:  0
Wed Sep 20 09:52:03 PDT 2017 ON: 20.00 +20.0 20.06 -15.5 27.4 16.7 31.4 7 9 Alarm State:  0
Wed Sep 20 09:51:02 PDT 2017 ON: 19.99 +20.0 20.07 -15.8 27.0 16.9 31.2 8 9 Alarm State:  0
Wed Sep 20 09:50:00 PDT 2017 ON: 19.99 +20.0 20.04 -15.4 27.6 16.5 31.4 7 9 Alarm State:  0
Wed Sep 20 09:48:59 PDT 2017 ON: 20.00 +20.0 20.07 -15.9 26.9 17.0 31.2 8 8 Alarm State:  0
Wed Sep 20 09:47:58 PDT 2017 ON: 20.00 +20.0 20.05 -15.1 28.1 16.2 31.6 7 10 Alarm State:  0
Wed Sep 20 09:46:56 PDT 2017 ON: 19.99 +20.0 20.05 -15.4 27.6 16.5 31.4 7 9 Alarm State:  0
Wed Sep 20 09:45:55 PDT 2017 ON: 20.00 +20.0 20.06 -15.7 27.1 16.9 31.3 8 9 Alarm State:  0
Wed Sep 20 09:44:53 PDT 2017 ON: 19.99 +20.0 20.05 -15.6 27.3 16.8 31.4 7 9 Alarm State:  0
Wed Sep 20 09:43:52 PDT 2017 ON: 20.00 +20.0 20.05 -15.3 27.7 16.5 31.4 7 9 Alarm State:  0
Wed Sep 20 09:42:50 PDT 2017 ON: 19.99 +20.0 20.04 -15.5 27.5 16.6 31.4 7 11 Alarm State:  0
Wed Sep 20 09:41:49 PDT 2017 ON: 19.99 +20.0 20.05 -15.3 27.7 16.5 31.5 7 9 Alarm State:  0
Wed Sep 20 09:40:47 PDT 2017 ON: 19.99 +20.0 20.04 -15.7 27.2 16.8 31.3 7 9 Alarm State:  0
Wed Sep 20 09:39:46 PDT 2017 ON: 20.00 +20.0 20.06 -15.3 27.7 16.5 31.4 7 9 Alarm State:  0
Wed Sep 20 09:38:44 PDT 2017 ON: 19.99 +20.0 20.06 -15.4 27.6 16.5 31.5 7 9 Alarm State:  0
Wed Sep 20 09:37:43 PDT 2017 ON: 19.99 +20.0 20.06 -15.5 27.5 16.6 31.4 8 9 Alarm State:  0
Wed Sep 20 09:36:41 PDT 2017 ON: 20.00 +20.0 20.06 -15.4 27.6 16.5 31.4 7 9 Alarm State:  0
Wed Sep 20 09:35:40 PDT 2017 ON: 20.00 +20.0 20.06 -15.4 27.6 16.5 31.4 7 9 Alarm State:  0
Wed Sep 20 09:34:38 PDT 2017 ON: 19.99 +20.0 20.05 -15.5 27.5 16.6 31.4 7 10 Alarm State:  0
Wed Sep 20 09:33:37 PDT 2017 ON: 19.99 +20.0 20.05 -15.6 27.3 16.8 31.4 7 9 Alarm State:  0
Wed Sep 20 09:32:35 PDT 2017 ON: 19.99 +20.0 20.05 -15.5 27.5 16.6 31.5 7 10 Alarm State:  0
Wed Sep 20 09:31:34 PDT 2017 ON: 19.99 +20.0 20.05 -15.4 27.6 16.5 31.4 7 9 Alarm State:  0
Wed Sep 20 09:30:32 PDT 2017 ON: 20.01 +20.0 20.06 -15.7 27.1 16.9 31.3 7 9 Alarm State:  0
Wed Sep 20 09:29:31 PDT 2017 ON: 19.99 +20.0 20.06 -15.5 27.5 16.6 31.4 8 9 Alarm State:  0
Wed Sep 20 09:28:29 PDT 2017 ON: 19.98 +20.0 20.04 -15.4 27.6 16.5 31.4 7 10 Alarm State:  0
Wed Sep 20 09:27:28 PDT 2017 ON: 19.99 +20.0 20.04 -15.4 27.6 16.5 31.4 7 9 Alarm State:  0
Wed Sep 20 09:26:26 PDT 2017 ON: 20.00 +20.0 20.06 -15.9 26.9 17.0 31.2 8 9 Alarm State:  0
Wed Sep 20 09:25:25 PDT 2017 ON: 20.00 +20.0 20.06 -15.3 27.8 16.4 31.5 7 9 Alarm State:  0
Wed Sep 20 09:24:23 PDT 2017 ON: 19.99 +20.0 20.05 -15.5 27.4 16.7 31.4 7 10 Alarm State:  0
Wed Sep 20 09:23:22 PDT 2017 ON: 19.99 +20.0 20.04 -15.5 27.4 16.7 31.4 7 10 Alarm State:  0
Wed Sep 20 09:22:20 PDT 2017 ON: 20.00 +20.0 20.06 -15.5 27.4 16.7 31.3 7 9 Alarm State:  0
Wed Sep 20 09:21:19 PDT 2017 ON: 19.99 +20.0 20.04 -15.3 27.7 16.5 31.5 7 10 Alarm State:  0
Wed Sep 20 09:20:17 PDT 2017 ON: 20.00 +20.0 20.05 -15.3 27.7 16.5 31.4 7 10 Alarm State:  0
Wed Sep 20 09:19:16 PDT 2017 ON: 20.00 +20.0 20.05 -15.3 27.7 16.5 31.5 7 9 Alarm State:  0
Wed Sep 20 09:18:14 PDT 2017 ON: 20.00 +20.0 20.06 -15.5 27.5 16.6 31.4 7 9 Alarm State:  0
Wed Sep 20 09:17:13 PDT 2017 ON: 19.99 +20.0 20.04 -15.2 27.9 16.3 31.5 7 10 Alarm State:  0
Wed Sep 20 09:16:11 PDT 2017 ON: 20.00 +20.0 20.05 -15.5 27.5 16.6 31.5 7 9 Alarm State:  0
Wed Sep 20 09:15:10 PDT 2017 ON: 19.99 +20.0 20.05 -15.3 27.7 16.5 31.5 7 10 Alarm State:  0
Wed Sep 20 09:14:08 PDT 2017 ON: 19.99 +20.0 20.05 -15.6 27.3 16.8 31.4 7 9 Alarm State:  0
Wed Sep 20 09:13:07 PDT 2017 ON: 20.00 +20.0 20.06 -15.4 27.6 16.5 31.4 7 9 Alarm State:  0
Wed Sep 20 09:12:05 PDT 2017 ON: 19.99 +20.0 20.04 -15.3 27.8 16.4 31.5 7 11 Alarm State:  0
Wed Sep 20 09:11:04 PDT 2017 ON: 19.99 +20.0 20.05 -15.5 27.5 16.6 31.4 7 9 Alarm State:  0
Wed Sep 20 09:10:02 PDT 2017 ON: 20.00 +20.0 20.05 -15.6 27.3 16.8 31.4 8 9 Alarm State:  0
Wed Sep 20 09:09:01 PDT 2017 ON: 20.00 +20.0 20.07 -15.8 27.0 16.9 31.2 7 8 Alarm State:  0
Wed Sep 20 09:07:59 PDT 2017 ON: 20.00 +20.0 20.06 -15.5 27.4 16.7 31.4 7 9 Alarm State:  0
Wed Sep 20 09:06:58 PDT 2017 ON: 19.99 +20.0 20.04 -15.3 27.7 16.5 31.4 7 10 Alarm State:  0
Wed Sep 20 09:05:57 PDT 2017 ON: 20.00 +20.0 20.04 -15.5 27.4 16.7 31.4 7 10 Alarm State:  0
Wed Sep 20 09:04:55 PDT 2017 ON: 20.00 +20.0 20.06 -15.5 27.5 16.6 31.4 7 9 Alarm State:  0
Wed Sep 20 09:03:44 PDT 2017  Alarm State: 0
Wed Sep 20 09:03:44 PDT 2017 Chiller did not report ON, got this reading: 
Wed Sep 20 09:02:42 PDT 2017 ON: 20.00 +20.0 20.05 -15.5 27.4 16.7 31.3 8 9 Alarm State:  0
Wed Sep 20 09:01:41 PDT 2017 ON: 19.99 +20.0 20.05 -15.5 27.5 16.6 31.4 7 10 Alarm State:  0
Wed Sep 20 09:00:39 PDT 2017 ON: 19.99 +20.0 20.05 -15.5 27.5 16.6 31.4 7 9 Alarm State:  0
Wed Sep 20 08:59:38 PDT 2017 ON: 20.00 +20.0 20.05 -15.7 27.2 16.8 31.2 7 9 Alarm State:  0
Wed Sep 20 08:58:36 PDT 2017 ON: 20.00 +20.0 20.05 -15.4 27.6 16.5 31.4 7 10 Alarm State:  0
Wed Sep 20 08:57:35 PDT 2017 ON: 19.99 +20.0 20.05 -15.3 27.8 16.4 31.4 7 10 Alarm State:  0
Wed Sep 20 08:56:33 PDT 2017 ON: 19.99 +20.0 20.05 -15.5 27.5 16.6 31.3 7 9 Alarm State:  0
Wed Sep 20 08:55:32 PDT 2017 ON: 20.00 +20.0 20.07 -15.7 27.2 16.8 31.3 7 9 Alarm State:  0
Wed Sep 20 08:54:30 PDT 2017 ON: 19.98 +20.0 20.05 -15.6 27.3 16.8 31.4 7 9 Alarm State:  0
Wed Sep 20 08:53:29 PDT 2017 ON: 20.00 +20.0 20.05 -15.7 27.2 16.8 31.3 7 9 Alarm State:  0
Wed Sep 20 08:52:27 PDT 2017 ON: 20.00 +20.0 20.06 -15.5 27.5 16.6 31.4 7 9 Alarm State:  0
Wed Sep 20 08:51:26 PDT 2017 ON: 19.99 +20.0 20.05 -15.3 27.8 16.4 31.4 7 10 Alarm State:  0
Wed Sep 20 08:50:24 PDT 2017 ON: 19.99 +20.0 20.05 -15.5 27.4 16.7 31.3 7 10 Alarm State:  0
Wed Sep 20 08:49:23 PDT 2017 ON: 19.99 +20.0 20.05 -15.3 27.8 16.4 31.5 7 9 Alarm State:  0
Wed Sep 20 08:48:21 PDT 2017 ON: 20.00 +20.0 20.05 -15.7 27.2 16.8 31.3 7 10 Alarm State:  0
Wed Sep 20 08:47:20 PDT 2017 ON: 19.99 +20.0 20.06 -15.6 27.3 16.8 31.3 7 9 Alarm State:  0
Wed Sep 20 08:46:18 PDT 2017 ON: 20.00 +20.0 20.05 -15.2 27.9 16.3 31.5 7 9 Alarm State:  0
Wed Sep 20 08:45:17 PDT 2017 ON: 20.00 +20.0 20.06 -15.5 27.4 16.7 31.4 7 9 Alarm State:  0
Wed Sep 20 08:44:15 PDT 2017 ON: 19.99 +20.0 20.05 -15.5 27.5 16.6 31.5 7 10 Alarm State:  0
Wed Sep 20 08:43:14 PDT 2017 ON: 20.00 +20.0 20.05 -15.4 27.6 16.5 31.4 7 10 Alarm State:  0
Wed Sep 20 08:42:12 PDT 2017 ON: 19.99 +20.0 20.06 -15.6 27.3 16.8 31.4 7 9 Alarm State:  0
Wed Sep 20 08:41:11 PDT 2017 ON: 19.99 +20.0 20.05 -15.4 27.6 16.5 31.4 7 9 Alarm State:  0
Wed Sep 20 08:40:09 PDT 2017 ON: 19.99 +20.0 20.05 -15.5 27.5 16.6 31.4 7 9 Alarm State:  0
Wed Sep 20 08:39:08 PDT 2017 ON: 20.00 +20.0 20.06 -15.4 27.6 16.5 31.4 7 9 Alarm State:  0
Wed Sep 20 08:38:06 PDT 2017 ON: 19.99 +20.0 20.06 -15.5 27.4 16.7 31.4 8 10 Alarm State:  0
Wed Sep 20 08:37:05 PDT 2017 ON: 19.99 +20.0 20.06 -15.5 27.4 16.7 31.4 7 9 Alarm State:  0
Wed Sep 20 08:36:03 PDT 2017 ON: 20.00 +20.0 20.06 -15.6 27.3 16.8 31.3 7 9 Alarm State:  0
Wed Sep 20 08:35:02 PDT 2017 ON: 19.99 +20.0 20.05 -15.2 27.9 16.3 31.4 7 10 Alarm State:  0
Wed Sep 20 08:34:00 PDT 2017 ON: 19.99 +20.0 20.05 -15.5 27.4 16.7 31.3 7 9 Alarm State:  0
Wed Sep 20 08:32:59 PDT 2017 ON: 20.00 +20.0 20.06 -15.6 27.3 16.8 31.3 8 9 Alarm State:  0
Wed Sep 20 08:31:57 PDT 2017 ON: 20.00 +20.0 20.05 -15.3 27.7 16.5 31.4 7 10 Alarm State:  0
Wed Sep 20 08:30:56 PDT 2017 ON: 19.99 +20.0 20.05 -15.4 27.6 16.5 31.4 7 10 Alarm State:  0
Wed Sep 20 08:29:54 PDT 2017 ON: 20.00 +20.0 20.05 -15.4 27.6 16.5 31.4 8 9 Alarm State:  0
Wed Sep 20 08:28:53 PDT 2017 ON: 20.00 +20.0 20.05 -15.2 27.9 16.3 31.5 7 9 Alarm State:  0
Wed Sep 20 08:27:51 PDT 2017 ON: 19.99 +20.0 20.05 -15.6 27.3 16.8 31.4 7 10 Alarm State:  0
Wed Sep 20 08:26:50 PDT 2017 ON: 19.99 +20.0 20.04 -15.3 27.8 16.4 31.5 7 10 Alarm State:  0
Wed Sep 20 08:25:48 PDT 2017 ON: 20.00 +20.0 20.06 -15.4 27.6 16.5 31.5 7 9 Alarm State:  0
Wed Sep 20 08:24:47 PDT 2017 ON: 19.99 +20.0 20.06 -15.6 27.3 16.8 31.4 8 9 Alarm State:  0
Wed Sep 20 08:23:45 PDT 2017 ON: 19.99 +20.0 20.05 -15.3 27.7 16.5 31.4 7 10 Alarm State:  0
Wed Sep 20 08:22:44 PDT 2017 ON: 20.00 +20.0 20.05 -15.2 27.9 16.3 31.5 7 9 Alarm State:  0
Wed Sep 20 08:21:42 PDT 2017 ON: 19.99 +20.0 20.05 -15.4 27.6 16.5 31.4 7 10 Alarm State:  0
Wed Sep 20 08:20:41 PDT 2017 ON: 19.99 +20.0 20.04 -15.4 27.6 16.5 31.4 7 10 Alarm State:  0
Wed Sep 20 08:19:39 PDT 2017 ON: 20.00 +20.0 20.05 -15.5 27.4 16.7 31.4 7 10 Alarm State:  0
Wed Sep 20 08:18:38 PDT 2017 ON: 19.99 +20.0 20.05 -15.4 27.6 16.5 31.4 7 10 Alarm State:  0
Wed Sep 20 08:17:36 PDT 2017 ON: 20.00 +20.0 20.06 -15.6 27.3 16.8 31.3 7 9 Alarm State:  0
Wed Sep 20 08:16:35 PDT 2017 ON: 19.99 +20.0 20.05 -15.6 27.3 16.8 31.3 7 9 Alarm State:  0
Wed Sep 20 08:15:33 PDT 2017 ON: 20.00 +20.0 20.06 -15.7 27.2 16.8 31.3 7 9 Alarm State:  0
Wed Sep 20 08:14:32 PDT 2017 ON: 20.00 +20.0 20.06 -15.4 27.6 16.5 31.4 7 9 Alarm State:  0
Wed Sep 20 08:13:30 PDT 2017 ON: 19.99 +20.0 20.06 -15.4 27.6 16.5 31.4 8 9 Alarm State:  0
Wed Sep 20 08:12:29 PDT 2017 ON: 20.00 +20.0 20.06 -15.5 27.5 16.6 31.3 7 9 Alarm State:  0
Wed Sep 20 08:11:27 PDT 2017 ON: 20.01 +20.0 20.06 -15.5 27.5 16.6 31.4 7 9 Alarm State:  0
Wed Sep 20 08:10:26 PDT 2017 ON: 19.99 +20.0 20.05 -15.2 27.9 16.3 31.5 7 10 Alarm State:  0
Wed Sep 20 08:09:24 PDT 2017 ON: 19.99 +20.0 20.04 -15.2 27.9 16.3 31.5 7 10 Alarm State:  0
Wed Sep 20 08:08:23 PDT 2017 ON: 20.00 +20.0 20.05 -15.3 27.8 16.4 31.5 7 10 Alarm State:  0
Wed Sep 20 08:07:21 PDT 2017 ON: 19.99 +20.0 20.07 -15.5 27.4 16.7 31.4 7 9 Alarm State:  0
Wed Sep 20 08:06:20 PDT 2017 ON: 19.99 +20.0 20.04 -15.2 27.9 16.3 31.5 7 10 Alarm State:  0
Wed Sep 20 08:05:18 PDT 2017 ON: 20.00 +20.0 20.06 -15.4 27.6 16.5 31.5 8 9 Alarm State:  0
Wed Sep 20 08:04:17 PDT 2017 ON: 19.99 +20.0 20.05 -15.2 27.9 16.3 31.6 7 10 Alarm State:  0
Wed Sep 20 08:03:15 PDT 2017 ON: 19.99 +20.0 20.04 -15.3 27.7 16.5 31.4 7 10 Alarm State:  0
Wed Sep 20 08:02:14 PDT 2017 ON: 20.00 +20.0 20.07 -15.6 27.3 16.8 31.3 7 9 Alarm State:  0
Wed Sep 20 08:01:12 PDT 2017 ON: 19.99 +20.0 20.06 -15.3 27.8 16.5 31.4 7 10 Alarm State:  0
Wed Sep 20 08:00:11 PDT 2017 ON: 19.99 +20.0 20.04 -15.3 27.8 16.4 31.4 7 10 Alarm State:  0
Wed Sep 20 07:59:09 PDT 2017 ON: 20.00 +20.0 20.05 -15.5 27.4 16.7 31.3 7 10 Alarm State:  0
Wed Sep 20 07:58:08 PDT 2017 ON: 20.00 +20.0 20.07 -15.7 27.1 16.9 31.3 7 9 Alarm State:  0
Wed Sep 20 07:57:06 PDT 2017 ON: 19.99 +20.0 20.06 -15.5 27.4 16.7 31.4 8 10 Alarm State:  0
Wed Sep 20 07:56:05 PDT 2017 ON: 20.00 +20.0 20.04 -15.3 27.8 16.4 31.5 7 10 Alarm State:  0
Wed Sep 20 07:55:03 PDT 2017 ON: 20.00 +20.0 20.06 -15.7 27.1 16.9 31.2 7 9 Alarm State:  0
Wed Sep 20 07:54:02 PDT 2017 ON: 19.99 +20.0 20.05 -15.5 27.4 16.7 31.3 7 10 Alarm State:  0
Wed Sep 20 07:53:00 PDT 2017 ON: 20.00 +20.0 20.06 -15.5 27.4 16.7 31.3 7 9 Alarm State:  0
Wed Sep 20 07:51:59 PDT 2017 ON: 20.00 +20.0 20.06 -15.4 27.6 16.5 31.4 7 10 Alarm State:  0
Wed Sep 20 07:50:57 PDT 2017 ON: 19.99 +20.0 20.04 -15.2 27.9 16.3 31.4 7 10 Alarm State:  0
Wed Sep 20 07:49:56 PDT 2017 ON: 19.99 +20.0 20.06 -15.4 27.6 16.5 31.3 7 10 Alarm State:  0
Wed Sep 20 07:48:54 PDT 2017 ON: 19.99 +20.0 20.04 -15.3 27.8 16.4 31.5 7 10 Alarm State:  0
Wed Sep 20 07:47:53 PDT 2017 ON: 19.99 +20.0 20.05 -15.4 27.6 16.5 31.5 7 10 Alarm State:  0
Wed Sep 20 07:46:51 PDT 2017 ON: 19.99 +20.0 20.05 -15.5 27.5 16.6 31.4 7 10 Alarm State:  0
Wed Sep 20 07:45:50 PDT 2017 ON: 20.00 +20.0 20.05 -15.5 27.5 16.6 31.4 7 10 Alarm State:  0
Wed Sep 20 07:44:48 PDT 2017 ON: 19.99 +20.0 20.07 -15.8 27.0 16.9 31.3 7 9 Alarm State:  0
Wed Sep 20 07:43:47 PDT 2017 ON: 19.99 +20.0 20.04 -15.3 27.7 16.5 31.5 8 10 Alarm State:  0
Wed Sep 20 07:42:45 PDT 2017 ON: 20.00 +20.0 20.06 -15.5 27.4 16.7 31.3 7 9 Alarm State:  0
Wed Sep 20 07:41:44 PDT 2017 ON: 20.00 +20.0 20.06 -15.4 27.6 16.5 31.4 7 10 Alarm State:  0
Wed Sep 20 07:40:42 PDT 2017 ON: 19.99 +20.0 20.04 -15.5 27.4 16.7 31.4 7 10 Alarm State:  0
Wed Sep 20 07:39:41 PDT 2017 ON: 19.99 +20.0 20.03 -15.4 27.6 16.5 31.5 7 10 Alarm State:  0
Wed Sep 20 07:38:39 PDT 2017 ON: 20.00 +20.0 20.06 -15.6 27.3 16.8 31.5 7 9 Alarm State:  0
Wed Sep 20 07:37:38 PDT 2017 ON: 19.99 +20.0 20.06 -15.7 27.1 16.9 31.4 7 10 Alarm State:  0
Wed Sep 20 07:36:36 PDT 2017 ON: 20.00 +20.0 20.04 -15.4 27.6 16.5 31.5 7 10 Alarm State:  0
Wed Sep 20 07:35:35 PDT 2017 ON: 20.01 +20.0 20.06 -15.4 27.6 16.6 31.5 8 9 Alarm State:  0
Wed Sep 20 07:34:33 PDT 2017 ON: 20.00 +20.0 20.08 -15.7 27.2 16.8 31.4 7 9 Alarm State:  0
Wed Sep 20 07:33:32 PDT 2017 ON: 19.99 +20.0 20.05 -15.1 28.0 16.3 31.6 7 10 Alarm State:  0
Wed Sep 20 07:32:31 PDT 2017 ON: 19.98 +20.0 20.04 -15.0 28.2 16.1 31.7 7 10 Alarm State:  0
Wed Sep 20 07:31:29 PDT 2017 ON: 20.00 +20.0 20.04 -15.7 27.2 16.8 31.3 7 10 Alarm State:  0
Wed Sep 20 07:30:28 PDT 2017 ON: 20.00 +20.0 20.06 -15.5 27.5 16.6 31.4 7 9 Alarm State:  0
Wed Sep 20 07:29:26 PDT 2017 ON: 19.99 +20.0 20.08 -15.5 27.4 16.7 31.4 8 9 Alarm State:  0
Wed Sep 20 07:28:25 PDT 2017 ON: 19.99 +20.0 20.06 -15.6 27.3 16.8 31.4 7 9 Alarm State:  0
Wed Sep 20 07:27:23 PDT 2017 ON: 19.99 +20.0 20.05 -15.3 27.7 16.5 31.5 7 10 Alarm State:  0
Wed Sep 20 07:26:22 PDT 2017 ON: 20.00 +20.0 20.05 -15.5 27.5 16.6 31.5 7 10 Alarm State:  0
Wed Sep 20 07:25:20 PDT 2017 ON: 20.00 +20.0 20.07 -15.6 27.3 16.8 31.4 7 9 Alarm State:  0
Wed Sep 20 07:24:19 PDT 2017 ON: 19.99 +20.0 20.06 -15.6 27.3 16.8 31.4 8 9 Alarm State:  0
Wed Sep 20 07:23:17 PDT 2017 ON: 19.99 +20.0 20.04 -15.4 27.6 16.5 31.5 7 10 Alarm State:  0
Wed Sep 20 07:22:16 PDT 2017 ON: 20.00 +20.0 20.06 -15.6 27.3 16.8 31.4 7 9 Alarm State:  0
Wed Sep 20 07:21:14 PDT 2017 ON: 19.99 +20.0 20.05 -15.3 27.8 16.4 31.5 7 10 Alarm State:  0
Wed Sep 20 07:20:13 PDT 2017 ON: 19.99 +20.0 20.06 -15.7 27.2 16.8 31.4 7 9 Alarm State:  0
Wed Sep 20 07:19:11 PDT 2017 ON: 19.99 +20.0 20.05 -15.7 27.2 16.8 31.4 7 10 Alarm State:  0
Wed Sep 20 07:18:10 PDT 2017 ON: 19.99 +20.0 20.05 -15.5 27.5 16.6 31.4 7 10 Alarm State:  0
Wed Sep 20 07:17:08 PDT 2017 ON: 19.99 +20.0 20.05 -15.4 27.6 16.5 31.5 7 10 Alarm State:  0
Wed Sep 20 07:16:07 PDT 2017 ON: 20.00 +20.0 20.06 -15.3 27.7 16.5 31.4 8 9 Alarm State:  0
Wed Sep 20 07:15:05 PDT 2017 ON: 20.00 +20.0 20.05 -15.2 27.9 16.3 31.4 7 10 Alarm State:  0
Wed Sep 20 07:14:04 PDT 2017 ON: 19.99 +20.0 20.06 -15.4 27.6 16.5 31.4 7 10 Alarm State:  0
Wed Sep 20 07:13:02 PDT 2017 ON: 20.00 +20.0 20.05 -15.3 27.7 16.5 31.3 8 10 Alarm State:  0
Wed Sep 20 07:12:01 PDT 2017 ON: 20.00 +20.0 20.06 -15.5 27.5 16.6 31.3 7 10 Alarm State:  0
Wed Sep 20 07:10:59 PDT 2017 ON: 19.99 +20.0 20.04 -15.4 27.6 16.5 31.2 8 10 Alarm State:  0
Wed Sep 20 07:09:58 PDT 2017 ON: 19.99 +20.0 20.05 -15.4 27.6 16.5 31.3 7 10 Alarm State:  0
Wed Sep 20 07:08:56 PDT 2017 ON: 20.00 +20.0 20.06 -15.6 27.3 16.8 31.2 7 10 Alarm State:  0
Wed Sep 20 07:07:55 PDT 2017 ON: 19.99 +20.0 20.05 -15.4 27.6 16.5 31.3 8 10 Alarm State:  0
Wed Sep 20 07:06:53 PDT 2017 ON: 19.99 +20.0 20.06 -15.5 27.5 16.6 31.4 7 9 Alarm State:  0
Wed Sep 20 07:05:52 PDT 2017 ON: 20.00 +20.0 20.07 -15.4 27.6 16.5 31.4 7 9 Alarm State:  0
Wed Sep 20 07:04:50 PDT 2017 ON: 20.00 +20.0 20.06 -15.5 27.4 16.7 31.4 8 10 Alarm State:  0
Wed Sep 20 07:03:49 PDT 2017 ON: 19.99 +20.0 20.05 -15.3 27.7 16.5 31.5 7 10 Alarm State:  0
Wed Sep 20 07:02:47 PDT 2017 ON: 20.00 +20.0 20.06 -15.3 27.8 16.4 31.5 7 9 Alarm State:  0
Wed Sep 20 07:01:46 PDT 2017 ON: 20.00 +20.0 20.05 -15.4 27.6 16.5 31.5 7 10 Alarm State:  0
Wed Sep 20 07:00:44 PDT 2017 ON: 20.00 +20.0 20.06 -15.4 27.6 16.5 31.5 7 10 Alarm State:  0
Wed Sep 20 06:59:43 PDT 2017 ON: 19.99 +20.0 20.06 -15.5 27.5 16.6 31.4 7 10 Alarm State:  0
Wed Sep 20 06:58:41 PDT 2017 ON: 19.99 +20.0 20.05 -15.5 27.4 16.7 31.4 7 10 Alarm State:  0
Wed Sep 20 06:57:40 PDT 2017 ON: 19.99 +20.0 20.06 -15.6 27.3 16.8 31.4 7 10 Alarm State:  0
Wed Sep 20 06:56:38 PDT 2017 ON: 19.99 +20.0 20.05 -15.5 27.4 16.7 31.4 8 10 Alarm State:  0
Wed Sep 20 06:55:37 PDT 2017 ON: 20.00 +20.0 20.07 -15.8 27.0 17.0 31.3 7 9 Alarm State:  0
Wed Sep 20 06:54:35 PDT 2017 ON: 19.99 +20.0 20.06 -15.4 27.6 16.5 31.4 7 10 Alarm State:  0
Wed Sep 20 06:53:34 PDT 2017 ON: 19.99 +20.0 20.06 -15.5 27.5 16.6 31.4 7 10 Alarm State:  0
Wed Sep 20 06:52:32 PDT 2017 ON: 20.00 +20.0 20.05 -15.3 27.7 16.5 31.4 7 10 Alarm State:  0
Wed Sep 20 06:51:31 PDT 2017 ON: 20.00 +20.0 20.07 -15.7 27.1 16.9 31.3 7 9 Alarm State:  0
Wed Sep 20 06:50:29 PDT 2017 ON: 19.99 +20.0 20.06 -15.5 27.5 16.6 31.4 7 10 Alarm State:  0
Wed Sep 20 06:49:28 PDT 2017 ON: 19.99 +20.0 20.06 -15.4 27.6 16.5 31.5 7 9 Alarm State:  0
Wed Sep 20 06:48:26 PDT 2017 ON: 19.99 +20.0 20.04 -15.3 27.8 16.4 31.5 7 10 Alarm State:  0
Wed Sep 20 06:47:25 PDT 2017 ON: 19.99 +20.0 20.05 -15.4 27.6 16.5 31.5 7 9 Alarm State:  0
Wed Sep 20 06:46:23 PDT 2017 ON: 20.00 +20.0 20.06 -15.4 27.6 16.5 31.4 7 10 Alarm State:  0
Wed Sep 20 06:45:22 PDT 2017 ON: 19.99 +20.0 20.06 -15.5 27.5 16.6 31.4 8 10 Alarm State:  0
Wed Sep 20 06:44:20 PDT 2017 ON: 19.99 +20.0 20.04 -15.5 27.5 16.6 31.5 7 10 Alarm State:  0
Wed Sep 20 06:43:19 PDT 2017 ON: 20.00 +20.0 20.05 -15.5 27.4 16.7 31.4 7 10 Alarm State:  0
Wed Sep 20 06:42:18 PDT 2017 ON: 19.99 +20.0 20.06 -15.6 27.3 16.8 31.3 7 10 Alarm State:  0
Wed Sep 20 06:41:16 PDT 2017 ON: 20.00 +20.0 20.06 -15.5 27.5 16.6 31.4 7 9 Alarm State:  0
Wed Sep 20 06:40:15 PDT 2017 ON: 19.99 +20.0 20.04 -15.2 27.9 16.3 31.5 7 11 Alarm State:  0
Wed Sep 20 06:39:13 PDT 2017 ON: 19.99 +20.0 20.05 -15.4 27.6 16.5 31.4 7 10 Alarm State:  0
Wed Sep 20 06:38:12 PDT 2017 ON: 19.99 +20.0 20.04 -15.3 27.7 16.5 31.4 7 10 Alarm State:  0
Wed Sep 20 06:37:10 PDT 2017 ON: 20.00 +20.0 20.05 -15.3 27.7 16.5 31.5 7 10 Alarm State:  0
Wed Sep 20 06:36:09 PDT 2017 ON: 20.01 +20.0 20.07 -15.3 27.7 16.5 31.4 7 10 Alarm State:  0
Wed Sep 20 06:35:07 PDT 2017 ON: 19.99 +20.0 20.05 -15.3 27.8 16.4 31.5 7 10 Alarm State:  0
Wed Sep 20 06:34:06 PDT 2017 ON: 19.99 +20.0 20.04 -15.5 27.5 16.6 31.4 7 10 Alarm State:  0
Wed Sep 20 06:33:04 PDT 2017 ON: 20.00 +20.0 20.05 -15.6 27.3 16.8 31.4 7 10 Alarm State:  0
Wed Sep 20 06:32:03 PDT 2017 ON: 20.00 +20.0 20.06 -15.7 27.1 16.9 31.3 8 10 Alarm State:  0
Wed Sep 20 06:31:01 PDT 2017 ON: 19.99 +20.0 20.03 -15.1 28.1 16.2 31.5 7 11 Alarm State:  0
Wed Sep 20 06:30:00 PDT 2017 ON: 20.01 +20.0 20.05 -15.6 27.3 16.8 31.4 7 9 Alarm State:  0
Wed Sep 20 06:28:58 PDT 2017 ON: 20.00 +20.0 20.07 -15.8 27.0 16.9 31.3 8 9 Alarm State:  0
Wed Sep 20 06:27:57 PDT 2017 ON: 19.99 +20.0 20.05 -15.7 27.2 16.8 31.4 7 10 Alarm State:  0
Wed Sep 20 06:26:55 PDT 2017 ON: 20.00 +20.0 20.05 -15.7 27.1 16.9 31.2 8 9 Alarm State:  0
Wed Sep 20 06:25:54 PDT 2017 ON: 20.00 +20.0 20.05 -15.4 27.6 16.5 31.4 7 10 Alarm State:  0
Wed Sep 20 06:24:52 PDT 2017 ON: 20.00 +20.0 20.05 -15.5 27.5 16.6 31.4 7 10 Alarm State:  0
Wed Sep 20 06:23:51 PDT 2017 ON: 19.99 +20.0 20.05 -15.4 27.6 16.5 31.4 8 10 Alarm State:  0
Wed Sep 20 06:22:49 PDT 2017 ON: 20.00 +20.0 20.05 -15.3 27.7 16.5 31.5 7 10 Alarm State:  0
Wed Sep 20 06:21:48 PDT 2017 ON: 19.99 +20.0 20.05 -15.7 27.1 16.9 31.3 7 10 Alarm State:  0
Wed Sep 20 06:20:46 PDT 2017 ON: 19.99 +20.0 20.04 -15.6 27.3 16.8 31.4 8 10 Alarm State:  0
Wed Sep 20 06:19:45 PDT 2017 ON: 20.00 +20.0 20.05 -15.6 27.3 16.8 31.3 7 10 Alarm State:  0
Wed Sep 20 06:18:43 PDT 2017 ON: 20.00 +20.0 20.06 -15.3 27.7 16.5 31.4 7 10 Alarm State:  0
Wed Sep 20 06:17:42 PDT 2017 ON: 19.99 +20.0 20.06 -15.3 27.7 16.5 31.5 7 10 Alarm State:  0
Wed Sep 20 06:16:40 PDT 2017 ON: 19.99 +20.0 20.05 -15.5 27.4 16.7 31.4 7 10 Alarm State:  0
Wed Sep 20 06:15:39 PDT 2017 ON: 20.00 +20.0 20.06 -15.7 27.2 16.8 31.3 8 9 Alarm State:  0
Wed Sep 20 06:14:37 PDT 2017 ON: 20.01 +20.0 20.07 -15.4 27.6 16.5 31.5 7 9 Alarm State:  0
Wed Sep 20 06:13:36 PDT 2017 ON: 19.99 +20.0 20.05 -15.5 27.5 16.6 31.3 7 11 Alarm State:  0
Wed Sep 20 06:12:34 PDT 2017 ON: 20.00 +20.0 20.05 -15.3 27.8 16.5 31.5 7 10 Alarm State:  0
Wed Sep 20 06:11:33 PDT 2017 ON: 20.00 +20.0 20.06 -15.4 27.6 16.5 31.4 7 10 Alarm State:  0
Wed Sep 20 06:10:31 PDT 2017 ON: 19.99 +20.0 20.04 -15.3 27.7 16.5 31.5 7 10 Alarm State:  0
Wed Sep 20 06:09:30 PDT 2017 ON: 20.00 +20.0 20.06 -15.6 27.3 16.8 31.3 8 9 Alarm State:  0
Wed Sep 20 06:08:28 PDT 2017 ON: 20.00 +20.0 20.06 -15.3 27.7 16.5 31.4 7 10 Alarm State:  0
Wed Sep 20 06:07:27 PDT 2017 ON: 19.99 +20.0 20.05 -15.3 27.7 16.5 31.4 7 10 Alarm State:  0
Wed Sep 20 06:06:25 PDT 2017 ON: 20.00 +20.0 20.05 -15.3 27.7 16.5 31.4 7 10 Alarm State:  0
Wed Sep 20 06:05:24 PDT 2017 ON: 20.00 +20.0 20.05 -15.3 27.7 16.5 31.4 7 10 Alarm State:  0
Wed Sep 20 06:04:22 PDT 2017 ON: 19.99 +20.0 20.07 -15.6 27.3 16.8 31.4 8 9 Alarm State:  0
Wed Sep 20 06:03:21 PDT 2017 ON: 19.99 +20.0 20.04 -15.5 27.5 16.6 31.4 8 10 Alarm State:  0
Wed Sep 20 06:02:19 PDT 2017 ON: 20.00 +20.0 20.06 -15.4 27.6 16.5 31.4 7 9 Alarm State:  0
Wed Sep 20 06:01:18 PDT 2017 ON: 20.01 +20.0 20.07 -15.9 26.9 17.0 31.2 8 9 Alarm State:  0
Wed Sep 20 06:00:16 PDT 2017 ON: 19.99 +20.0 20.04 -15.1 28.0 16.3 31.5 7 11 Alarm State:  0
Wed Sep 20 05:59:15 PDT 2017 ON: 19.99 +20.0 20.05 -15.1 28.0 16.3 31.6 7 10 Alarm State:  0
Wed Sep 20 05:58:13 PDT 2017 ON: 20.00 +20.0 20.05 -15.5 27.4 16.7 31.4 7 9 Alarm State:  0
Wed Sep 20 05:57:12 PDT 2017 ON: 20.00 +20.0 20.06 -15.5 27.4 16.7 31.3 7 10 Alarm State:  0
Wed Sep 20 05:56:10 PDT 2017 ON: 19.99 +20.0 20.04 -15.3 27.8 16.4 31.5 7 10 Alarm State:  0
Wed Sep 20 05:55:09 PDT 2017 ON: 19.99 +20.0 20.04 -15.1 28.1 16.2 31.6 7 10 Alarm State:  0
Wed Sep 20 05:54:07 PDT 2017 ON: 19.99 +20.0 20.07 -15.8 27.0 16.9 31.3 7 9 Alarm State:  0
Wed Sep 20 05:53:06 PDT 2017 ON: 19.99 +20.0 20.05 -15.5 27.4 16.7 31.4 7 9 Alarm State:  0
Wed Sep 20 05:52:04 PDT 2017 ON: 20.00 +20.0 20.06 -15.5 27.4 16.7 31.5 7 9 Alarm State:  0
Wed Sep 20 05:51:03 PDT 2017 ON: 19.99 +20.0 20.05 -15.3 27.8 16.4 31.5 7 10 Alarm State:  0
Wed Sep 20 05:50:01 PDT 2017 ON: 19.99 +20.0 20.05 -15.3 27.7 16.5 31.4 7 10 Alarm State:  0
Wed Sep 20 05:49:00 PDT 2017 ON: 19.99 +20.0 20.05 -15.5 27.4 16.7 31.5 7 9 Alarm State:  0
Wed Sep 20 05:47:58 PDT 2017 ON: 20.00 +20.0 20.06 -15.6 27.3 16.8 31.3 7 9 Alarm State:  0
Wed Sep 20 05:46:57 PDT 2017 ON: 19.99 +20.0 20.04 -15.5 27.5 16.6 31.3 7 10 Alarm State:  0
Wed Sep 20 05:45:55 PDT 2017 ON: 20.00 +20.0 20.07 -15.6 27.3 16.8 31.3 7 8 Alarm State:  0
Wed Sep 20 05:44:54 PDT 2017 ON: 20.01 +20.0 20.07 -15.8 27.0 16.9 31.3 8 9 Alarm State:  0
Wed Sep 20 05:43:53 PDT 2017 ON: 19.99 +20.0 20.06 -15.7 27.2 16.8 31.3 7 10 Alarm State:  0
Wed Sep 20 05:42:51 PDT 2017 ON: 19.98 +20.0 20.04 -15.3 27.7 16.5 31.4 7 10 Alarm State:  0
Wed Sep 20 05:41:50 PDT 2017 ON: 20.00 +20.0 20.05 -15.3 27.7 16.5 31.4 7 9 Alarm State:  0
Wed Sep 20 05:40:48 PDT 2017 ON: 20.00 +20.0 20.06 -15.6 27.3 16.8 31.3 7 9 Alarm State:  0
Wed Sep 20 05:39:47 PDT 2017 ON: 20.00 +20.0 20.05 -15.3 27.7 16.5 31.5 7 10 Alarm State:  0
Wed Sep 20 05:38:45 PDT 2017 ON: 19.99 +20.0 20.05 -15.5 27.4 16.7 31.4 7 10 Alarm State:  0
Wed Sep 20 05:37:44 PDT 2017 ON: 19.99 +20.0 20.06 -15.7 27.1 16.9 31.3 7 10 Alarm State:  0
Wed Sep 20 05:36:42 PDT 2017 ON: 20.00 +20.0 20.05 -15.6 27.3 16.8 31.3 8 10 Alarm State:  0
Wed Sep 20 05:35:41 PDT 2017 ON: 20.00 +20.0 20.05 -15.3 27.8 16.4 31.5 7 10 Alarm State:  0
Wed Sep 20 05:34:39 PDT 2017 ON: 19.99 +20.0 20.05 -15.3 27.7 16.5 31.5 7 10 Alarm State:  0
Wed Sep 20 05:33:38 PDT 2017 ON: 19.99 +20.0 20.04 -15.5 27.5 16.6 31.4 7 10 Alarm State:  0
Wed Sep 20 05:32:36 PDT 2017 ON: 20.00 +20.0 20.07 -15.8 27.0 17.0 31.2 7 9 Alarm State:  0
Wed Sep 20 05:31:35 PDT 2017 ON: 20.00 +20.0 20.06 -15.7 27.2 16.8 31.3 8 9 Alarm State:  0
Wed Sep 20 05:30:33 PDT 2017 ON: 20.00 +20.0 20.06 -15.5 27.5 16.6 31.3 7 9 Alarm State:  0
Wed Sep 20 05:29:32 PDT 2017 ON: 20.00 +20.0 20.06 -15.4 27.6 16.5 31.4 7 10 Alarm State:  0
Wed Sep 20 05:28:30 PDT 2017 ON: 19.99 +20.0 20.06 -15.4 27.6 16.5 31.4 7 10 Alarm State:  0
Wed Sep 20 05:27:29 PDT 2017 ON: 19.99 +20.0 20.03 -15.3 27.7 16.5 31.5 7 10 Alarm State:  0
Wed Sep 20 05:26:27 PDT 2017 ON: 20.00 +20.0 20.07 -15.7 27.1 16.9 31.4 7 9 Alarm State:  0
Wed Sep 20 05:25:26 PDT 2017 ON: 19.99 +20.0 20.04 -15.1 28.0 16.3 31.6 7 11 Alarm State:  0
Wed Sep 20 05:24:24 PDT 2017 ON: 19.99 +20.0 20.05 -15.2 27.9 16.3 31.5 7 10 Alarm State:  0
Wed Sep 20 05:23:23 PDT 2017 ON: 19.99 +20.0 20.05 -15.3 27.7 16.5 31.5 7 10 Alarm State:  0
Wed Sep 20 05:22:21 PDT 2017 ON: 19.99 +20.0 20.04 -15.3 27.7 16.5 31.4 7 11 Alarm State:  0
Wed Sep 20 05:21:20 PDT 2017 ON: 19.98 +20.0 20.04 -15.2 27.9 16.3 31.5 7 10 Alarm State:  0
Wed Sep 20 05:20:18 PDT 2017 ON: 20.00 +20.0 20.05 -15.6 27.3 16.8 31.3 8 9 Alarm State:  0
Wed Sep 20 05:19:17 PDT 2017 ON: 20.00 +20.0 20.04 -15.5 27.5 16.6 31.4 7 10 Alarm State:  0
Wed Sep 20 05:18:15 PDT 2017 ON: 20.00 +20.0 20.05 -15.3 27.7 16.5 31.4 7 10 Alarm State:  0
Wed Sep 20 05:17:14 PDT 2017 ON: 19.99 +20.0 20.04 -15.1 28.0 16.3 31.5 7 10 Alarm State:  0
Wed Sep 20 05:16:12 PDT 2017 ON: 20.00 +20.0 20.07 -15.5 27.4 16.7 31.3 7 9 Alarm State:  0
Wed Sep 20 05:15:11 PDT 2017 ON: 20.00 +20.0 20.07 -15.8 27.0 16.9 31.3 8 9 Alarm State:  0
Wed Sep 20 05:14:09 PDT 2017 ON: 19.99 +20.0 20.04 -15.3 27.8 16.4 31.4 7 10 Alarm State:  0
Wed Sep 20 05:13:08 PDT 2017 ON: 20.00 +20.0 20.04 -15.4 27.6 16.5 31.5 7 10 Alarm State:  0
Wed Sep 20 05:11:56 PDT 2017  Alarm State: 0
Wed Sep 20 05:11:56 PDT 2017 Chiller did not report ON, got this reading: 
Wed Sep 20 05:10:55 PDT 2017 ON: 19.99 +20.0 20.06 -15.1 28.0 16.3 31.5 7 10 Alarm State:  0
Wed Sep 20 05:09:53 PDT 2017 ON: 19.99 +20.0 20.04 -15.1 28.0 16.3 31.5 7 11 Alarm State:  0
Wed Sep 20 05:08:52 PDT 2017 ON: 19.99 +20.0 20.04 -15.5 27.4 16.7 31.4 7 10 Alarm State:  0
Wed Sep 20 05:07:50 PDT 2017 ON: 20.00 +20.0 20.05 -15.4 27.6 16.5 31.4 8 10 Alarm State:  0
Wed Sep 20 05:06:49 PDT 2017 ON: 19.99 +20.0 20.06 -15.6 27.3 16.8 31.4 7 10 Alarm State:  0
Wed Sep 20 05:05:47 PDT 2017 ON: 19.99 +20.0 20.04 -15.2 27.9 16.3 31.5 7 10 Alarm State:  0
Wed Sep 20 05:04:46 PDT 2017 ON: 19.99 +20.0 20.04 -15.5 27.4 16.7 31.4 8 10 Alarm State:  0
Wed Sep 20 05:03:44 PDT 2017 ON: 20.00 +20.0 20.05 -15.2 27.9 16.3 31.5 7 10 Alarm State:  0
Wed Sep 20 05:02:43 PDT 2017 ON: 20.01 +20.0 20.07 -15.2 27.9 16.3 31.5 7 9 Alarm State:  0
Wed Sep 20 05:01:41 PDT 2017 ON: 19.99 +20.0 20.04 -15.3 27.8 16.4 31.4 7 11 Alarm State:  0
Wed Sep 20 05:00:40 PDT 2017 ON: 19.99 +20.0 20.05 -15.5 27.5 16.6 31.4 7 10 Alarm State:  0
Wed Sep 20 04:59:38 PDT 2017 ON: 20.00 +20.0 20.07 -15.5 27.4 16.7 31.4 8 9 Alarm State:  0
Wed Sep 20 04:58:37 PDT 2017 ON: 19.99 +20.0 20.05 -15.2 27.9 16.3 31.5 7 10 Alarm State:  0
Wed Sep 20 04:57:35 PDT 2017 ON: 20.00 +20.0 20.05 -15.6 27.3 16.8 31.3 7 10 Alarm State:  0
Wed Sep 20 04:56:34 PDT 2017 ON: 19.99 +20.0 20.04 -15.3 27.8 16.4 31.5 7 10 Alarm State:  0
Wed Sep 20 04:55:32 PDT 2017 ON: 20.00 +20.0 20.05 -15.5 27.4 16.7 31.5 7 9 Alarm State:  0
Wed Sep 20 04:54:31 PDT 2017 ON: 20.01 +20.0 20.08 -15.9 26.9 17.0 31.2 7 9 Alarm State:  0
Wed Sep 20 04:53:29 PDT 2017 ON: 19.99 +20.0 20.05 -15.1 28.1 16.2 31.6 7 11 Alarm State:  0
Wed Sep 20 04:52:28 PDT 2017 ON: 19.99 +20.0 20.04 -15.5 27.5 16.6 31.4 7 10 Alarm State:  0
Wed Sep 20 04:51:26 PDT 2017 ON: 20.00 +20.0 20.04 -15.5 27.5 16.6 31.4 8 10 Alarm State:  0
Wed Sep 20 04:50:25 PDT 2017 ON: 20.00 +20.0 20.05 -15.1 28.0 16.3 31.5 7 10 Alarm State:  0
Wed Sep 20 04:49:23 PDT 2017 ON: 19.99 +20.0 20.07 -15.7 27.2 16.8 31.3 7 10 Alarm State:  0
Wed Sep 20 04:48:22 PDT 2017 ON: 19.99 +20.0 20.06 -15.5 27.4 16.7 31.5 8 9 Alarm State:  0
Wed Sep 20 04:47:20 PDT 2017 ON: 20.00 +20.0 20.06 -15.5 27.5 16.6 31.4 7 9 Alarm State:  0
Wed Sep 20 04:46:19 PDT 2017 ON: 20.00 +20.0 20.06 -15.3 27.7 16.5 31.4 7 10 Alarm State:  0
Wed Sep 20 04:45:18 PDT 2017 ON: 19.99 +20.0 20.05 -15.1 28.0 16.3 31.5 7 10 Alarm State:  0
Wed Sep 20 04:44:16 PDT 2017 ON: 19.99 +20.0 20.04 -15.5 27.5 16.6 31.5 7 10 Alarm State:  0
Wed Sep 20 04:43:15 PDT 2017 ON: 20.00 +20.0 20.06 -15.6 27.3 16.8 31.3 8 9 Alarm State:  0
Wed Sep 20 04:42:13 PDT 2017 ON: 19.99 +20.0 20.05 -15.8 27.0 16.9 31.3 7 10 Alarm State:  0
Wed Sep 20 04:41:12 PDT 2017 ON: 20.00 +20.0 20.04 -15.1 28.0 16.3 31.5 7 10 Alarm State:  0
Wed Sep 20 04:40:10 PDT 2017 ON: 19.99 +20.0 20.05 -15.4 27.6 16.5 31.4 7 10 Alarm State:  0
Wed Sep 20 04:39:09 PDT 2017 ON: 19.99 +20.0 20.04 -15.3 27.7 16.5 31.5 7 10 Alarm State:  0
Wed Sep 20 04:38:07 PDT 2017 ON: 20.00 +20.0 20.05 -15.6 27.3 16.8 31.4 7 10 Alarm State:  0
Wed Sep 20 04:37:06 PDT 2017 ON: 19.99 +20.0 20.07 -15.9 26.9 17.0 31.2 7 9 Alarm State:  0
Wed Sep 20 04:36:04 PDT 2017 ON: 19.99 +20.0 20.05 -15.7 27.1 16.9 31.4 7 9 Alarm State:  0
Wed Sep 20 04:35:03 PDT 2017 ON: 20.00 +20.0 20.07 -15.9 26.8 17.1 31.2 8 9 Alarm State:  0
Wed Sep 20 04:33:51 PDT 2017  Alarm State: 0
Wed Sep 20 04:33:51 PDT 2017 Chiller did not report ON, got this reading: 
Wed Sep 20 04:32:50 PDT 2017 ON: 19.99 +20.0 20.05 -15.5 27.5 16.6 31.5 8 10 Alarm State:  0
Wed Sep 20 04:31:48 PDT 2017 ON: 20.00 +20.0 20.05 -15.4 27.6 16.5 31.5 7 9 Alarm State:  0
Wed Sep 20 04:30:47 PDT 2017 ON: 19.99 +20.0 20.05 -15.3 27.7 16.5 31.5 7 10 Alarm State:  0
Wed Sep 20 04:29:45 PDT 2017 ON: 19.99 +20.0 20.05 -15.4 27.6 16.5 31.4 7 10 Alarm State:  0
Wed Sep 20 04:28:44 PDT 2017 ON: 20.00 +20.0 20.05 -15.3 27.8 16.4 31.5 7 10 Alarm State:  0
Wed Sep 20 04:27:42 PDT 2017 ON: 19.99 +20.0 20.04 -15.1 28.0 16.3 31.6 7 10 Alarm State:  0
Wed Sep 20 04:26:41 PDT 2017 ON: 19.99 +20.0 20.06 -15.5 27.4 16.7 31.4 7 10 Alarm State:  0
Wed Sep 20 04:25:39 PDT 2017 ON: 20.00 +20.0 20.04 -15.3 27.8 16.4 31.4 7 10 Alarm State:  0
Wed Sep 20 04:24:38 PDT 2017 ON: 20.00 +20.0 20.07 -15.5 27.5 16.6 31.4 8 9 Alarm State:  0
Wed Sep 20 04:23:36 PDT 2017 ON: 19.99 +20.0 20.05 -15.6 27.3 16.8 31.4 7 10 Alarm State:  0
Wed Sep 20 04:22:35 PDT 2017 ON: 20.00 +20.0 20.05 -15.4 27.6 16.5 31.5 7 9 Alarm State:  0
Wed Sep 20 04:21:33 PDT 2017 ON: 20.00 +20.0 20.07 -15.5 27.4 16.7 31.4 7 9 Alarm State:  0
Wed Sep 20 04:20:32 PDT 2017 ON: 19.99 +20.0 20.05 -15.5 27.5 16.6 31.5 7 10 Alarm State:  0
Wed Sep 20 04:19:30 PDT 2017 ON: 19.99 +20.0 20.05 -15.5 27.5 16.6 31.5 7 10 Alarm State:  0
Wed Sep 20 04:18:29 PDT 2017 ON: 20.00 +20.0 20.05 -15.5 27.5 16.6 31.4 7 10 Alarm State:  0
Wed Sep 20 04:17:27 PDT 2017 ON: 19.99 +20.0 20.07 -15.7 27.1 16.9 31.2 7 9 Alarm State:  0
Wed Sep 20 04:16:26 PDT 2017 ON: 19.99 +20.0 20.04 -15.4 27.6 16.5 31.5 7 10 Alarm State:  0
Wed Sep 20 04:15:24 PDT 2017 ON: 20.00 +20.0 20.05 -15.6 27.3 16.8 31.4 7 10 Alarm State:  0
Wed Sep 20 04:14:23 PDT 2017 ON: 19.99 +20.0 20.05 -15.4 27.6 16.5 31.4 7 10 Alarm State:  0
Wed Sep 20 04:13:21 PDT 2017 ON: 20.00 +20.0 20.05 -15.5 27.5 16.6 31.4 7 9 Alarm State:  0
Wed Sep 20 04:12:20 PDT 2017 ON: 20.00 +20.0 20.07 -15.7 27.2 16.8 31.3 7 9 Alarm State:  0
Wed Sep 20 04:11:18 PDT 2017 ON: 19.99 +20.0 20.04 -15.1 28.0 16.3 31.5 8 10 Alarm State:  0
Wed Sep 20 04:10:17 PDT 2017 ON: 20.00 +20.0 20.06 -15.5 27.4 16.7 31.3 7 9 Alarm State:  0
Wed Sep 20 04:09:15 PDT 2017 ON: 20.00 +20.0 20.05 -15.5 27.4 16.7 31.4 7 10 Alarm State:  0
Wed Sep 20 04:08:14 PDT 2017 ON: 19.99 +20.0 20.06 -15.4 27.6 16.5 31.5 8 10 Alarm State:  0
Wed Sep 20 04:07:12 PDT 2017 ON: 19.99 +20.0 20.06 -15.8 27.0 16.9 31.3 7 9 Alarm State:  0
Wed Sep 20 04:06:11 PDT 2017 ON: 20.00 +20.0 20.05 -15.5 27.5 16.6 31.4 7 10 Alarm State:  0
Wed Sep 20 04:05:09 PDT 2017 ON: 19.99 +20.0 20.04 -15.0 28.2 16.1 31.6 7 11 Alarm State:  0
Wed Sep 20 04:04:08 PDT 2017 ON: 19.99 +20.0 20.05 -15.3 27.8 16.4 31.5 7 10 Alarm State:  0
Wed Sep 20 04:03:06 PDT 2017 ON: 20.00 +20.0 20.06 -15.5 27.4 16.7 31.3 7 9 Alarm State:  0
Wed Sep 20 04:02:05 PDT 2017 ON: 20.00 +20.0 20.05 -15.3 27.7 16.5 31.4 7 10 Alarm State:  0
Wed Sep 20 04:01:03 PDT 2017 ON: 19.99 +20.0 20.05 -15.6 27.3 16.8 31.3 7 10 Alarm State:  0
Wed Sep 20 04:00:02 PDT 2017 ON: 19.99 +20.0 20.05 -15.6 27.3 16.8 31.4 8 9 Alarm State:  0
Wed Sep 20 03:59:01 PDT 2017 ON: 20.01 +20.0 20.04 -15.4 27.6 16.5 31.5 7 10 Alarm State:  0
Wed Sep 20 03:57:59 PDT 2017 ON: 20.00 +20.0 20.07 -15.5 27.4 16.7 31.4 7 10 Alarm State:  0
Wed Sep 20 03:56:58 PDT 2017 ON: 19.99 +20.0 20.05 -15.3 27.7 16.5 31.4 7 10 Alarm State:  0
Wed Sep 20 03:55:56 PDT 2017 ON: 19.99 +20.0 20.04 -15.5 27.4 16.7 31.4 7 10 Alarm State:  0
Wed Sep 20 03:54:55 PDT 2017 ON: 20.00 +20.0 20.05 -15.4 27.6 16.5 31.4 8 10 Alarm State:  0
Wed Sep 20 03:53:53 PDT 2017 ON: 20.00 +20.0 20.05 -15.5 27.5 16.6 31.4 7 10 Alarm State:  0
Wed Sep 20 03:52:52 PDT 2017 ON: 19.99 +20.0 20.05 -15.3 27.7 16.5 31.4 7 10 Alarm State:  0
Wed Sep 20 03:51:50 PDT 2017 ON: 20.00 +20.0 20.06 -15.3 27.8 16.4 31.5 7 9 Alarm State:  0
Wed Sep 20 03:50:49 PDT 2017 ON: 20.00 +20.0 20.06 -15.7 27.2 16.8 31.3 7 9 Alarm State:  0
Wed Sep 20 03:49:47 PDT 2017 ON: 19.99 +20.0 20.04 -15.3 27.8 16.4 31.5 7 10 Alarm State:  0
Wed Sep 20 03:48:46 PDT 2017 ON: 20.00 +20.0 20.04 -15.5 27.4 16.7 31.3 7 10 Alarm State:  0
Wed Sep 20 03:47:44 PDT 2017 ON: 20.00 +20.0 20.06 -15.6 27.3 16.8 31.4 7 10 Alarm State:  0
Wed Sep 20 03:46:43 PDT 2017 ON: 19.99 +20.0 20.05 -15.5 27.4 16.7 31.4 7 10 Alarm State:  0
Wed Sep 20 03:45:41 PDT 2017 ON: 20.00 +20.0 20.06 -15.3 27.7 16.5 31.4 7 9 Alarm State:  0
Wed Sep 20 03:44:40 PDT 2017 ON: 19.99 +20.0 20.04 -15.5 27.4 16.7 31.5 7 10 Alarm State:  0
Wed Sep 20 03:43:38 PDT 2017 ON: 20.00 +20.0 20.05 -15.5 27.4 16.7 31.3 8 10 Alarm State:  0
Wed Sep 20 03:42:37 PDT 2017 ON: 20.00 +20.0 20.06 -15.3 27.8 16.4 31.4 7 10 Alarm State:  0
Wed Sep 20 03:41:35 PDT 2017 ON: 19.99 +20.0 20.05 -15.3 27.8 16.4 31.5 7 10 Alarm State:  0
Wed Sep 20 03:40:34 PDT 2017 ON: 20.00 +20.0 20.05 -15.2 27.9 16.3 31.5 7 9 Alarm State:  0
Wed Sep 20 03:39:32 PDT 2017 ON: 20.00 +20.0 20.06 -15.5 27.4 16.7 31.4 7 9 Alarm State:  0
Wed Sep 20 03:38:31 PDT 2017 ON: 20.00 +20.0 20.06 -15.5 27.5 16.6 31.4 7 9 Alarm State:  0
Wed Sep 20 03:37:29 PDT 2017 ON: 20.00 +20.0 20.07 -15.6 27.3 16.8 31.3 7 9 Alarm State:  0
Wed Sep 20 03:36:18 PDT 2017  Alarm State: 0
Wed Sep 20 03:36:18 PDT 2017 Chiller did not report ON, got this reading: 
Wed Sep 20 03:35:16 PDT 2017 ON: 20.00 +20.0 20.06 -15.5 27.4 16.7 31.4 7 9 Alarm State:  0
Wed Sep 20 03:34:15 PDT 2017 ON: 20.00 +20.0 20.05 -15.3 27.8 16.4 31.5 7 10 Alarm State:  0
Wed Sep 20 03:33:13 PDT 2017 ON: 19.99 +20.0 20.04 -15.2 27.9 16.3 31.5 7 10 Alarm State:  0
Wed Sep 20 03:32:12 PDT 2017 ON: 20.00 +20.0 20.04 -15.4 27.6 16.5 31.4 7 10 Alarm State:  0
Wed Sep 20 03:31:10 PDT 2017 ON: 20.00 +20.0 20.06 -15.5 27.5 16.6 31.4 8 9 Alarm State:  0
Wed Sep 20 03:30:09 PDT 2017 ON: 19.99 +20.0 20.05 -15.4 27.6 16.5 31.4 7 10 Alarm State:  0
Wed Sep 20 03:29:07 PDT 2017 ON: 19.99 +20.0 20.04 -15.3 27.8 16.4 31.4 7 10 Alarm State:  0
Wed Sep 20 03:28:06 PDT 2017 ON: 20.00 +20.0 20.07 -15.7 27.1 16.9 31.3 8 9 Alarm State:  0
Wed Sep 20 03:27:04 PDT 2017 ON: 19.99 +20.0 20.06 -15.5 27.4 16.7 31.4 7 9 Alarm State:  0
Wed Sep 20 03:26:03 PDT 2017 ON: 20.00 +20.0 20.04 -15.3 27.7 16.5 31.4 7 10 Alarm State:  0
Wed Sep 20 03:25:01 PDT 2017 ON: 20.00 +20.0 20.06 -15.3 27.7 16.5 31.4 7 10 Alarm State:  0
Wed Sep 20 03:24:00 PDT 2017 ON: 19.99 +20.0 20.04 -15.4 27.6 16.5 31.5 7 10 Alarm State:  0
Wed Sep 20 03:22:58 PDT 2017 ON: 20.00 +20.0 20.05 -15.3 27.7 16.5 31.5 7 9 Alarm State:  0
Wed Sep 20 03:21:57 PDT 2017 ON: 20.00 +20.0 20.06 -15.3 27.8 16.4 31.4 7 9 Alarm State:  0
Wed Sep 20 03:20:55 PDT 2017 ON: 19.99 +20.0 20.05 -15.3 27.7 16.5 31.5 7 10 Alarm State:  0
Wed Sep 20 03:19:54 PDT 2017 ON: 19.99 +20.0 20.05 -15.4 27.6 16.5 31.4 8 10 Alarm State:  0
Wed Sep 20 03:18:53 PDT 2017 ON: 20.00 +20.0 20.06 -15.5 27.4 16.7 31.4 7 9 Alarm State:  0
Wed Sep 20 03:17:51 PDT 2017 ON: 19.99 +20.0 20.05 -15.5 27.5 16.6 31.4 7 10 Alarm State:  0
Wed Sep 20 03:16:50 PDT 2017 ON: 19.99 +20.0 20.04 -15.3 27.7 16.5 31.5 7 10 Alarm State:  0
Wed Sep 20 03:15:48 PDT 2017 ON: 20.00 +20.0 20.05 -15.7 27.2 16.8 31.2 7 9 Alarm State:  0
Wed Sep 20 03:14:47 PDT 2017 ON: 20.00 +20.0 20.04 -15.2 27.9 16.3 31.5 7 10 Alarm State:  0
Wed Sep 20 03:13:45 PDT 2017 ON: 19.99 +20.0 20.04 -15.1 28.0 16.3 31.5 7 11 Alarm State:  0
Wed Sep 20 03:12:44 PDT 2017 ON: 19.99 +20.0 20.05 -15.5 27.4 16.7 31.4 7 10 Alarm State:  0
Wed Sep 20 03:11:42 PDT 2017 ON: 19.99 +20.0 20.05 -15.5 27.5 16.6 31.3 7 9 Alarm State:  0
Wed Sep 20 03:10:41 PDT 2017 ON: 20.00 +20.0 20.06 -15.5 27.5 16.6 31.4 7 9 Alarm State:  0
Wed Sep 20 03:09:39 PDT 2017 ON: 19.99 +20.0 20.06 -15.5 27.5 16.6 31.4 7 10 Alarm State:  0
Wed Sep 20 03:08:38 PDT 2017 ON: 20.00 +20.0 20.05 -15.5 27.5 16.6 31.4 8 10 Alarm State:  0
Wed Sep 20 03:07:36 PDT 2017 ON: 20.00 +20.0 20.06 -15.5 27.4 16.7 31.4 7 10 Alarm State:  0
Wed Sep 20 03:06:35 PDT 2017 ON: 19.99 +20.0 20.04 -15.5 27.4 16.7 31.4 7 10 Alarm State:  0
Wed Sep 20 03:05:33 PDT 2017 ON: 20.00 +20.0 20.04 -15.7 27.2 16.8 31.3 7 10 Alarm State:  0
Wed Sep 20 03:04:32 PDT 2017 ON: 20.00 +20.0 20.06 -15.5 27.5 16.6 31.4 7 9 Alarm State:  0
Wed Sep 20 03:03:30 PDT 2017 ON: 20.00 +20.0 20.06 -15.5 27.5 16.6 31.4 8 9 Alarm State:  0
Wed Sep 20 03:02:29 PDT 2017 ON: 19.99 +20.0 20.05 -15.3 27.7 16.5 31.5 7 10 Alarm State:  0
Wed Sep 20 03:01:27 PDT 2017 ON: 19.99 +20.0 20.04 -15.5 27.5 16.6 31.4 7 10 Alarm State:  0
Wed Sep 20 03:00:26 PDT 2017 ON: 19.99 +20.0 20.07 -15.6 27.3 16.8 31.4 8 9 Alarm State:  0
Wed Sep 20 02:59:24 PDT 2017 ON: 19.99 +20.0 20.05 -15.3 27.7 16.5 31.4 7 10 Alarm State:  0
Wed Sep 20 02:58:23 PDT 2017 ON: 20.00 +20.0 20.06 -15.7 27.1 16.9 31.4 7 9 Alarm State:  0
Wed Sep 20 02:57:21 PDT 2017 ON: 20.00 +20.0 20.05 -15.2 27.9 16.3 31.5 7 10 Alarm State:  0
Wed Sep 20 02:56:20 PDT 2017 ON: 19.99 +20.0 20.06 -15.4 27.6 16.5 31.4 7 9 Alarm State:  0
Wed Sep 20 02:55:18 PDT 2017 ON: 20.00 +20.0 20.07 -15.5 27.4 16.7 31.4 7 9 Alarm State:  0
Wed Sep 20 02:54:17 PDT 2017 ON: 19.99 +20.0 20.05 -15.4 27.6 16.5 31.4 7 10 Alarm State:  0
Wed Sep 20 02:53:15 PDT 2017 ON: 20.00 +20.0 20.04 -15.3 27.7 16.5 31.5 7 10 Alarm State:  0
Wed Sep 20 02:52:14 PDT 2017 ON: 19.99 +20.0 20.05 -15.3 27.7 16.5 31.4 8 10 Alarm State:  0
Wed Sep 20 02:51:12 PDT 2017 ON: 20.00 +20.0 20.05 -15.5 27.5 16.6 31.4 7 10 Alarm State:  0
Wed Sep 20 02:50:11 PDT 2017 ON: 20.00 +20.0 20.05 -15.1 28.0 16.3 31.5 7 10 Alarm State:  0
Wed Sep 20 02:49:09 PDT 2017 ON: 19.99 +20.0 20.03 -15.1 28.1 16.2 31.5 7 11 Alarm State:  0
Wed Sep 20 02:48:08 PDT 2017 ON: 20.00 +20.0 20.06 -15.7 27.2 16.8 31.3 7 9 Alarm State:  0
Wed Sep 20 02:47:06 PDT 2017 ON: 20.00 +20.0 20.05 -15.3 27.8 16.4 31.5 7 10 Alarm State:  0
Wed Sep 20 02:46:05 PDT 2017 ON: 20.00 +20.0 20.05 -15.1 28.0 16.3 31.5 7 10 Alarm State:  0
Wed Sep 20 02:45:03 PDT 2017 ON: 19.99 +20.0 20.05 -15.4 27.6 16.5 31.4 7 10 Alarm State:  0
Wed Sep 20 02:44:02 PDT 2017 ON: 20.00 +20.0 20.05 -15.2 27.9 16.3 31.5 7 10 Alarm State:  0
Wed Sep 20 02:43:00 PDT 2017 ON: 20.00 +20.0 20.07 -15.7 27.2 16.8 31.3 7 9 Alarm State:  0
Wed Sep 20 02:41:59 PDT 2017 ON: 19.99 +20.0 20.05 -15.3 27.7 16.5 31.4 7 10 Alarm State:  0
Wed Sep 20 02:40:58 PDT 2017 ON: 20.00 +20.0 20.06 -15.3 27.7 16.5 31.4 7 9 Alarm State:  0
Wed Sep 20 02:39:46 PDT 2017  Alarm State: 0
Wed Sep 20 02:39:46 PDT 2017 Chiller did not report ON, got this reading: 
Wed Sep 20 02:38:45 PDT 2017 ON: 19.99 +20.0 20.05 -15.5 27.4 16.7 31.3 7 10 Alarm State:  0
Wed Sep 20 02:37:43 PDT 2017 ON: 20.00 +20.0 20.04 -15.6 27.3 16.8 31.4 7 10 Alarm State:  0
Wed Sep 20 02:36:42 PDT 2017 ON: 20.00 +20.0 20.07 -15.7 27.1 16.9 31.3 8 9 Alarm State:  0
Wed Sep 20 02:35:40 PDT 2017 ON: 19.99 +20.0 20.07 -15.7 27.2 16.8 31.3 7 9 Alarm State:  0
Wed Sep 20 02:34:39 PDT 2017 ON: 19.99 +20.0 20.05 -15.2 27.9 16.3 31.5 7 10 Alarm State:  0
Wed Sep 20 02:33:37 PDT 2017 ON: 19.99 +20.0 20.04 -15.3 27.7 16.5 31.4 7 10 Alarm State:  0
Wed Sep 20 02:32:36 PDT 2017 ON: 20.00 +20.0 20.06 -15.4 27.6 16.5 31.4 7 9 Alarm State:  0
Wed Sep 20 02:31:34 PDT 2017 ON: 19.99 +20.0 20.06 -15.5 27.5 16.6 31.4 8 9 Alarm State:  0
Wed Sep 20 02:30:33 PDT 2017 ON: 19.99 +20.0 20.04 -15.4 27.6 16.5 31.5 7 10 Alarm State:  0
Wed Sep 20 02:29:31 PDT 2017 ON: 20.00 +20.0 20.06 -15.5 27.4 16.7 31.3 7 9 Alarm State:  0
Wed Sep 20 02:28:30 PDT 2017 ON: 19.99 +20.0 20.06 -15.5 27.4 16.7 31.5 7 10 Alarm State:  0
Wed Sep 20 02:27:28 PDT 2017 ON: 19.99 +20.0 20.05 -15.5 27.4 16.7 31.4 7 10 Alarm State:  0
Wed Sep 20 02:26:27 PDT 2017 ON: 20.00 +20.0 20.05 -15.7 27.2 16.8 31.3 7 10 Alarm State:  0
Wed Sep 20 02:25:25 PDT 2017 ON: 20.00 +20.0 20.05 -15.5 27.5 16.6 31.4 7 10 Alarm State:  0
Wed Sep 20 02:24:24 PDT 2017 ON: 19.99 +20.0 20.05 -15.5 27.5 16.6 31.4 7 10 Alarm State:  0
Wed Sep 20 02:23:22 PDT 2017 ON: 19.99 +20.0 20.04 -15.7 27.1 16.9 31.3 8 10 Alarm State:  0
Wed Sep 20 02:22:21 PDT 2017 ON: 20.00 +20.0 20.04 -15.3 27.8 16.4 31.4 7 10 Alarm State:  0
Wed Sep 20 02:21:19 PDT 2017 ON: 20.00 +20.0 20.05 -15.1 28.1 16.2 31.6 7 10 Alarm State:  0
Wed Sep 20 02:20:18 PDT 2017 ON: 20.00 +20.0 20.06 -15.1 28.1 16.2 31.6 7 10 Alarm State:  0
Wed Sep 20 02:19:16 PDT 2017 ON: 19.99 +20.0 20.05 -15.4 27.6 16.5 31.4 7 10 Alarm State:  0
Wed Sep 20 02:18:15 PDT 2017 ON: 19.99 +20.0 20.04 -15.2 27.9 16.3 31.5 7 10 Alarm State:  0
Wed Sep 20 02:17:13 PDT 2017 ON: 20.00 +20.0 20.06 -15.7 27.2 16.8 31.4 7 9 Alarm State:  0
Wed Sep 20 02:16:12 PDT 2017 ON: 20.00 +20.0 20.07 -15.8 27.0 16.9 31.3 7 9 Alarm State:  0
Wed Sep 20 02:15:10 PDT 2017 ON: 19.99 +20.0 20.05 -15.3 27.8 16.4 31.5 7 10 Alarm State:  0
Wed Sep 20 02:14:09 PDT 2017 ON: 20.00 +20.0 20.05 -15.1 28.0 16.3 31.5 7 10 Alarm State:  0
Wed Sep 20 02:13:07 PDT 2017 ON: 19.99 +20.0 20.04 -15.6 27.3 16.8 31.4 7 11 Alarm State:  0
Wed Sep 20 02:12:06 PDT 2017 ON: 20.00 +20.0 20.05 -15.4 27.6 16.5 31.4 7 10 Alarm State:  0
Wed Sep 20 02:11:04 PDT 2017 ON: 20.00 +20.0 20.04 -15.3 27.8 16.4 31.5 7 10 Alarm State:  0
Wed Sep 20 02:10:03 PDT 2017 ON: 20.00 +20.0 20.06 -15.6 27.3 16.8 31.3 7 9 Alarm State:  0
Wed Sep 20 02:09:01 PDT 2017 ON: 19.99 +20.0 20.06 -15.3 27.7 16.5 31.5 7 10 Alarm State:  0
Wed Sep 20 02:08:00 PDT 2017 ON: 20.00 +20.0 20.04 -15.2 27.9 16.3 31.5 7 10 Alarm State:  0
Wed Sep 20 02:06:58 PDT 2017 ON: 20.01 +20.0 20.07 -15.5 27.4 16.7 31.4 8 9 Alarm State:  0
Wed Sep 20 02:05:57 PDT 2017 ON: 19.99 +20.0 20.05 -15.1 28.0 16.3 31.5 7 10 Alarm State:  0
Wed Sep 20 02:04:55 PDT 2017 ON: 20.00 +20.0 20.06 -15.7 27.2 16.8 31.3 7 9 Alarm State:  0
Wed Sep 20 02:03:54 PDT 2017 ON: 20.00 +20.0 20.06 -15.2 27.9 16.3 31.5 7 10 Alarm State:  0
Wed Sep 20 02:02:52 PDT 2017 ON: 19.99 +20.0 20.07 -15.5 27.5 16.6 31.3 7 9 Alarm State:  0
Wed Sep 20 02:01:51 PDT 2017 ON: 19.99 +20.0 20.04 -15.5 27.5 16.6 31.5 7 10 Alarm State:  0
Wed Sep 20 02:00:49 PDT 2017 ON: 20.00 +20.0 20.05 -15.5 27.4 16.7 31.4 7 9 Alarm State:  0
Wed Sep 20 01:59:48 PDT 2017 ON: 19.99 +20.0 20.06 -15.5 27.5 16.6 31.4 7 10 Alarm State:  0
Wed Sep 20 01:58:46 PDT 2017 ON: 19.99 +20.0 20.03 -15.3 27.8 16.4 31.5 7 11 Alarm State:  0
Wed Sep 20 01:57:45 PDT 2017 ON: 20.00 +20.0 20.05 -15.5 27.4 16.7 31.4 7 10 Alarm State:  0
Wed Sep 20 01:56:43 PDT 2017 ON: 20.00 +20.0 20.07 -15.7 27.1 16.9 31.3 7 9 Alarm State:  0
Wed Sep 20 01:55:42 PDT 2017 ON: 19.99 +20.0 20.05 -15.5 27.5 16.6 31.5 8 10 Alarm State:  0
Wed Sep 20 01:54:40 PDT 2017 ON: 19.99 +20.0 20.04 -15.3 27.7 16.5 31.5 7 10 Alarm State:  0
Wed Sep 20 01:53:39 PDT 2017 ON: 20.00 +20.0 20.05 -15.3 27.7 16.5 31.4 7 10 Alarm State:  0
Wed Sep 20 01:52:37 PDT 2017 ON: 20.00 +20.0 20.05 -15.4 27.6 16.5 31.4 7 10 Alarm State:  0
Wed Sep 20 01:51:36 PDT 2017 ON: 19.99 +20.0 20.05 -15.6 27.3 16.8 31.4 7 10 Alarm State:  0
Wed Sep 20 01:50:34 PDT 2017 ON: 20.00 +20.0 20.06 -15.4 27.6 16.5 31.4 8 9 Alarm State:  0
Wed Sep 20 01:49:33 PDT 2017 ON: 20.00 +20.0 20.05 -15.5 27.5 16.6 31.4 7 10 Alarm State:  0
Wed Sep 20 01:48:31 PDT 2017 ON: 19.98 +20.0 20.04 -15.1 28.1 16.2 31.6 7 11 Alarm State:  0
Wed Sep 20 01:47:30 PDT 2017 ON: 19.99 +20.0 20.05 -15.5 27.5 16.6 31.4 8 9 Alarm State:  0
Wed Sep 20 01:46:28 PDT 2017 ON: 20.00 +20.0 20.06 -15.5 27.4 16.7 31.4 7 9 Alarm State:  0
Wed Sep 20 01:45:27 PDT 2017 ON: 20.00 +20.0 20.05 -15.6 27.3 16.8 31.3 7 10 Alarm State:  0
Wed Sep 20 01:44:25 PDT 2017 ON: 19.99 +20.0 20.06 -15.5 27.5 16.6 31.4 7 9 Alarm State:  0
Wed Sep 20 01:43:24 PDT 2017 ON: 20.00 +20.0 20.05 -15.5 27.4 16.7 31.4 7 10 Alarm State:  0
Wed Sep 20 01:42:22 PDT 2017 ON: 19.99 +20.0 20.05 -15.2 27.9 16.3 31.6 7 10 Alarm State:  0
Wed Sep 20 01:41:21 PDT 2017 ON: 20.00 +20.0 20.05 -15.6 27.3 16.8 31.4 7 10 Alarm State:  0
Wed Sep 20 01:40:19 PDT 2017 ON: 20.00 +20.0 20.06 -15.6 27.3 16.8 31.3 7 10 Alarm State:  0
Wed Sep 20 01:39:18 PDT 2017 ON: 19.98 +20.0 20.05 -15.6 27.3 16.8 31.4 8 10 Alarm State:  0
Wed Sep 20 01:38:16 PDT 2017 ON: 19.99 +20.0 20.04 -15.4 27.6 16.5 31.5 7 10 Alarm State:  0
Wed Sep 20 01:37:15 PDT 2017 ON: 20.00 +20.0 20.05 -15.5 27.4 16.7 31.4 7 10 Alarm State:  0
Wed Sep 20 01:36:13 PDT 2017 ON: 19.99 +20.0 20.05 -15.3 27.8 16.4 31.5 7 10 Alarm State:  0
Wed Sep 20 01:35:12 PDT 2017 ON: 19.99 +20.0 20.04 -15.5 27.5 16.6 31.5 7 10 Alarm State:  0
Wed Sep 20 01:34:10 PDT 2017 ON: 20.00 +20.0 20.05 -15.3 27.8 16.4 31.6 7 9 Alarm State:  0
Wed Sep 20 01:33:09 PDT 2017 ON: 20.00 +20.0 20.07 -15.5 27.5 16.6 31.4 7 9 Alarm State:  0
Wed Sep 20 01:32:07 PDT 2017 ON: 19.99 +20.0 20.05 -15.5 27.4 16.7 31.3 8 10 Alarm State:  0
Wed Sep 20 01:31:06 PDT 2017 ON: 19.99 +20.0 20.03 -15.3 27.8 16.4 31.5 7 10 Alarm State:  0
Wed Sep 20 01:30:04 PDT 2017 ON: 20.00 +20.0 20.06 -15.5 27.4 16.7 31.4 7 9 Alarm State:  0
Wed Sep 20 01:29:03 PDT 2017 ON: 19.99 +20.0 20.05 -15.3 27.7 16.5 31.4 7 10 Alarm State:  0
Wed Sep 20 01:28:01 PDT 2017 ON: 19.99 +20.0 20.05 -15.2 27.9 16.3 31.5 7 10 Alarm State:  0
Wed Sep 20 01:27:00 PDT 2017 ON: 20.00 +20.0 20.05 -15.5 27.5 16.6 31.4 7 10 Alarm State:  0
Wed Sep 20 01:25:58 PDT 2017 ON: 19.99 +20.0 20.05 -15.3 27.7 16.5 31.5 7 10 Alarm State:  0
Wed Sep 20 01:24:57 PDT 2017 ON: 20.00 +20.0 20.06 -15.5 27.5 16.6 31.4 7 9 Alarm State:  0
Wed Sep 20 01:23:55 PDT 2017 ON: 20.00 +20.0 20.06 -15.4 27.6 16.5 31.4 7 10 Alarm State:  0
Wed Sep 20 01:22:54 PDT 2017 ON: 19.99 +20.0 20.05 -15.4 27.6 16.5 31.5 8 10 Alarm State:  0
Wed Sep 20 01:21:52 PDT 2017 ON: 19.99 +20.0 20.05 -15.3 27.7 16.5 31.5 7 10 Alarm State:  0
Wed Sep 20 01:20:51 PDT 2017 ON: 20.00 +20.0 20.06 -15.3 27.8 16.4 31.5 7 9 Alarm State:  0
Wed Sep 20 01:19:49 PDT 2017 ON: 19.99 +20.0 20.05 -15.4 27.6 16.5 31.4 8 10 Alarm State:  0
Wed Sep 20 01:18:48 PDT 2017 ON: 19.99 +20.0 20.05 -15.2 27.9 16.3 31.5 7 10 Alarm State:  0
Wed Sep 20 01:17:46 PDT 2017 ON: 19.99 +20.0 20.04 -15.3 27.7 16.5 31.5 7 10 Alarm State:  0
Wed Sep 20 01:16:45 PDT 2017 ON: 20.01 +20.0 20.06 -15.5 27.5 16.6 31.3 7 9 Alarm State:  0
Wed Sep 20 01:15:43 PDT 2017 ON: 20.00 +20.0 20.06 -15.4 27.6 16.5 31.4 7 10 Alarm State:  0
Wed Sep 20 01:14:42 PDT 2017 ON: 19.99 +20.0 20.06 -15.1 28.0 16.3 31.5 7 10 Alarm State:  0
Wed Sep 20 01:13:40 PDT 2017 ON: 19.99 +20.0 20.05 -15.1 28.0 16.3 31.6 7 9 Alarm State:  0
Wed Sep 20 01:12:39 PDT 2017 ON: 20.00 +20.0 20.06 -15.6 27.3 16.8 31.3 7 10 Alarm State:  0
Wed Sep 20 01:11:37 PDT 2017 ON: 19.99 +20.0 20.06 -15.3 27.7 16.5 31.5 7 10 Alarm State:  0
Wed Sep 20 01:10:36 PDT 2017 ON: 20.00 +20.0 20.05 -15.4 27.6 16.5 31.5 7 10 Alarm State:  0
Wed Sep 20 01:09:35 PDT 2017 ON: 20.00 +20.0 20.06 -15.5 27.5 16.6 31.4 7 9 Alarm State:  0
Wed Sep 20 01:08:23 PDT 2017  Alarm State: 0
Wed Sep 20 01:08:23 PDT 2017 Chiller did not report ON, got this reading: 
Wed Sep 20 01:07:22 PDT 2017 ON: 20.00 +20.0 20.05 -15.3 27.7 16.5 31.4 7 9 Alarm State:  0
Wed Sep 20 01:06:20 PDT 2017 ON: 20.00 +20.0 20.05 -15.2 27.9 16.3 31.5 7 10 Alarm State:  0
Wed Sep 20 01:05:19 PDT 2017 ON: 20.00 +20.0 20.07 -15.6 27.3 16.8 31.4 7 9 Alarm State:  0
Wed Sep 20 01:04:17 PDT 2017 ON: 19.99 +20.0 20.03 -15.3 27.7 16.5 31.4 7 10 Alarm State:  0
Wed Sep 20 01:03:16 PDT 2017 ON: 20.00 +20.0 20.07 -15.7 27.1 16.9 31.4 7 9 Alarm State:  0
Wed Sep 20 01:02:04 PDT 2017  Alarm State: 0
Wed Sep 20 01:02:04 PDT 2017 Chiller did not report ON, got this reading: 
Wed Sep 20 01:01:03 PDT 2017 ON: 19.99 +20.0 20.05 -15.5 27.5 16.6 31.4 7 10 Alarm State:  0
Wed Sep 20 01:00:01 PDT 2017 ON: 20.00 +20.0 20.05 -15.4 27.6 16.5 31.5 7 10 Alarm State:  0
Wed Sep 20 00:59:00 PDT 2017 ON: 20.00 +20.0 20.06 -15.2 27.9 16.3 31.5 7 10 Alarm State:  0
Wed Sep 20 00:57:58 PDT 2017 ON: 19.99 +20.0 20.06 -15.4 27.6 16.5 31.5 8 10 Alarm State:  0
Wed Sep 20 00:56:57 PDT 2017 ON: 19.99 +20.0 20.04 -15.3 27.8 16.4 31.4 7 10 Alarm State:  0
Wed Sep 20 00:55:55 PDT 2017 ON: 20.00 +20.0 20.05 -15.5 27.4 16.7 31.4 7 9 Alarm State:  0
Wed Sep 20 00:54:54 PDT 2017 ON: 20.00 +20.0 20.05 -15.5 27.5 16.6 31.5 8 10 Alarm State:  0
Wed Sep 20 00:53:52 PDT 2017 ON: 20.00 +20.0 20.07 -15.4 27.6 16.5 31.4 7 10 Alarm State:  0
Wed Sep 20 00:52:51 PDT 2017 ON: 20.00 +20.0 20.05 -15.1 28.1 16.2 31.5 7 10 Alarm State:  0
Wed Sep 20 00:51:49 PDT 2017 ON: 19.99 +20.0 20.04 -15.3 27.7 16.5 31.5 7 10 Alarm State:  0
Wed Sep 20 00:50:48 PDT 2017 ON: 20.00 +20.0 20.05 -15.4 27.6 16.5 31.4 7 10 Alarm State:  0
Wed Sep 20 00:49:46 PDT 2017 ON: 20.00 +20.0 20.05 -15.3 27.8 16.4 31.5 7 10 Alarm State:  0
Wed Sep 20 00:48:45 PDT 2017 ON: 19.99 +20.0 20.04 -15.2 27.9 16.3 31.5 7 10 Alarm State:  0
Wed Sep 20 00:47:43 PDT 2017 ON: 19.99 +20.0 20.06 -15.7 27.2 16.8 31.4 7 9 Alarm State:  0
Wed Sep 20 00:46:42 PDT 2017 ON: 20.00 +20.0 20.05 -15.3 27.7 16.5 31.4 7 10 Alarm State:  0
Wed Sep 20 00:45:40 PDT 2017 ON: 19.99 +20.0 20.04 -15.2 27.9 16.3 31.5 7 11 Alarm State:  0
Wed Sep 20 00:44:39 PDT 2017 ON: 20.00 +20.0 20.05 -15.3 27.7 16.5 31.5 7 10 Alarm State:  0
Wed Sep 20 00:43:37 PDT 2017 ON: 20.00 +20.0 20.07 -15.7 27.1 16.9 31.3 8 9 Alarm State:  0
Wed Sep 20 00:42:36 PDT 2017 ON: 19.99 +20.0 20.06 -15.3 27.8 16.4 31.5 7 9 Alarm State:  0
Wed Sep 20 00:41:34 PDT 2017 ON: 20.00 +20.0 20.05 -15.5 27.4 16.7 31.4 7 9 Alarm State:  0
Wed Sep 20 00:40:33 PDT 2017 ON: 20.00 +20.0 20.06 -15.4 27.6 16.5 31.4 7 9 Alarm State:  0
Wed Sep 20 00:39:31 PDT 2017 ON: 20.00 +20.0 20.06 -15.4 27.6 16.5 31.4 7 10 Alarm State:  0
Wed Sep 20 00:38:30 PDT 2017 ON: 19.99 +20.0 20.05 -15.3 27.7 16.5 31.4 8 10 Alarm State:  0
Wed Sep 20 00:37:29 PDT 2017 ON: 19.99 +20.0 20.04 -15.5 27.5 16.6 31.4 7 10 Alarm State:  0
Wed Sep 20 00:36:27 PDT 2017 ON: 20.00 +20.0 20.04 -15.6 27.3 16.8 31.3 7 10 Alarm State:  0
Wed Sep 20 00:35:26 PDT 2017 ON: 20.00 +20.0 20.05 -15.3 27.7 16.5 31.4 8 10 Alarm State:  0
Wed Sep 20 00:34:24 PDT 2017 ON: 20.00 +20.0 20.06 -15.4 27.6 16.5 31.4 7 10 Alarm State:  0
Wed Sep 20 00:33:23 PDT 2017 ON: 20.00 +20.0 20.06 -15.4 27.6 16.5 31.4 7 9 Alarm State:  0
Wed Sep 20 00:32:21 PDT 2017 ON: 20.00 +20.0 20.06 -15.6 27.3 16.8 31.4 7 9 Alarm State:  0
Wed Sep 20 00:31:20 PDT 2017 ON: 20.00 +20.0 20.04 -15.3 27.7 16.5 31.5 7 10 Alarm State:  0
Wed Sep 20 00:30:18 PDT 2017 ON: 20.00 +20.0 20.06 -15.4 27.6 16.5 31.5 8 10 Alarm State:  0
Wed Sep 20 00:29:17 PDT 2017 ON: 19.99 +20.0 20.05 -15.2 27.9 16.3 31.5 7 10 Alarm State:  0
Wed Sep 20 00:28:15 PDT 2017 ON: 19.99 +20.0 20.06 -15.6 27.3 16.8 31.3 7 10 Alarm State:  0
Wed Sep 20 00:27:14 PDT 2017 ON: 20.00 +20.0 20.05 -15.1 28.0 16.3 31.6 7 10 Alarm State:  0
Wed Sep 20 00:26:12 PDT 2017 ON: 20.00 +20.0 20.06 -15.6 27.3 16.8 31.3 7 10 Alarm State:  0
Wed Sep 20 00:25:11 PDT 2017 ON: 19.99 +20.0 20.05 -15.6 27.3 16.8 31.4 7 10 Alarm State:  0
Wed Sep 20 00:24:09 PDT 2017 ON: 19.99 +20.0 20.04 -15.5 27.4 16.7 31.3 7 10 Alarm State:  0
Wed Sep 20 00:23:08 PDT 2017 ON: 20.00 +20.0 20.04 -15.5 27.5 16.6 31.4 7 10 Alarm State:  0
Wed Sep 20 00:22:06 PDT 2017 ON: 20.00 +20.0 20.06 -15.6 27.3 16.8 31.4 8 10 Alarm State:  0
Wed Sep 20 00:21:05 PDT 2017 ON: 19.99 +20.0 20.05 -15.5 27.5 16.6 31.3 7 10 Alarm State:  0
Wed Sep 20 00:20:03 PDT 2017 ON: 19.99 +20.0 20.05 -15.3 27.7 16.5 31.5 7 10 Alarm State:  0
Wed Sep 20 00:19:02 PDT 2017 ON: 20.00 +20.0 20.05 -15.4 27.6 16.5 31.3 7 9 Alarm State:  0
Wed Sep 20 00:18:00 PDT 2017 ON: 20.00 +20.0 20.07 -15.4 27.6 16.5 31.4 7 9 Alarm State:  0
Wed Sep 20 00:16:59 PDT 2017 ON: 19.99 +20.0 20.05 -15.3 27.7 16.5 31.4 7 10 Alarm State:  0
Wed Sep 20 00:15:57 PDT 2017 ON: 19.98 +20.0 20.04 -15.3 27.8 16.4 31.5 7 10 Alarm State:  0
Wed Sep 20 00:14:56 PDT 2017 ON: 20.00 +20.0 20.05 -15.7 27.2 16.8 31.3 7 9 Alarm State:  0
Wed Sep 20 00:13:54 PDT 2017 ON: 20.00 +20.0 20.05 -15.5 27.5 16.6 31.4 8 10 Alarm State:  0
Wed Sep 20 00:12:53 PDT 2017 ON: 19.99 +20.0 20.05 -15.5 27.4 16.7 31.4 7 10 Alarm State:  0
Wed Sep 20 00:11:51 PDT 2017 ON: 19.99 +20.0 20.05 -15.4 27.6 16.5 31.4 7 9 Alarm State:  0
Wed Sep 20 00:10:50 PDT 2017 ON: 20.00 +20.0 20.06 -15.3 27.8 16.4 31.4 7 9 Alarm State:  0
Wed Sep 20 00:09:48 PDT 2017 ON: 20.00 +20.0 20.08 -15.6 27.3 16.8 31.4 7 9 Alarm State:  0
Wed Sep 20 00:08:47 PDT 2017 ON: 19.99 +20.0 20.04 -15.6 27.3 16.8 31.3 7 10 Alarm State:  0
Wed Sep 20 00:07:45 PDT 2017 ON: 19.99 +20.0 20.04 -15.3 27.8 16.4 31.5 7 10 Alarm State:  0
Wed Sep 20 00:06:44 PDT 2017 ON: 20.00 +20.0 20.05 -15.2 27.9 16.3 31.5 7 10 Alarm State:  0
Wed Sep 20 00:05:42 PDT 2017 ON: 19.99 +20.0 20.04 -15.3 27.8 16.4 31.5 7 10 Alarm State:  0
Wed Sep 20 00:04:41 PDT 2017 ON: 20.00 +20.0 20.05 -15.4 27.6 16.5 31.5 7 10 Alarm State:  0
Wed Sep 20 00:03:39 PDT 2017 ON: 20.00 +20.0 20.07 -15.5 27.4 16.7 31.5 7 9 Alarm State:  0
Wed Sep 20 00:02:38 PDT 2017 ON: 19.99 +20.0 20.05 -15.3 27.7 16.5 31.5 7 10 Alarm State:  0
Wed Sep 20 00:01:36 PDT 2017 ON: 20.00 +20.0 20.05 -15.5 27.5 16.6 31.4 7 9 Alarm State:  0
Wed Sep 20 00:00:35 PDT 2017 ON: 20.00 +20.0 20.06 -15.5 27.4 16.7 31.4 7 10 Alarm State:  0
Tue Sep 19 23:59:33 PDT 2017 ON: 19.99 +20.0 20.06 -15.5 27.5 16.6 31.4 7 10 Alarm State:  0
Tue Sep 19 23:58:32 PDT 2017 ON: 20.00 +20.0 20.05 -15.5 27.4 16.7 31.3 7 9 Alarm State:  0
Tue Sep 19 23:57:30 PDT 2017 ON: 20.00 +20.0 20.05 -15.3 27.7 16.5 31.4 7 10 Alarm State:  0
Tue Sep 19 23:56:29 PDT 2017 ON: 20.00 +20.0 20.05 -15.4 27.6 16.5 31.4 7 9 Alarm State:  0
Tue Sep 19 23:55:27 PDT 2017 ON: 20.00 +20.0 20.07 -15.6 27.3 16.8 31.4 7 9 Alarm State:  0
Tue Sep 19 23:54:26 PDT 2017 ON: 19.99 +20.0 20.05 -15.3 27.8 16.4 31.4 7 10 Alarm State:  0
Tue Sep 19 23:53:24 PDT 2017 ON: 20.00 +20.0 20.04 -15.2 27.9 16.3 31.4 7 10 Alarm State:  0
Tue Sep 19 23:52:23 PDT 2017 ON: 20.00 +20.0 20.06 -15.6 27.3 16.8 31.3 7 9 Alarm State:  0
Tue Sep 19 23:51:21 PDT 2017 ON: 19.99 +20.0 20.06 -15.5 27.5 16.6 31.4 8 10 Alarm State:  0
Tue Sep 19 23:50:20 PDT 2017 ON: 20.00 +20.0 20.06 -15.5 27.5 16.6 31.3 7 9 Alarm State:  0
Tue Sep 19 23:49:19 PDT 2017 ON: 20.00 +20.0 20.06 -15.6 27.3 16.8 31.2 7 10 Alarm State:  0
Tue Sep 19 23:48:17 PDT 2017 ON: 20.00 +20.0 20.05 -15.5 27.5 16.6 31.3 7 10 Alarm State:  0
Tue Sep 19 23:47:16 PDT 2017 ON: 20.00 +20.0 20.05 -15.5 27.5 16.6 31.4 7 10 Alarm State:  0
Tue Sep 19 23:46:14 PDT 2017 ON: 20.00 +20.0 20.06 -15.4 27.6 16.5 31.4 7 9 Alarm State:  0
Tue Sep 19 23:45:13 PDT 2017 ON: 20.00 +20.0 20.06 -15.6 27.3 16.8 31.3 7 10 Alarm State:  0
Tue Sep 19 23:44:11 PDT 2017 ON: 19.99 +20.0 20.04 -15.5 27.5 16.6 31.4 7 10 Alarm State:  0
Tue Sep 19 23:43:10 PDT 2017 ON: 20.00 +20.0 20.06 -15.4 27.6 16.5 31.5 7 9 Alarm State:  0
Tue Sep 19 23:42:08 PDT 2017 ON: 20.00 +20.0 20.07 -15.7 27.2 16.8 31.4 7 9 Alarm State:  0
Tue Sep 19 23:41:07 PDT 2017 ON: 19.99 +20.0 20.04 -15.5 27.4 16.7 31.4 7 10 Alarm State:  0
Tue Sep 19 23:40:05 PDT 2017 ON: 20.00 +20.0 20.05 -15.5 27.5 16.6 31.5 7 10 Alarm State:  0
Tue Sep 19 23:39:04 PDT 2017 ON: 20.00 +20.0 20.07 -15.5 27.5 16.6 31.5 7 9 Alarm State:  0
Tue Sep 19 23:38:02 PDT 2017 ON: 19.99 +20.0 20.05 -15.4 27.6 16.5 31.5 8 10 Alarm State:  0
Tue Sep 19 23:37:01 PDT 2017 ON: 19.99 +20.0 20.04 -15.3 27.8 16.4 31.6 7 10 Alarm State:  0
Tue Sep 19 23:35:59 PDT 2017 ON: 20.00 +20.0 20.05 -15.6 27.3 16.8 31.3 7 9 Alarm State:  0
Tue Sep 19 23:34:58 PDT 2017 ON: 20.00 +20.0 20.06 -15.5 27.5 16.6 31.4 8 9 Alarm State:  0
Tue Sep 19 23:33:56 PDT 2017 ON: 19.99 +20.0 20.05 -15.5 27.4 16.7 31.5 7 10 Alarm State:  0
Tue Sep 19 23:32:55 PDT 2017 ON: 20.00 +20.0 20.05 -15.4 27.6 16.5 31.4 7 9 Alarm State:  0
Tue Sep 19 23:31:53 PDT 2017 ON: 20.00 +20.0 20.05 -15.4 27.6 16.5 31.4 7 10 Alarm State:  0
Tue Sep 19 23:30:52 PDT 2017 ON: 19.99 +20.0 20.06 -15.3 27.7 16.5 31.4 7 10 Alarm State:  0
Tue Sep 19 23:29:50 PDT 2017 ON: 19.98 +20.0 20.04 -15.4 27.6 16.5 31.4 8 10 Alarm State:  0
Tue Sep 19 23:28:49 PDT 2017 ON: 19.99 +20.0 20.04 -15.5 27.4 16.7 31.3 7 9 Alarm State:  0
Tue Sep 19 23:27:47 PDT 2017 ON: 20.00 +20.0 20.06 -15.5 27.4 16.7 31.4 7 9 Alarm State:  0
Tue Sep 19 23:26:46 PDT 2017 ON: 19.99 +20.0 20.06 -15.8 27.0 16.9 31.2 8 10 Alarm State:  0
Tue Sep 19 23:25:44 PDT 2017 ON: 19.99 +20.0 20.05 -15.5 27.5 16.6 31.4 7 10 Alarm State:  0
Tue Sep 19 23:24:43 PDT 2017 ON: 20.00 +20.0 20.05 -15.7 27.1 16.9 31.2 8 9 Alarm State:  0
Tue Sep 19 23:23:41 PDT 2017 ON: 20.00 +20.0 20.06 -15.3 27.7 16.5 31.4 7 10 Alarm State:  0
Tue Sep 19 23:22:40 PDT 2017 ON: 19.99 +20.0 20.05 -15.3 27.7 16.5 31.4 7 10 Alarm State:  0
Tue Sep 19 23:21:38 PDT 2017 ON: 19.99 +20.0 20.06 -15.5 27.4 16.7 31.4 7 10 Alarm State:  0
Tue Sep 19 23:20:37 PDT 2017 ON: 19.99 +20.0 20.04 -15.3 27.8 16.4 31.5 7 10 Alarm State:  0
Tue Sep 19 23:19:35 PDT 2017 ON: 20.00 +20.0 20.06 -15.5 27.5 16.6 31.4 7 9 Alarm State:  0
Tue Sep 19 23:18:34 PDT 2017 ON: 20.00 +20.0 20.07 -15.5 27.4 16.7 31.4 8 9 Alarm State:  0
Tue Sep 19 23:17:32 PDT 2017 ON: 19.99 +20.0 20.04 -15.3 27.7 16.5 31.5 7 11 Alarm State:  0
Tue Sep 19 23:16:31 PDT 2017 ON: 19.99 +20.0 20.03 -15.2 27.9 16.3 31.5 7 10 Alarm State:  0
Tue Sep 19 23:15:29 PDT 2017 ON: 20.00 +20.0 20.06 -15.5 27.5 16.6 31.4 8 10 Alarm State:  0
Tue Sep 19 23:14:28 PDT 2017 ON: 19.99 +20.0 20.04 -15.2 27.9 16.3 31.6 7 11 Alarm State:  0
Tue Sep 19 23:13:26 PDT 2017 ON: 19.99 +20.0 20.04 -15.6 27.3 16.8 31.4 7 10 Alarm State:  0
Tue Sep 19 23:12:25 PDT 2017 ON: 20.00 +20.0 20.05 -15.5 27.4 16.7 31.4 7 9 Alarm State:  0
Tue Sep 19 23:11:23 PDT 2017 ON: 20.00 +20.0 20.06 -15.4 27.6 16.5 31.5 7 10 Alarm State:  0
Tue Sep 19 23:10:22 PDT 2017 ON: 20.00 +20.0 20.06 -15.2 27.9 16.3 31.5 7 9 Alarm State:  0
Tue Sep 19 23:09:20 PDT 2017 ON: 20.00 +20.0 20.05 -15.3 27.7 16.5 31.4 7 10 Alarm State:  0
Tue Sep 19 23:08:19 PDT 2017 ON: 19.99 +20.0 20.05 -15.5 27.5 16.6 31.4 7 10 Alarm State:  0
Tue Sep 19 23:07:17 PDT 2017 ON: 19.99 +20.0 20.06 -15.5 27.4 16.7 31.3 7 10 Alarm State:  0
Tue Sep 19 23:06:16 PDT 2017 ON: 19.99 +20.0 20.05 -15.3 27.8 16.4 31.4 7 9 Alarm State:  0
Tue Sep 19 23:05:14 PDT 2017 ON: 20.00 +20.0 20.06 -15.4 27.6 16.5 31.3 7 9 Alarm State:  0
Tue Sep 19 23:04:13 PDT 2017 ON: 19.99 +20.0 20.05 -15.4 27.6 16.5 31.3 7 10 Alarm State:  0
Tue Sep 19 23:03:11 PDT 2017 ON: 20.00 +20.0 20.05 -15.4 27.6 16.5 31.3 7 9 Alarm State:  0
Tue Sep 19 23:02:10 PDT 2017 ON: 20.00 +20.0 20.06 -15.4 27.6 16.5 31.3 8 10 Alarm State:  0
Tue Sep 19 23:01:08 PDT 2017 ON: 19.99 +20.0 20.05 -15.5 27.5 16.6 31.3 7 11 Alarm State:  0
Tue Sep 19 23:00:07 PDT 2017 ON: 19.99 +20.0 20.05 -15.4 27.6 16.5 31.4 7 10 Alarm State:  0
Tue Sep 19 22:59:06 PDT 2017 ON: 20.00 +20.0 20.05 -15.7 27.1 16.9 31.2 8 9 Alarm State:  0
Tue Sep 19 22:58:04 PDT 2017 ON: 20.00 +20.0 20.05 -15.5 27.5 16.6 31.4 7 10 Alarm State:  0
Tue Sep 19 22:57:03 PDT 2017 ON: 20.00 +20.0 20.05 -15.5 27.5 16.6 31.4 7 10 Alarm State:  0
Tue Sep 19 22:56:01 PDT 2017 ON: 19.99 +20.0 20.05 -15.5 27.5 16.6 31.4 7 10 Alarm State:  0
Tue Sep 19 22:55:00 PDT 2017 ON: 20.00 +20.0 20.05 -15.3 27.8 16.4 31.5 7 10 Alarm State:  0
Tue Sep 19 22:53:58 PDT 2017 ON: 20.00 +20.0 20.06 -15.5 27.5 16.6 31.4 7 10 Alarm State:  0
Tue Sep 19 22:52:57 PDT 2017 ON: 19.99 +20.0 20.04 -15.5 27.5 16.6 31.4 7 10 Alarm State:  0
Tue Sep 19 22:51:55 PDT 2017 ON: 20.00 +20.0 20.05 -15.5 27.5 16.6 31.4 7 10 Alarm State:  0
Tue Sep 19 22:50:54 PDT 2017 ON: 20.00 +20.0 20.07 -15.5 27.4 16.7 31.5 8 9 Alarm State:  0
Tue Sep 19 22:49:52 PDT 2017 ON: 20.00 +20.0 20.06 -15.3 27.7 16.5 31.6 7 10 Alarm State:  0
Tue Sep 19 22:48:51 PDT 2017 ON: 19.98 +20.0 20.04 -15.4 27.6 16.5 31.6 7 10 Alarm State:  0
Tue Sep 19 22:47:49 PDT 2017 ON: 20.00 +20.0 20.06 -15.5 27.4 16.7 31.5 7 9 Alarm State:  0
Tue Sep 19 22:46:48 PDT 2017 ON: 20.00 +20.0 20.06 -15.3 27.7 16.5 31.5 7 10 Alarm State:  0
Tue Sep 19 22:45:46 PDT 2017 ON: 19.99 +20.0 20.06 -15.3 27.7 16.5 31.5 7 10 Alarm State:  0
Tue Sep 19 22:44:45 PDT 2017 ON: 19.99 +20.0 20.03 -15.3 27.8 16.4 31.6 7 11 Alarm State:  0
Tue Sep 19 22:43:43 PDT 2017 ON: 19.99 +20.0 20.05 -15.5 27.5 16.6 31.4 7 10 Alarm State:  0
Tue Sep 19 22:42:42 PDT 2017 ON: 20.00 +20.0 20.06 -15.3 27.7 16.5 31.5 7 10 Alarm State:  0
Tue Sep 19 22:41:40 PDT 2017 ON: 19.99 +20.0 20.05 -15.7 27.2 16.8 31.4 7 10 Alarm State:  0
Tue Sep 19 22:40:38 PDT 2017 ON: 19.99 +20.0 20.05 -15.5 27.4 16.7 31.4 7 9 Alarm State:  0
Tue Sep 19 22:39:37 PDT 2017 ON: 20.00 +20.0 20.05 -15.5 27.5 16.6 31.3 7 10 Alarm State:  0
Tue Sep 19 22:38:36 PDT 2017 ON: 19.99 +20.0 20.05 -15.3 27.8 16.4 31.5 7 10 Alarm State:  0
Tue Sep 19 22:37:34 PDT 2017 ON: 19.99 +20.0 20.05 -15.5 27.4 16.7 31.4 8 10 Alarm State:  0
Tue Sep 19 22:36:33 PDT 2017 ON: 19.99 +20.0 20.05 -15.4 27.6 16.5 31.3 7 10 Alarm State:  0
Tue Sep 19 22:35:31 PDT 2017 ON: 20.00 +20.0 20.06 -15.7 27.2 16.8 31.2 7 10 Alarm State:  0
Tue Sep 19 22:34:30 PDT 2017 ON: 19.98 +20.0 20.04 -15.1 28.1 16.2 31.4 7 10 Alarm State:  0
Tue Sep 19 22:33:28 PDT 2017 ON: 20.00 +20.0 20.04 -15.6 27.3 16.8 31.2 7 10 Alarm State:  0
Tue Sep 19 22:32:27 PDT 2017 ON: 20.00 +20.0 20.06 -15.4 27.6 16.5 31.3 7 9 Alarm State:  0
Tue Sep 19 22:31:25 PDT 2017 ON: 20.00 +20.0 20.06 -15.3 27.7 16.5 31.3 7 10 Alarm State:  0
Tue Sep 19 22:30:24 PDT 2017 ON: 19.99 +20.0 20.05 -15.4 27.6 16.5 31.4 7 10 Alarm State:  0
Tue Sep 19 22:29:22 PDT 2017 ON: 19.99 +20.0 20.04 -15.2 27.9 16.3 31.5 7 10 Alarm State:  0
Tue Sep 19 22:28:21 PDT 2017 ON: 20.00 +20.0 20.05 -15.7 27.2 16.8 31.3 8 10 Alarm State:  0
Tue Sep 19 22:27:19 PDT 2017 ON: 19.99 +20.0 20.06 -15.5 27.4 16.7 31.4 7 10 Alarm State:  0
Tue Sep 19 22:26:18 PDT 2017 ON: 19.99 +20.0 20.05 -15.1 28.0 16.3 31.6 7 10 Alarm State:  0
Tue Sep 19 22:25:16 PDT 2017 ON: 20.00 +20.0 20.05 -15.2 27.9 16.3 31.6 7 10 Alarm State:  0
Tue Sep 19 22:24:15 PDT 2017 ON: 20.00 +20.0 20.06 -15.6 27.3 16.8 31.3 7 9 Alarm State:  0
Tue Sep 19 22:23:13 PDT 2017 ON: 19.99 +20.0 20.05 -15.1 28.0 16.3 31.5 7 10 Alarm State:  0
Tue Sep 19 22:22:12 PDT 2017 ON: 19.99 +20.0 20.06 -15.5 27.5 16.6 31.5 7 9 Alarm State:  0
Tue Sep 19 22:21:10 PDT 2017 ON: 20.00 +20.0 20.06 -15.4 27.6 16.5 31.5 7 10 Alarm State:  0
Tue Sep 19 22:20:09 PDT 2017 ON: 19.99 +20.0 20.06 -15.7 27.1 16.9 31.4 7 9 Alarm State:  0
Tue Sep 19 22:19:07 PDT 2017 ON: 20.00 +20.0 20.05 -15.5 27.5 16.6 31.4 7 10 Alarm State:  0
Tue Sep 19 22:18:06 PDT 2017 ON: 19.99 +20.0 20.05 -15.4 27.6 16.5 31.5 8 10 Alarm State:  0
Tue Sep 19 22:17:04 PDT 2017 ON: 20.00 +20.0 20.05 -15.3 27.7 16.5 31.5 7 9 Alarm State:  0
Tue Sep 19 22:15:53 PDT 2017  Alarm State: 0
Tue Sep 19 22:15:53 PDT 2017 Chiller did not report ON, got this reading: 
Tue Sep 19 22:14:51 PDT 2017 ON: 19.99 +20.0 20.05 -15.3 27.7 16.5 31.5 7 10 Alarm State:  0
Tue Sep 19 22:13:50 PDT 2017 ON: 19.99 +20.0 20.05 -15.5 27.5 16.6 31.5 7 9 Alarm State:  0
Tue Sep 19 22:12:48 PDT 2017 ON: 20.00 +20.0 20.05 -15.4 27.6 16.5 31.5 7 10 Alarm State:  0
Tue Sep 19 22:11:47 PDT 2017 ON: 19.99 +20.0 20.05 -15.3 27.8 16.4 31.5 7 10 Alarm State:  0
Tue Sep 19 22:10:45 PDT 2017 ON: 19.98 +20.0 20.05 -15.5 27.4 16.7 31.5 7 10 Alarm State:  0
Tue Sep 19 22:09:44 PDT 2017 ON: 20.00 +20.0 20.04 -15.3 27.8 16.4 31.5 7 10 Alarm State:  0
Tue Sep 19 22:08:42 PDT 2017 ON: 20.00 +20.0 20.06 -15.5 27.4 16.7 31.4 7 10 Alarm State:  0
Tue Sep 19 22:07:41 PDT 2017 ON: 20.00 +20.0 20.05 -15.3 27.8 16.4 31.4 7 10 Alarm State:  0
Tue Sep 19 22:06:39 PDT 2017 ON: 19.98 +20.0 20.05 -15.7 27.2 16.8 31.2 7 10 Alarm State:  0
Tue Sep 19 22:05:38 PDT 2017 ON: 20.00 +20.0 20.06 -15.8 27.0 16.9 31.2 8 9 Alarm State:  0
Tue Sep 19 22:04:36 PDT 2017 ON: 20.00 +20.0 20.05 -15.5 27.4 16.7 31.3 7 10 Alarm State:  0
Tue Sep 19 22:03:35 PDT 2017 ON: 19.99 +20.0 20.06 -15.6 27.3 16.8 31.1 7 10 Alarm State:  0
Tue Sep 19 22:02:33 PDT 2017 ON: 19.99 +20.0 20.05 -15.4 27.6 16.5 31.4 7 10 Alarm State:  0
Tue Sep 19 22:01:32 PDT 2017 ON: 20.00 +20.0 20.05 -15.7 27.1 16.9 31.3 7 9 Alarm State:  0
Tue Sep 19 22:00:30 PDT 2017 ON: 20.00 +20.0 20.06 -15.7 27.2 16.8 31.3 7 9 Alarm State:  0
Tue Sep 19 21:59:29 PDT 2017 ON: 20.00 +20.0 20.05 -15.3 27.8 16.4 31.4 7 10 Alarm State:  0
Tue Sep 19 21:58:27 PDT 2017 ON: 19.99 +20.0 20.05 -15.5 27.5 16.6 31.3 7 10 Alarm State:  0
Tue Sep 19 21:57:26 PDT 2017 ON: 19.99 +20.0 20.04 -15.5 27.5 16.6 31.5 8 10 Alarm State:  0
Tue Sep 19 21:56:24 PDT 2017 ON: 20.00 +20.0 20.05 -15.6 27.3 16.8 31.4 7 10 Alarm State:  0
Tue Sep 19 21:55:23 PDT 2017 ON: 20.00 +20.0 20.06 -15.4 27.6 16.5 31.5 7 10 Alarm State:  0
Tue Sep 19 21:54:21 PDT 2017 ON: 19.99 +20.0 20.05 -15.5 27.5 16.6 31.4 7 10 Alarm State:  0
Tue Sep 19 21:53:10 PDT 2017  Alarm State: 0
Tue Sep 19 21:53:10 PDT 2017 Chiller did not report ON, got this reading: 
Tue Sep 19 21:52:08 PDT 2017 ON: 20.00 +20.0 20.04 -15.4 27.6 16.5 31.5 7 10 Alarm State:  0
Tue Sep 19 21:51:07 PDT 2017 ON: 20.00 +20.0 20.06 -15.5 27.4 16.7 31.5 7 10 Alarm State:  0
Tue Sep 19 21:50:05 PDT 2017 ON: 19.99 +20.0 20.05 -15.4 27.6 16.5 31.4 7 10 Alarm State:  0
Tue Sep 19 21:49:04 PDT 2017 ON: 20.00 +20.0 20.04 -15.3 27.8 16.4 31.5 7 10 Alarm State:  0
Tue Sep 19 21:48:02 PDT 2017 ON: 20.00 +20.0 20.05 -15.3 27.8 16.4 31.5 7 10 Alarm State:  0
Tue Sep 19 21:47:01 PDT 2017 ON: 19.99 +20.0 20.05 -15.5 27.5 16.6 31.4 7 10 Alarm State:  0
Tue Sep 19 21:45:59 PDT 2017 ON: 20.00 +20.0 20.05 -15.7 27.2 16.8 31.3 7 10 Alarm State:  0
Tue Sep 19 21:44:58 PDT 2017 ON: 20.00 +20.0 20.05 -15.2 27.9 16.3 31.5 7 10 Alarm State:  0
Tue Sep 19 21:43:56 PDT 2017 ON: 19.99 +20.0 20.04 -15.3 27.8 16.4 31.5 7 10 Alarm State:  0
Tue Sep 19 21:42:55 PDT 2017 ON: 20.00 +20.0 20.04 -15.4 27.6 16.5 31.4 7 10 Alarm State:  0
Tue Sep 19 21:41:53 PDT 2017 ON: 20.00 +20.0 20.06 -15.5 27.4 16.7 31.3 8 10 Alarm State:  0
Tue Sep 19 21:40:52 PDT 2017 ON: 19.99 +20.0 20.05 -15.5 27.5 16.6 31.4 7 10 Alarm State:  0
Tue Sep 19 21:39:50 PDT 2017 ON: 19.99 +20.0 20.05 -15.5 27.5 16.6 31.5 7 10 Alarm State:  0
Tue Sep 19 21:38:49 PDT 2017 ON: 19.99 +20.0 20.05 -15.4 27.6 16.5 31.4 7 10 Alarm State:  0
Tue Sep 19 21:37:47 PDT 2017 ON: 20.00 +20.0 20.06 -15.7 27.2 16.8 31.3 7 10 Alarm State:  0
Tue Sep 19 21:36:46 PDT 2017 ON: 19.99 +20.0 20.05 -15.3 27.8 16.4 31.5 7 10 Alarm State:  0
Tue Sep 19 21:35:44 PDT 2017 ON: 20.00 +20.0 20.04 -15.3 27.8 16.4 31.4 7 10 Alarm State:  0
Tue Sep 19 21:34:43 PDT 2017 ON: 20.00 +20.0 20.07 -15.6 27.3 16.8 31.3 7 9 Alarm State:  0
Tue Sep 19 21:33:41 PDT 2017 ON: 19.99 +20.0 20.05 -15.2 27.9 16.3 31.5 7 10 Alarm State:  0
Tue Sep 19 21:32:40 PDT 2017 ON: 19.99 +20.0 20.05 -15.6 27.3 16.8 31.4 7 10 Alarm State:  0
Tue Sep 19 21:31:38 PDT 2017 ON: 19.99 +20.0 20.04 -15.2 27.9 16.3 31.5 7 10 Alarm State:  0
Tue Sep 19 21:30:37 PDT 2017 ON: 20.00 +20.0 20.06 -15.8 27.0 16.9 31.3 7 10 Alarm State:  0
Tue Sep 19 21:29:35 PDT 2017 ON: 19.99 +20.0 20.04 -15.3 27.7 16.5 31.4 7 10 Alarm State:  0
Tue Sep 19 21:28:34 PDT 2017 ON: 20.00 +20.0 20.05 -15.3 27.7 16.5 31.4 7 10 Alarm State:  0
Tue Sep 19 21:27:32 PDT 2017 ON: 19.99 +20.0 20.05 -15.7 27.1 16.9 31.3 7 10 Alarm State:  0
Tue Sep 19 21:26:31 PDT 2017 ON: 20.00 +20.0 20.05 -15.5 27.5 16.6 31.3 7 10 Alarm State:  0
Tue Sep 19 21:25:29 PDT 2017 ON: 20.00 +20.0 20.06 -15.4 27.6 16.5 31.4 7 10 Alarm State:  0
Tue Sep 19 21:24:28 PDT 2017 ON: 19.99 +20.0 20.05 -15.4 27.6 16.5 31.4 7 10 Alarm State:  0
Tue Sep 19 21:23:26 PDT 2017 ON: 20.00 +20.0 20.06 -15.7 27.2 16.8 31.3 7 9 Alarm State:  0
Tue Sep 19 21:22:25 PDT 2017 ON: 19.99 +20.0 20.04 -15.2 27.9 16.3 31.5 7 11 Alarm State:  0
Tue Sep 19 21:21:23 PDT 2017 ON: 19.99 +20.0 20.07 -15.6 27.3 16.8 31.3 7 9 Alarm State:  0
Tue Sep 19 21:20:22 PDT 2017 ON: 20.00 +20.0 20.05 -15.5 27.5 16.6 31.3 7 10 Alarm State:  0
Tue Sep 19 21:19:20 PDT 2017 ON: 20.00 +20.0 20.04 -15.3 27.7 16.5 31.4 7 10 Alarm State:  0
Tue Sep 19 21:18:19 PDT 2017 ON: 20.00 +20.0 20.04 -15.3 27.8 16.4 31.5 7 10 Alarm State:  0
Tue Sep 19 21:17:17 PDT 2017 ON: 20.00 +20.0 20.06 -15.4 27.6 16.5 31.4 8 10 Alarm State:  0
Tue Sep 19 21:16:16 PDT 2017 ON: 19.99 +20.0 20.05 -15.3 27.7 16.5 31.4 7 10 Alarm State:  0
Tue Sep 19 21:15:14 PDT 2017 ON: 19.99 +20.0 20.04 -15.2 27.9 16.3 31.5 7 10 Alarm State:  0
Tue Sep 19 21:14:13 PDT 2017 ON: 20.00 +20.0 20.05 -15.4 27.6 16.5 31.4 7 9 Alarm State:  0
Tue Sep 19 21:13:11 PDT 2017 ON: 20.01 +20.0 20.06 -15.3 27.7 16.5 31.4 7 10 Alarm State:  0
Tue Sep 19 21:12:10 PDT 2017 ON: 20.00 +20.0 20.06 -15.3 27.7 16.5 31.5 7 10 Alarm State:  0
Tue Sep 19 21:11:08 PDT 2017 ON: 19.99 +20.0 20.05 -15.3 27.8 16.4 31.5 7 10 Alarm State:  0
Tue Sep 19 21:10:07 PDT 2017 ON: 20.00 +20.0 20.05 -15.5 27.4 16.7 31.5 7 10 Alarm State:  0
Tue Sep 19 21:09:05 PDT 2017 ON: 20.00 +20.0 20.05 -15.1 28.0 16.3 31.6 7 10 Alarm State:  0
Tue Sep 19 21:08:04 PDT 2017 ON: 20.00 +20.0 20.05 -15.4 27.6 16.5 31.5 7 10 Alarm State:  0
Tue Sep 19 21:07:02 PDT 2017 ON: 19.99 +20.0 20.05 -15.5 27.4 16.7 31.4 7 10 Alarm State:  0
Tue Sep 19 21:06:01 PDT 2017 ON: 19.99 +20.0 20.04 -15.3 27.7 16.5 31.4 7 10 Alarm State:  0
Tue Sep 19 21:04:59 PDT 2017 ON: 20.00 +20.0 20.06 -15.6 27.3 16.8 31.3 7 9 Alarm State:  0
Tue Sep 19 21:03:58 PDT 2017 ON: 20.00 +20.0 20.06 -15.2 27.9 16.3 31.6 7 10 Alarm State:  0
Tue Sep 19 21:02:56 PDT 2017 ON: 19.99 +20.0 20.05 -15.5 27.4 16.7 31.4 7 10 Alarm State:  0
Tue Sep 19 21:01:55 PDT 2017 ON: 19.99 +20.0 20.04 -15.5 27.4 16.7 31.4 7 10 Alarm State:  0
Tue Sep 19 21:00:53 PDT 2017 ON: 20.00 +20.0 20.06 -15.7 27.2 16.8 31.3 7 9 Alarm State:  0
Tue Sep 19 20:59:52 PDT 2017 ON: 20.00 +20.0 20.06 -15.5 27.5 16.6 31.4 7 10 Alarm State:  0
Tue Sep 19 20:58:50 PDT 2017 ON: 19.99 +20.0 20.05 -15.4 27.6 16.5 31.4 7 10 Alarm State:  0
Tue Sep 19 20:57:49 PDT 2017 ON: 19.99 +20.0 20.05 -15.0 28.2 16.1 31.5 7 10 Alarm State:  0
Tue Sep 19 20:56:47 PDT 2017 ON: 19.99 +20.0 20.04 -15.4 27.6 16.5 31.3 7 10 Alarm State:  0
Tue Sep 19 20:55:46 PDT 2017 ON: 20.00 +20.0 20.06 -15.3 27.7 16.5 31.4 8 9 Alarm State:  0
Tue Sep 19 20:54:44 PDT 2017 ON: 20.00 +20.0 20.06 -15.6 27.3 16.8 31.3 7 10 Alarm State:  0
Tue Sep 19 20:53:43 PDT 2017 ON: 19.99 +20.0 20.06 -15.3 27.7 16.5 31.3 7 9 Alarm State:  0
Tue Sep 19 20:52:41 PDT 2017 ON: 20.00 +20.0 20.05 -15.3 27.8 16.4 31.4 7 10 Alarm State:  0
Tue Sep 19 20:51:40 PDT 2017 ON: 19.99 +20.0 20.05 -15.5 27.4 16.7 31.4 7 10 Alarm State:  0
Tue Sep 19 20:50:38 PDT 2017 ON: 19.99 +20.0 20.05 -15.3 27.7 16.5 31.4 7 10 Alarm State:  0
Tue Sep 19 20:49:37 PDT 2017 ON: 19.99 +20.0 20.04 -15.3 27.8 16.4 31.5 7 10 Alarm State:  0
Tue Sep 19 20:48:35 PDT 2017 ON: 20.00 +20.0 20.06 -15.3 27.8 16.4 31.5 7 10 Alarm State:  0
Tue Sep 19 20:47:34 PDT 2017 ON: 19.99 +20.0 20.06 -15.4 27.6 16.5 31.5 8 10 Alarm State:  0
Tue Sep 19 20:46:32 PDT 2017 ON: 19.99 +20.0 20.04 -15.3 27.8 16.4 31.4 7 10 Alarm State:  0
Tue Sep 19 20:45:31 PDT 2017 ON: 20.00 +20.0 20.05 -15.5 27.5 16.6 31.4 7 10 Alarm State:  0
Tue Sep 19 20:44:29 PDT 2017 ON: 20.00 +20.0 20.07 -15.7 27.2 16.8 31.4 8 10 Alarm State:  0
Tue Sep 19 20:43:28 PDT 2017 ON: 19.99 +20.0 20.05 -15.4 27.6 16.5 31.4 7 10 Alarm State:  0
Tue Sep 19 20:42:26 PDT 2017 ON: 20.00 +20.0 20.05 -15.3 27.7 16.5 31.4 7 10 Alarm State:  0
Tue Sep 19 20:41:25 PDT 2017 ON: 20.00 +20.0 20.06 -15.5 27.4 16.7 31.3 7 10 Alarm State:  0
Tue Sep 19 20:40:23 PDT 2017 ON: 19.99 +20.0 20.04 -15.1 28.0 16.3 31.5 7 10 Alarm State:  0
Tue Sep 19 20:39:22 PDT 2017 ON: 19.99 +20.0 20.04 -15.1 28.1 16.2 31.6 7 10 Alarm State:  0
Tue Sep 19 20:38:20 PDT 2017 ON: 19.99 +20.0 20.05 -15.3 27.7 16.5 31.5 7 10 Alarm State:  0
Tue Sep 19 20:37:19 PDT 2017 ON: 20.00 +20.0 20.05 -15.1 28.0 16.3 31.5 7 10 Alarm State:  0
Tue Sep 19 20:36:17 PDT 2017 ON: 19.99 +20.0 20.05 -15.3 27.7 16.5 31.4 7 10 Alarm State:  0
Tue Sep 19 20:35:16 PDT 2017 ON: 19.99 +20.0 20.05 -15.7 27.2 16.8 31.4 7 9 Alarm State:  0
Tue Sep 19 20:34:14 PDT 2017 ON: 20.00 +20.0 20.06 -15.5 27.4 16.7 31.3 7 9 Alarm State:  0
Tue Sep 19 20:33:13 PDT 2017 ON: 19.99 +20.0 20.05 -15.5 27.4 16.7 31.4 7 10 Alarm State:  0
Tue Sep 19 20:32:12 PDT 2017 ON: 19.99 +20.0 20.05 -15.3 27.7 16.5 31.4 7 10 Alarm State:  0
Tue Sep 19 20:31:10 PDT 2017 ON: 19.99 +20.0 20.05 -15.7 27.2 16.8 31.3 7 9 Alarm State:  0
Tue Sep 19 20:30:09 PDT 2017 ON: 20.00 +20.0 20.06 -15.6 27.3 16.8 31.3 7 10 Alarm State:  0
Tue Sep 19 20:29:07 PDT 2017 ON: 19.99 +20.0 20.06 -15.5 27.5 16.6 31.3 7 10 Alarm State:  0
Tue Sep 19 20:28:06 PDT 2017 ON: 19.99 +20.0 20.05 -15.3 27.7 16.5 31.5 7 10 Alarm State:  0
Tue Sep 19 20:27:04 PDT 2017 ON: 19.99 +20.0 20.06 -15.5 27.5 16.6 31.4 7 10 Alarm State:  0
Tue Sep 19 20:26:03 PDT 2017 ON: 19.99 +20.0 20.05 -15.3 27.7 16.5 31.5 7 10 Alarm State:  0
Tue Sep 19 20:24:51 PDT 2017  Alarm State: 0
Tue Sep 19 20:24:51 PDT 2017 Chiller did not report ON, got this reading: 
Tue Sep 19 20:23:50 PDT 2017 ON: 20.01 +20.0 20.06 -15.5 27.4 16.7 31.4 8 9 Alarm State:  0
Tue Sep 19 20:22:48 PDT 2017 ON: 19.99 +20.0 20.06 -15.7 27.1 16.9 31.4 7 10 Alarm State:  0
Tue Sep 19 20:21:47 PDT 2017 ON: 19.99 +20.0 20.04 -15.5 27.5 16.6 31.4 7 10 Alarm State:  0
Tue Sep 19 20:20:45 PDT 2017 ON: 20.00 +20.0 20.06 -15.5 27.4 16.7 31.4 8 9 Alarm State:  0
Tue Sep 19 20:19:44 PDT 2017 ON: 20.00 +20.0 20.06 -15.5 27.5 16.6 31.4 7 10 Alarm State:  0
Tue Sep 19 20:18:42 PDT 2017 ON: 19.99 +20.0 20.05 -15.1 28.0 16.3 31.5 7 10 Alarm State:  0
Tue Sep 19 20:17:41 PDT 2017 ON: 19.99 +20.0 20.04 -15.3 27.7 16.5 31.5 7 10 Alarm State:  0
Tue Sep 19 20:16:39 PDT 2017 ON: 20.00 +20.0 20.07 -15.9 26.9 17.0 31.2 7 9 Alarm State:  0
Tue Sep 19 20:15:38 PDT 2017 ON: 19.99 +20.0 20.04 -15.2 27.9 16.3 31.5 7 10 Alarm State:  0
Tue Sep 19 20:14:36 PDT 2017 ON: 20.00 +20.0 20.05 -15.5 27.5 16.6 31.4 7 10 Alarm State:  0
Tue Sep 19 20:13:35 PDT 2017 ON: 19.99 +20.0 20.05 -15.4 27.6 16.5 31.3 7 10 Alarm State:  0
Tue Sep 19 20:12:33 PDT 2017 ON: 20.00 +20.0 20.05 -15.4 27.6 16.5 31.4 7 10 Alarm State:  0
Tue Sep 19 20:11:32 PDT 2017 ON: 20.00 +20.0 20.06 -15.5 27.4 16.7 31.3 7 10 Alarm State:  0
Tue Sep 19 20:10:30 PDT 2017 ON: 19.99 +20.0 20.04 -15.1 28.0 16.3 31.5 7 11 Alarm State:  0
Tue Sep 19 20:09:29 PDT 2017 ON: 19.99 +20.0 20.04 -15.3 27.7 16.5 31.4 7 10 Alarm State:  0
Tue Sep 19 20:08:27 PDT 2017 ON: 20.00 +20.0 20.05 -15.3 27.7 16.5 31.5 7 10 Alarm State:  0
Tue Sep 19 20:07:26 PDT 2017 ON: 19.99 +20.0 20.05 -15.7 27.2 16.8 31.3 7 10 Alarm State:  0
Tue Sep 19 20:06:24 PDT 2017 ON: 20.00 +20.0 20.05 -15.3 27.7 16.5 31.5 7 10 Alarm State:  0
Tue Sep 19 20:05:23 PDT 2017 ON: 20.00 +20.0 20.05 -15.6 27.3 16.8 31.3 7 10 Alarm State:  0
Tue Sep 19 20:04:21 PDT 2017 ON: 20.00 +20.0 20.05 -15.3 27.8 16.4 31.5 7 10 Alarm State:  0
Tue Sep 19 20:03:20 PDT 2017 ON: 19.99 +20.0 20.06 -15.7 27.1 16.9 31.3 7 9 Alarm State:  0
Tue Sep 19 20:02:18 PDT 2017 ON: 20.00 +20.0 20.05 -15.4 27.6 16.5 31.5 7 10 Alarm State:  0
Tue Sep 19 20:01:17 PDT 2017 ON: 20.00 +20.0 20.07 -15.3 27.7 16.5 31.5 7 9 Alarm State:  0
Tue Sep 19 20:00:15 PDT 2017 ON: 19.99 +20.0 20.07 -15.6 27.3 16.8 31.4 7 9 Alarm State:  0
Tue Sep 19 19:59:14 PDT 2017 ON: 19.99 +20.0 20.06 -15.5 27.5 16.6 31.5 8 9 Alarm State:  0
Tue Sep 19 19:58:12 PDT 2017 ON: 20.00 +20.0 20.06 -15.7 27.2 16.8 31.3 7 9 Alarm State:  0
Tue Sep 19 19:57:11 PDT 2017 ON: 19.99 +20.0 20.06 -15.5 27.4 16.7 31.3 7 10 Alarm State:  0
Tue Sep 19 19:56:09 PDT 2017 ON: 19.99 +20.0 20.06 -15.3 27.7 16.5 31.4 8 10 Alarm State:  0
Tue Sep 19 19:55:08 PDT 2017 ON: 19.99 +20.0 20.05 -15.5 27.4 16.7 31.3 7 9 Alarm State:  0
Tue Sep 19 19:54:06 PDT 2017 ON: 20.00 +20.0 20.05 -15.3 27.7 16.5 31.4 7 10 Alarm State:  0
Tue Sep 19 19:53:05 PDT 2017 ON: 19.99 +20.0 20.07 -15.5 27.4 16.7 31.4 7 9 Alarm State:  0
Tue Sep 19 19:52:03 PDT 2017 ON: 19.99 +20.0 20.05 -15.5 27.4 16.7 31.4 7 10 Alarm State:  0
Tue Sep 19 19:51:02 PDT 2017 ON: 19.99 +20.0 20.04 -15.2 27.9 16.3 31.5 7 10 Alarm State:  0
Tue Sep 19 19:50:00 PDT 2017 ON: 20.00 +20.0 20.06 -15.5 27.5 16.6 31.4 7 10 Alarm State:  0
Tue Sep 19 19:48:59 PDT 2017 ON: 19.99 +20.0 20.05 -15.4 27.6 16.5 31.4 7 10 Alarm State:  0
Tue Sep 19 19:47:57 PDT 2017 ON: 19.99 +20.0 20.05 -15.3 27.8 16.4 31.5 7 10 Alarm State:  0
Tue Sep 19 19:46:56 PDT 2017 ON: 20.00 +20.0 20.06 -15.5 27.4 16.7 31.4 7 9 Alarm State:  0
Tue Sep 19 19:45:54 PDT 2017 ON: 20.00 +20.0 20.06 -15.5 27.5 16.6 31.4 7 9 Alarm State:  0
Tue Sep 19 19:44:53 PDT 2017 ON: 20.00 +20.0 20.06 -15.5 27.4 16.7 31.4 7 10 Alarm State:  0
Tue Sep 19 19:43:51 PDT 2017 ON: 20.00 +20.0 20.05 -15.4 27.6 16.5 31.5 7 10 Alarm State:  0
Tue Sep 19 19:42:50 PDT 2017 ON: 20.00 +20.0 20.06 -15.5 27.5 16.6 31.5 8 9 Alarm State:  0
Tue Sep 19 19:41:48 PDT 2017 ON: 19.99 +20.0 20.05 -15.5 27.4 16.7 31.4 7 10 Alarm State:  0
Tue Sep 19 19:40:47 PDT 2017 ON: 20.00 +20.0 20.05 -15.4 27.6 16.5 31.4 7 9 Alarm State:  0
Tue Sep 19 19:39:45 PDT 2017 ON: 20.00 +20.0 20.06 -15.4 27.6 16.5 31.5 7 10 Alarm State:  0
Tue Sep 19 19:38:44 PDT 2017 ON: 19.99 +20.0 20.05 -15.3 27.7 16.5 31.5 7 10 Alarm State:  0
Tue Sep 19 19:37:42 PDT 2017 ON: 20.00 +20.0 20.03 -15.2 27.9 16.3 31.4 7 10 Alarm State:  0
Tue Sep 19 19:36:41 PDT 2017 ON: 20.00 +20.0 20.06 -15.5 27.5 16.6 31.4 7 9 Alarm State:  0
Tue Sep 19 19:35:39 PDT 2017 ON: 20.00 +20.0 20.05 -15.4 27.6 16.5 31.4 7 10 Alarm State:  0
Tue Sep 19 19:34:38 PDT 2017 ON: 20.00 +20.0 20.05 -15.4 27.6 16.5 31.4 8 10 Alarm State:  0
Tue Sep 19 19:33:36 PDT 2017 ON: 20.00 +20.0 20.06 -15.3 27.7 16.5 31.4 7 10 Alarm State:  0
Tue Sep 19 19:32:35 PDT 2017 ON: 19.99 +20.0 20.05 -15.5 27.4 16.7 31.4 7 10 Alarm State:  0
Tue Sep 19 19:31:33 PDT 2017 ON: 19.99 +20.0 20.04 -15.0 28.2 16.1 31.6 7 10 Alarm State:  0
Tue Sep 19 19:30:32 PDT 2017 ON: 20.00 +20.0 20.05 -15.3 27.8 16.4 31.4 7 10 Alarm State:  0
Tue Sep 19 19:29:30 PDT 2017 ON: 19.99 +20.0 20.06 -15.3 27.7 16.5 31.4 7 10 Alarm State:  0
Tue Sep 19 19:28:19 PDT 2017  Alarm State: 0
Tue Sep 19 19:28:19 PDT 2017 Chiller did not report ON, got this reading: 
Tue Sep 19 19:27:17 PDT 2017 ON: 20.00 +20.0 20.05 -15.7 27.1 16.9 31.3 8 10 Alarm State:  0
Tue Sep 19 19:26:16 PDT 2017 ON: 19.99 +20.0 20.05 -15.5 27.5 16.6 31.4 7 10 Alarm State:  0
Tue Sep 19 19:25:14 PDT 2017 ON: 20.00 +20.0 20.06 -15.5 27.5 16.6 31.4 7 9 Alarm State:  0
Tue Sep 19 19:24:13 PDT 2017 ON: 19.99 +20.0 20.04 -15.4 27.6 16.5 31.4 7 11 Alarm State:  0
Tue Sep 19 19:23:11 PDT 2017 ON: 20.00 +20.0 20.05 -15.4 27.6 16.5 31.4 7 9 Alarm State:  0
Tue Sep 19 19:22:10 PDT 2017 ON: 20.00 +20.0 20.05 -15.3 27.8 16.4 31.5 8 10 Alarm State:  0
Tue Sep 19 19:21:08 PDT 2017 ON: 19.99 +20.0 20.04 -15.4 27.6 16.5 31.5 7 10 Alarm State:  0
Tue Sep 19 19:20:07 PDT 2017 ON: 20.00 +20.0 20.06 -15.5 27.5 16.6 31.3 7 9 Alarm State:  0
Tue Sep 19 19:19:05 PDT 2017 ON: 20.00 +20.0 20.06 -15.4 27.6 16.5 31.4 8 10 Alarm State:  0
Tue Sep 19 19:18:04 PDT 2017 ON: 19.99 +20.0 20.04 -15.2 27.9 16.3 31.5 7 10 Alarm State:  0
Tue Sep 19 19:17:02 PDT 2017 ON: 20.00 +20.0 20.05 -15.3 27.8 16.4 31.5 7 10 Alarm State:  0
Tue Sep 19 19:16:01 PDT 2017 ON: 20.00 +20.0 20.06 -15.3 27.7 16.5 31.5 7 10 Alarm State:  0
Tue Sep 19 19:14:59 PDT 2017 ON: 19.99 +20.0 20.05 -15.3 27.8 16.4 31.5 7 10 Alarm State:  0
Tue Sep 19 19:13:58 PDT 2017 ON: 19.99 +20.0 20.04 -15.3 27.7 16.5 31.4 7 10 Alarm State:  0
Tue Sep 19 19:12:56 PDT 2017 ON: 20.00 +20.0 20.04 -15.3 27.8 16.4 31.5 7 10 Alarm State:  0
Tue Sep 19 19:11:55 PDT 2017 ON: 20.00 +20.0 20.07 -15.6 27.3 16.8 31.3 7 9 Alarm State:  0
Tue Sep 19 19:10:53 PDT 2017 ON: 20.00 +20.0 20.05 -15.2 27.9 16.3 31.5 7 10 Alarm State:  0
Tue Sep 19 19:09:52 PDT 2017 ON: 20.00 +20.0 20.05 -15.3 27.7 16.5 31.4 7 10 Alarm State:  0
Tue Sep 19 19:08:50 PDT 2017 ON: 20.00 +20.0 20.06 -15.7 27.2 16.8 31.2 7 10 Alarm State:  0
Tue Sep 19 19:07:49 PDT 2017 ON: 19.99 +20.0 20.06 -15.5 27.4 16.7 31.4 7 10 Alarm State:  0
Tue Sep 19 19:06:47 PDT 2017 ON: 20.00 +20.0 20.05 -15.5 27.5 16.6 31.3 7 10 Alarm State:  0
Tue Sep 19 19:05:46 PDT 2017 ON: 20.00 +20.0 20.06 -15.4 27.6 16.5 31.4 8 10 Alarm State:  0
Tue Sep 19 19:04:44 PDT 2017 ON: 19.99 +20.0 20.05 -15.5 27.5 16.6 31.3 7 10 Alarm State:  0
Tue Sep 19 19:03:43 PDT 2017 ON: 19.99 +20.0 20.04 -15.3 27.8 16.4 31.5 7 10 Alarm State:  0
Tue Sep 19 19:02:41 PDT 2017 ON: 20.00 +20.0 20.06 -15.3 27.8 16.4 31.5 7 9 Alarm State:  0
Tue Sep 19 19:01:40 PDT 2017 ON: 19.99 +20.0 20.07 -15.6 27.3 16.8 31.3 7 10 Alarm State:  0
Tue Sep 19 19:00:38 PDT 2017 ON: 19.99 +20.0 20.04 -15.3 27.7 16.5 31.5 7 10 Alarm State:  0
Tue Sep 19 18:59:37 PDT 2017 ON: 20.00 +20.0 20.04 -15.4 27.6 16.5 31.5 7 10 Alarm State:  0
Tue Sep 19 18:58:35 PDT 2017 ON: 20.00 +20.0 20.05 -15.3 27.7 16.5 31.4 7 10 Alarm State:  0
Tue Sep 19 18:57:34 PDT 2017 ON: 19.99 +20.0 20.04 -15.1 28.0 16.3 31.5 7 11 Alarm State:  0
Tue Sep 19 18:56:32 PDT 2017 ON: 20.00 +20.0 20.05 -15.4 27.6 16.5 31.4 7 10 Alarm State:  0
Tue Sep 19 18:55:31 PDT 2017 ON: 20.00 +20.0 20.06 -15.6 27.3 16.8 31.3 7 9 Alarm State:  0
Tue Sep 19 18:54:29 PDT 2017 ON: 20.00 +20.0 20.06 -15.7 27.1 16.9 31.3 8 9 Alarm State:  0
Tue Sep 19 18:53:28 PDT 2017 ON: 20.00 +20.0 20.06 -15.5 27.5 16.6 31.4 7 10 Alarm State:  0
Tue Sep 19 18:52:26 PDT 2017 ON: 19.99 +20.0 20.04 -15.3 27.8 16.4 31.5 7 11 Alarm State:  0
Tue Sep 19 18:51:25 PDT 2017 ON: 19.99 +20.0 20.05 -15.3 27.8 16.4 31.4 7 10 Alarm State:  0
Tue Sep 19 18:50:23 PDT 2017 ON: 20.00 +20.0 20.05 -15.3 27.7 16.5 31.5 7 10 Alarm State:  0
Tue Sep 19 18:49:22 PDT 2017 ON: 20.00 +20.0 20.06 -15.5 27.4 16.7 31.4 7 10 Alarm State:  0
Tue Sep 19 18:48:20 PDT 2017 ON: 19.99 +20.0 20.05 -15.3 27.8 16.4 31.5 7 10 Alarm State:  0
Tue Sep 19 18:47:19 PDT 2017 ON: 19.99 +20.0 20.05 -15.3 27.8 16.4 31.6 7 10 Alarm State:  0
Tue Sep 19 18:46:17 PDT 2017 ON: 20.00 +20.0 20.06 -15.5 27.5 16.6 31.4 8 9 Alarm State:  0
Tue Sep 19 18:45:16 PDT 2017 ON: 19.99 +20.0 20.05 -15.3 27.7 16.5 31.5 7 10 Alarm State:  0
Tue Sep 19 18:44:15 PDT 2017 ON: 19.99 +20.0 20.04 -15.3 27.8 16.4 31.6 7 10 Alarm State:  0
Tue Sep 19 18:43:13 PDT 2017 ON: 19.99 +20.0 20.04 -15.5 27.5 16.6 31.4 7 10 Alarm State:  0
Tue Sep 19 18:42:12 PDT 2017 ON: 20.00 +20.0 20.07 -15.5 27.5 16.6 31.5 7 9 Alarm State:  0
Tue Sep 19 18:41:10 PDT 2017 ON: 20.00 +20.0 20.06 -15.5 27.4 16.7 31.4 7 10 Alarm State:  0
Tue Sep 19 18:40:09 PDT 2017 ON: 19.99 +20.0 20.04 -15.2 27.9 16.3 31.6 7 10 Alarm State:  0
Tue Sep 19 18:39:07 PDT 2017 ON: 19.99 +20.0 20.06 -15.6 27.3 16.8 31.4 7 9 Alarm State:  0
Tue Sep 19 18:38:06 PDT 2017 ON: 20.00 +20.0 20.07 -15.6 27.3 16.8 31.3 8 9 Alarm State:  0
Tue Sep 19 18:37:04 PDT 2017 ON: 20.00 +20.0 20.07 -15.5 27.4 16.7 31.2 7 9 Alarm State:  0
Tue Sep 19 18:36:03 PDT 2017 ON: 19.99 +20.0 20.04 -15.4 27.6 16.5 31.2 7 10 Alarm State:  0
Tue Sep 19 18:35:01 PDT 2017 ON: 20.00 +20.0 20.06 -15.4 27.6 16.5 31.2 7 10 Alarm State:  0
Tue Sep 19 18:34:00 PDT 2017 ON: 19.99 +20.0 20.04 -15.4 27.6 16.5 31.3 7 11 Alarm State:  0
Tue Sep 19 18:32:58 PDT 2017 ON: 19.99 +20.0 20.06 -15.5 27.4 16.7 31.3 7 10 Alarm State:  0
Tue Sep 19 18:31:57 PDT 2017 ON: 20.00 +20.0 20.04 -15.3 27.8 16.4 31.4 7 10 Alarm State:  0
Tue Sep 19 18:30:55 PDT 2017 ON: 20.00 +20.0 20.05 -15.1 28.0 16.3 31.5 7 10 Alarm State:  0
Tue Sep 19 18:29:54 PDT 2017 ON: 19.99 +20.0 20.07 -15.7 27.2 16.8 31.4 8 9 Alarm State:  0
Tue Sep 19 18:28:52 PDT 2017 ON: 19.99 +20.0 20.05 -15.6 27.3 16.8 31.4 7 10 Alarm State:  0
Tue Sep 19 18:27:51 PDT 2017 ON: 20.00 +20.0 20.05 -15.6 27.3 16.8 31.5 7 9 Alarm State:  0
Tue Sep 19 18:26:49 PDT 2017 ON: 20.00 +20.0 20.05 -15.4 27.6 16.5 31.5 7 10 Alarm State:  0
Tue Sep 19 18:25:48 PDT 2017 ON: 20.00 +20.0 20.07 -15.5 27.4 16.7 31.6 7 10 Alarm State:  0
Tue Sep 19 18:24:46 PDT 2017 ON: 19.99 +20.0 20.06 -15.5 27.5 16.6 31.6 7 10 Alarm State:  0
Tue Sep 19 18:23:45 PDT 2017 ON: 20.00 +20.0 20.07 -15.5 27.4 16.7 31.6 7 9 Alarm State:  0
Tue Sep 19 18:22:43 PDT 2017 ON: 19.99 +20.0 20.04 -15.4 27.6 16.5 31.5 7 10 Alarm State:  0
Tue Sep 19 18:21:42 PDT 2017 ON: 20.00 +20.0 20.05 -15.2 27.9 16.3 31.4 7 10 Alarm State:  0
Tue Sep 19 18:20:40 PDT 2017 ON: 20.00 +20.0 20.05 -15.5 27.5 16.6 31.3 7 10 Alarm State:  0
Tue Sep 19 18:19:39 PDT 2017 ON: 20.00 +20.0 20.05 -15.3 27.7 16.5 31.5 7 10 Alarm State:  0
Tue Sep 19 18:18:37 PDT 2017 ON: 20.00 +20.0 20.05 -15.1 28.0 16.3 31.6 7 10 Alarm State:  0
Tue Sep 19 18:17:36 PDT 2017 ON: 20.00 +20.0 20.06 -15.6 27.3 16.8 31.5 7 10 Alarm State:  0
Tue Sep 19 18:16:34 PDT 2017 ON: 19.99 +20.0 20.05 -15.1 28.1 16.2 31.5 7 10 Alarm State:  0
Tue Sep 19 18:15:33 PDT 2017 ON: 19.99 +20.0 20.05 -15.5 27.5 16.6 31.4 8 10 Alarm State:  0
Tue Sep 19 18:14:31 PDT 2017 ON: 20.00 +20.0 20.04 -15.3 27.7 16.5 31.4 7 10 Alarm State:  0
Tue Sep 19 18:13:30 PDT 2017 ON: 20.00 +20.0 20.06 -15.5 27.5 16.6 31.4 7 9 Alarm State:  0
Tue Sep 19 18:12:28 PDT 2017 ON: 19.99 +20.0 20.05 -15.3 27.7 16.5 31.4 7 10 Alarm State:  0
Tue Sep 19 18:11:27 PDT 2017 ON: 19.99 +20.0 20.05 -15.3 27.7 16.5 31.5 7 10 Alarm State:  0
Tue Sep 19 18:10:25 PDT 2017 ON: 20.00 +20.0 20.06 -15.4 27.6 16.5 31.4 7 9 Alarm State:  0
Tue Sep 19 18:09:24 PDT 2017 ON: 19.99 +20.0 20.03 -15.2 27.9 16.3 31.5 7 11 Alarm State:  0
Tue Sep 19 18:08:22 PDT 2017 ON: 19.99 +20.0 20.04 -15.3 27.7 16.5 31.4 7 10 Alarm State:  0
Tue Sep 19 18:07:21 PDT 2017 ON: 20.00 +20.0 20.06 -15.6 27.3 16.8 31.2 7 10 Alarm State:  0
Tue Sep 19 18:06:19 PDT 2017 ON: 19.99 +20.0 20.05 -15.3 27.8 16.4 31.5 7 10 Alarm State:  0
Tue Sep 19 18:05:18 PDT 2017 ON: 19.99 +20.0 20.04 -15.2 27.9 16.3 31.5 7 10 Alarm State:  0
Tue Sep 19 18:04:16 PDT 2017 ON: 20.00 +20.0 20.05 -15.3 27.8 16.4 31.4 7 10 Alarm State:  0
Tue Sep 19 18:03:15 PDT 2017 ON: 19.99 +20.0 20.06 -15.3 27.8 16.4 31.5 7 10 Alarm State:  0
Tue Sep 19 18:02:13 PDT 2017 ON: 20.00 +20.0 20.06 -15.5 27.4 16.7 31.3 8 10 Alarm State:  0
Tue Sep 19 18:01:12 PDT 2017 ON: 19.99 +20.0 20.05 -15.3 27.7 16.5 31.4 7 10 Alarm State:  0
Tue Sep 19 18:00:10 PDT 2017 ON: 19.99 +20.0 20.04 -15.3 27.8 16.4 31.5 7 10 Alarm State:  0
Tue Sep 19 17:59:09 PDT 2017 ON: 19.99 +20.0 20.05 -15.3 27.7 16.5 31.4 7 10 Alarm State:  0
Tue Sep 19 17:58:07 PDT 2017 ON: 20.00 +20.0 20.06 -15.7 27.2 16.8 31.3 7 9 Alarm State:  0
Tue Sep 19 17:57:06 PDT 2017 ON: 20.00 +20.0 20.05 -15.5 27.4 16.7 31.3 7 10 Alarm State:  0
Tue Sep 19 17:56:05 PDT 2017 ON: 19.99 +20.0 20.05 -15.4 27.6 16.5 31.4 7 10 Alarm State:  0
Tue Sep 19 17:55:03 PDT 2017 ON: 19.99 +20.0 20.04 -15.1 28.0 16.3 31.5 7 10 Alarm State:  0
Tue Sep 19 17:54:02 PDT 2017 ON: 20.00 +20.0 20.05 -15.3 27.8 16.4 31.4 7 10 Alarm State:  0
Tue Sep 19 17:53:00 PDT 2017 ON: 19.99 +20.0 20.06 -15.3 27.8 16.4 31.5 7 9 Alarm State:  0
Tue Sep 19 17:51:59 PDT 2017 ON: 20.00 +20.0 20.05 -15.5 27.4 16.7 31.3 7 10 Alarm State:  0
Tue Sep 19 17:50:57 PDT 2017 ON: 20.00 +20.0 20.05 -15.2 27.9 16.3 31.5 7 10 Alarm State:  0
Tue Sep 19 17:49:56 PDT 2017 ON: 19.99 +20.0 20.05 -15.3 27.7 16.5 31.5 7 10 Alarm State:  0
Tue Sep 19 17:48:54 PDT 2017 ON: 19.99 +20.0 20.05 -15.5 27.4 16.7 31.3 7 10 Alarm State:  0
Tue Sep 19 17:47:53 PDT 2017 ON: 20.00 +20.0 20.05 -15.3 27.7 16.5 31.4 7 10 Alarm State:  0
Tue Sep 19 17:46:41 PDT 2017  Alarm State: 0
Tue Sep 19 17:46:41 PDT 2017 Chiller did not report ON, got this reading: 
Tue Sep 19 17:45:40 PDT 2017 ON: 20.00 +20.0 20.05 -15.4 27.6 16.5 31.4 7 10 Alarm State:  0
Tue Sep 19 17:44:38 PDT 2017 ON: 19.99 +20.0 20.05 -15.5 27.5 16.6 31.4 7 10 Alarm State:  0
Tue Sep 19 17:43:37 PDT 2017 ON: 19.99 +20.0 20.05 -15.3 27.8 16.4 31.5 7 10 Alarm State:  0
Tue Sep 19 17:42:35 PDT 2017 ON: 20.00 +20.0 20.05 -15.5 27.5 16.6 31.4 7 10 Alarm State:  0
Tue Sep 19 17:41:34 PDT 2017 ON: 19.99 +20.0 20.06 -15.5 27.4 16.7 31.4 7 9 Alarm State:  0
Tue Sep 19 17:40:32 PDT 2017 ON: 20.00 +20.0 20.06 -15.5 27.5 16.6 31.4 7 10 Alarm State:  0
Tue Sep 19 17:39:31 PDT 2017 ON: 19.99 +20.0 20.05 -15.5 27.5 16.6 31.4 7 10 Alarm State:  0
Tue Sep 19 17:38:29 PDT 2017 ON: 20.00 +20.0 20.05 -15.4 27.6 16.5 31.4 8 9 Alarm State:  0
Tue Sep 19 17:37:28 PDT 2017 ON: 19.99 +20.0 20.05 -15.5 27.5 16.6 31.4 7 10 Alarm State:  0
Tue Sep 19 17:36:26 PDT 2017 ON: 19.99 +20.0 20.05 -15.5 27.4 16.7 31.3 7 10 Alarm State:  0
Tue Sep 19 17:35:25 PDT 2017 ON: 19.99 +20.0 20.04 -15.3 27.8 16.4 31.4 7 10 Alarm State:  0
Tue Sep 19 17:34:23 PDT 2017 ON: 20.00 +20.0 20.04 -15.1 28.0 16.3 31.5 7 10 Alarm State:  0
Tue Sep 19 17:33:22 PDT 2017 ON: 19.99 +20.0 20.05 -15.4 27.6 16.5 31.4 7 10 Alarm State:  0
Tue Sep 19 17:32:20 PDT 2017 ON: 20.00 +20.0 20.04 -15.3 27.8 16.4 31.4 7 10 Alarm State:  0
Tue Sep 19 17:31:19 PDT 2017 ON: 20.00 +20.0 20.06 -15.3 27.8 16.4 31.4 7 9 Alarm State:  0
Tue Sep 19 17:30:17 PDT 2017 ON: 19.99 +20.0 20.05 -15.5 27.5 16.6 31.4 8 10 Alarm State:  0
Tue Sep 19 17:29:16 PDT 2017 ON: 19.99 +20.0 20.05 -15.1 28.1 16.2 31.6 7 10 Alarm State:  0
Tue Sep 19 17:28:14 PDT 2017 ON: 19.99 +20.0 20.04 -15.1 28.0 16.3 31.4 7 10 Alarm State:  0
Tue Sep 19 17:27:13 PDT 2017 ON: 20.00 +20.0 20.06 -15.5 27.5 16.6 31.3 7 9 Alarm State:  0
Tue Sep 19 17:26:11 PDT 2017 ON: 19.99 +20.0 20.06 -15.6 27.3 16.8 31.3 7 10 Alarm State:  0
Tue Sep 19 17:25:10 PDT 2017 ON: 19.99 +20.0 20.05 -15.4 27.6 16.5 31.4 7 10 Alarm State:  0
Tue Sep 19 17:24:08 PDT 2017 ON: 20.00 +20.0 20.04 -15.3 27.8 16.4 31.5 7 10 Alarm State:  0
Tue Sep 19 17:23:07 PDT 2017 ON: 20.00 +20.0 20.05 -15.4 27.6 16.5 31.4 7 10 Alarm State:  0
Tue Sep 19 17:22:06 PDT 2017 ON: 19.99 +20.0 20.06 -15.5 27.4 16.7 31.4 7 10 Alarm State:  0
Tue Sep 19 17:21:04 PDT 2017 ON: 19.99 +20.0 20.05 -15.5 27.4 16.7 31.3 7 10 Alarm State:  0
Tue Sep 19 17:20:03 PDT 2017 ON: 20.00 +20.0 20.04 -15.3 27.8 16.4 31.4 7 10 Alarm State:  0
Tue Sep 19 17:19:01 PDT 2017 ON: 20.00 +20.0 20.06 -15.2 27.9 16.3 31.5 7 10 Alarm State:  0
Tue Sep 19 17:18:00 PDT 2017 ON: 19.99 +20.0 20.05 -15.3 27.7 16.5 31.4 7 11 Alarm State:  0
Tue Sep 19 17:16:58 PDT 2017 ON: 19.99 +20.0 20.05 -15.4 27.6 16.5 31.4 7 10 Alarm State:  0
Tue Sep 19 17:15:57 PDT 2017 ON: 19.99 +20.0 20.03 -15.4 27.6 16.5 31.3 7 10 Alarm State:  0
Tue Sep 19 17:14:55 PDT 2017 ON: 20.00 +20.0 20.05 -15.5 27.5 16.6 31.4 7 10 Alarm State:  0
Tue Sep 19 17:13:54 PDT 2017 ON: 20.00 +20.0 20.07 -15.7 27.2 16.8 31.3 8 9 Alarm State:  0
Tue Sep 19 17:12:52 PDT 2017 ON: 19.99 +20.0 20.06 -15.6 27.3 16.8 31.3 7 9 Alarm State:  0
Tue Sep 19 17:11:51 PDT 2017 ON: 20.00 +20.0 20.04 -15.3 27.8 16.4 31.5 7 10 Alarm State:  0
Tue Sep 19 17:10:49 PDT 2017 ON: 20.00 +20.0 20.06 -15.7 27.1 16.9 31.2 8 10 Alarm State:  0
Tue Sep 19 17:09:48 PDT 2017 ON: 19.99 +20.0 20.05 -15.6 27.3 16.8 31.4 7 10 Alarm State:  0
Tue Sep 19 17:08:46 PDT 2017 ON: 20.00 +20.0 20.05 -15.5 27.4 16.7 31.3 7 9 Alarm State:  0
Tue Sep 19 17:07:45 PDT 2017 ON: 19.99 +20.0 20.05 -15.5 27.5 16.6 31.4 7 10 Alarm State:  0
Tue Sep 19 17:06:43 PDT 2017 ON: 19.99 +20.0 20.04 -15.3 27.7 16.5 31.4 7 10 Alarm State:  0
Tue Sep 19 17:05:42 PDT 2017 ON: 20.00 +20.0 20.05 -15.2 27.9 16.3 31.4 7 10 Alarm State:  0
Tue Sep 19 17:04:40 PDT 2017 ON: 19.99 +20.0 20.04 -15.3 27.8 16.4 31.4 7 11 Alarm State:  0
Tue Sep 19 17:03:39 PDT 2017 ON: 20.00 +20.0 20.05 -15.2 27.9 16.3 31.5 7 10 Alarm State:  0
Tue Sep 19 17:02:37 PDT 2017 ON: 20.00 +20.0 20.06 -15.5 27.5 16.6 31.4 7 10 Alarm State:  0
Tue Sep 19 17:01:36 PDT 2017 ON: 19.99 +20.0 20.05 -15.5 27.5 16.6 31.4 7 10 Alarm State:  0
Tue Sep 19 17:00:34 PDT 2017 ON: 19.99 +20.0 20.04 -15.3 27.7 16.5 31.3 7 10 Alarm State:  0
Tue Sep 19 16:59:33 PDT 2017 ON: 20.00 +20.0 20.05 -15.4 27.6 16.5 31.4 8 10 Alarm State:  0
Tue Sep 19 16:58:31 PDT 2017 ON: 20.00 +20.0 20.05 -15.3 27.8 16.4 31.4 7 10 Alarm State:  0
Tue Sep 19 16:57:30 PDT 2017 ON: 19.99 +20.0 20.05 -15.5 27.4 16.7 31.3 7 10 Alarm State:  0
Tue Sep 19 16:56:28 PDT 2017 ON: 20.00 +20.0 20.05 -15.7 27.2 16.8 31.3 7 9 Alarm State:  0
Tue Sep 19 16:55:27 PDT 2017 ON: 20.00 +20.0 20.05 -15.3 27.8 16.4 31.4 7 10 Alarm State:  0
Tue Sep 19 16:54:25 PDT 2017 ON: 20.00 +20.0 20.06 -15.4 27.6 16.5 31.4 8 10 Alarm State:  0
Tue Sep 19 16:53:14 PDT 2017 ON: 19.99 +20.0 20.04 -15.4 27.6 16.5 31.4 7 10 Alarm State:  0
Tue Sep 19 16:52:12 PDT 2017 ON: 19.99 +20.0 20.06 -15.7 27.1 16.9 31.2 7 9 Alarm State:  0
Tue Sep 19 16:51:11 PDT 2017 ON: 19.99 +20.0 20.05 -15.3 27.7 16.5 31.5 7 9 Alarm State:  0
Tue Sep 19 16:50:09 PDT 2017 ON: 20.00 +20.0 20.07 -15.6 27.3 16.8 31.3 8 9 Alarm State:  0
Tue Sep 19 16:49:08 PDT 2017 ON: 19.99 +20.0 20.04 -15.1 28.0 16.3 31.5 7 10 Alarm State:  0
Tue Sep 19 16:48:07 PDT 2017 ON: 20.00 +20.0 20.05 -15.3 27.8 16.4 31.4 7 10 Alarm State:  0
Tue Sep 19 16:47:05 PDT 2017 ON: 19.99 +20.0 20.07 -15.7 27.2 16.8 31.3 8 9 Alarm State:  0
Tue Sep 19 16:46:04 PDT 2017 ON: 20.00 +20.0 20.06 -15.5 27.4 16.7 31.4 7 9 Alarm State:  0
Tue Sep 19 16:45:02 PDT 2017 ON: 20.00 +20.0 20.06 -15.5 27.4 16.7 31.4 7 10 Alarm State:  0
Tue Sep 19 16:44:01 PDT 2017 ON: 19.99 +20.0 20.06 -15.5 27.5 16.6 31.4 7 9 Alarm State:  0
Tue Sep 19 16:42:59 PDT 2017 ON: 20.00 +20.0 20.05 -15.3 27.7 16.5 31.4 7 10 Alarm State:  0
Tue Sep 19 16:41:58 PDT 2017 ON: 20.00 +20.0 20.04 -15.1 28.0 16.3 31.5 7 11 Alarm State:  0
Tue Sep 19 16:40:56 PDT 2017 ON: 19.99 +20.0 20.06 -15.5 27.5 16.6 31.3 7 9 Alarm State:  0
Tue Sep 19 16:39:55 PDT 2017 ON: 20.00 +20.0 20.07 -15.6 27.3 16.8 31.3 7 9 Alarm State:  0
Tue Sep 19 16:38:53 PDT 2017 ON: 19.99 +20.0 20.06 -15.7 27.2 16.8 31.3 8 10 Alarm State:  0
Tue Sep 19 16:37:52 PDT 2017 ON: 19.99 +20.0 20.03 -15.1 28.1 16.2 31.5 7 11 Alarm State:  0
Tue Sep 19 16:36:50 PDT 2017 ON: 20.00 +20.0 20.05 -15.3 27.7 16.5 31.4 7 10 Alarm State:  0
Tue Sep 19 16:35:49 PDT 2017 ON: 19.99 +20.0 20.05 -15.3 27.8 16.4 31.5 7 10 Alarm State:  0
Tue Sep 19 16:34:47 PDT 2017 ON: 19.99 +20.0 20.05 -15.3 27.8 16.4 31.5 7 10 Alarm State:  0
Tue Sep 19 16:33:46 PDT 2017 ON: 20.00 +20.0 20.05 -15.4 27.6 16.5 31.4 7 10 Alarm State:  0
Tue Sep 19 16:32:44 PDT 2017 ON: 19.99 +20.0 20.05 -15.5 27.5 16.6 31.4 7 10 Alarm State:  0
Tue Sep 19 16:31:43 PDT 2017 ON: 19.99 +20.0 20.06 -15.3 27.7 16.5 31.4 7 10 Alarm State:  0
Tue Sep 19 16:30:41 PDT 2017 ON: 19.99 +20.0 20.04 -15.5 27.4 16.7 31.4 8 10 Alarm State:  0
Tue Sep 19 16:29:40 PDT 2017 ON: 19.99 +20.0 20.05 -15.5 27.5 16.6 31.3 7 10 Alarm State:  0
Tue Sep 19 16:28:38 PDT 2017 ON: 19.99 +20.0 20.04 -15.1 28.1 16.2 31.5 7 11 Alarm State:  0
Tue Sep 19 16:27:37 PDT 2017 ON: 19.99 +20.0 20.06 -15.6 27.3 16.8 31.4 8 10 Alarm State:  0
Tue Sep 19 16:26:35 PDT 2017 ON: 19.99 +20.0 20.05 -15.5 27.4 16.7 31.3 7 9 Alarm State:  0
Tue Sep 19 16:25:34 PDT 2017 ON: 20.00 +20.0 20.05 -15.2 27.9 16.3 31.5 7 10 Alarm State:  0
Tue Sep 19 16:24:32 PDT 2017 ON: 19.99 +20.0 20.05 -15.7 27.2 16.8 31.3 7 10 Alarm State:  0
Tue Sep 19 16:23:31 PDT 2017 ON: 19.99 +20.0 20.04 -15.5 27.5 16.6 31.4 7 10 Alarm State:  0
Tue Sep 19 16:22:29 PDT 2017 ON: 20.00 +20.0 20.05 -15.5 27.4 16.7 31.3 7 9 Alarm State:  0
Tue Sep 19 16:21:28 PDT 2017 ON: 20.01 +20.0 20.07 -15.6 27.3 16.8 31.3 7 9 Alarm State:  0
Tue Sep 19 16:20:26 PDT 2017 ON: 19.99 +20.0 20.06 -15.4 27.6 16.5 31.4 7 10 Alarm State:  0
Tue Sep 19 16:19:25 PDT 2017 ON: 19.99 +20.0 20.05 -15.3 27.8 16.4 31.4 7 10 Alarm State:  0
Tue Sep 19 16:18:23 PDT 2017 ON: 20.00 +20.0 20.05 -15.6 27.3 16.8 31.3 7 9 Alarm State:  0
Tue Sep 19 16:17:22 PDT 2017 ON: 20.00 +20.0 20.05 -15.3 27.8 16.4 31.4 7 10 Alarm State:  0
Tue Sep 19 16:16:20 PDT 2017 ON: 20.00 +20.0 20.07 -15.4 27.6 16.5 31.4 7 10 Alarm State:  0
Tue Sep 19 16:15:19 PDT 2017 ON: 19.99 +20.0 20.05 -15.6 27.3 16.8 31.3 7 10 Alarm State:  0
Tue Sep 19 16:14:17 PDT 2017 ON: 20.00 +20.0 20.05 -15.5 27.5 16.6 31.4 8 9 Alarm State:  0
Tue Sep 19 16:13:16 PDT 2017 ON: 20.00 +20.0 20.06 -15.5 27.4 16.7 31.3 7 10 Alarm State:  0
Tue Sep 19 16:12:14 PDT 2017 ON: 19.99 +20.0 20.04 -15.3 27.7 16.5 31.4 7 10 Alarm State:  0
Tue Sep 19 16:11:13 PDT 2017 ON: 20.00 +20.0 20.06 -15.3 27.7 16.5 31.5 7 9 Alarm State:  0
Tue Sep 19 16:10:11 PDT 2017 ON: 20.00 +20.0 20.06 -15.5 27.5 16.6 31.4 7 9 Alarm State:  0
Tue Sep 19 16:09:10 PDT 2017 ON: 20.00 +20.0 20.05 -15.5 27.5 16.6 31.3 7 9 Alarm State:  0
Tue Sep 19 16:08:08 PDT 2017 ON: 19.99 +20.0 20.06 -15.6 27.3 16.8 31.3 7 9 Alarm State:  0
Tue Sep 19 16:07:07 PDT 2017 ON: 19.99 +20.0 20.06 -15.5 27.4 16.7 31.4 7 10 Alarm State:  0
Tue Sep 19 16:06:05 PDT 2017 ON: 19.99 +20.0 20.06 -15.5 27.4 16.7 31.3 7 9 Alarm State:  0
Tue Sep 19 16:05:04 PDT 2017 ON: 20.00 +20.0 20.04 -15.5 27.5 16.6 31.3 7 10 Alarm State:  0
Tue Sep 19 16:04:02 PDT 2017 ON: 20.00 +20.0 20.07 -15.4 27.6 16.5 31.4 7 9 Alarm State:  0
Tue Sep 19 16:03:01 PDT 2017 ON: 19.99 +20.0 20.05 -15.1 28.0 16.3 31.5 7 10 Alarm State:  0
Tue Sep 19 16:01:59 PDT 2017 ON: 19.99 +20.0 20.05 -15.6 27.3 16.8 31.3 7 10 Alarm State:  0
Tue Sep 19 16:00:58 PDT 2017 ON: 20.00 +20.0 20.05 -15.6 27.3 16.8 31.3 7 10 Alarm State:  0
Tue Sep 19 15:59:57 PDT 2017 ON: 19.99 +20.0 20.05 -15.3 27.7 16.5 31.5 7 10 Alarm State:  0
Tue Sep 19 15:58:55 PDT 2017 ON: 19.99 +20.0 20.06 -15.5 27.5 16.6 31.3 7 9 Alarm State:  0
Tue Sep 19 15:57:54 PDT 2017 ON: 19.99 +20.0 20.05 -15.4 27.6 16.5 31.5 7 10 Alarm State:  0
Tue Sep 19 15:56:52 PDT 2017 ON: 20.00 +20.0 20.06 -15.5 27.4 16.7 31.4 7 10 Alarm State:  0
Tue Sep 19 15:55:51 PDT 2017 ON: 19.99 +20.0 20.04 -15.3 27.8 16.4 31.4 7 10 Alarm State:  0
Tue Sep 19 15:54:49 PDT 2017 ON: 20.00 +20.0 20.05 -15.5 27.5 16.6 31.4 8 9 Alarm State:  0
Tue Sep 19 15:53:48 PDT 2017 ON: 20.00 +20.0 20.05 -15.3 27.8 16.4 31.4 7 10 Alarm State:  0
Tue Sep 19 15:52:46 PDT 2017 ON: 20.00 +20.0 20.06 -15.5 27.5 16.6 31.3 7 10 Alarm State:  0
Tue Sep 19 15:51:45 PDT 2017 ON: 19.99 +20.0 20.06 -15.5 27.5 16.6 31.5 8 9 Alarm State:  0
Tue Sep 19 15:50:43 PDT 2017 ON: 19.99 +20.0 20.05 -15.5 27.4 16.7 31.4 7 10 Alarm State:  0
Tue Sep 19 15:49:42 PDT 2017 ON: 19.99 +20.0 20.04 -15.3 27.7 16.5 31.4 7 10 Alarm State:  0
Tue Sep 19 15:48:40 PDT 2017 ON: 20.00 +20.0 20.05 -15.7 27.1 16.9 31.3 7 10 Alarm State:  0
Tue Sep 19 15:47:39 PDT 2017 ON: 19.99 +20.0 20.06 -15.6 27.3 16.8 31.3 7 10 Alarm State:  0
Tue Sep 19 15:46:37 PDT 2017 ON: 20.00 +20.0 20.06 -15.7 27.1 16.9 31.3 8 9 Alarm State:  0
Tue Sep 19 15:45:36 PDT 2017 ON: 20.00 +20.0 20.06 -15.5 27.5 16.6 31.3 7 9 Alarm State:  0
Tue Sep 19 15:44:34 PDT 2017 ON: 20.00 +20.0 20.05 -15.4 27.6 16.5 31.4 7 10 Alarm State:  0
Tue Sep 19 15:43:33 PDT 2017 ON: 20.00 +20.0 20.05 -15.4 27.6 16.5 31.4 7 10 Alarm State:  0
Tue Sep 19 15:42:31 PDT 2017 ON: 20.00 +20.0 20.05 -15.4 27.6 16.5 31.4 7 10 Alarm State:  0
Tue Sep 19 15:41:30 PDT 2017 ON: 19.99 +20.0 20.05 -15.4 27.6 16.5 31.4 7 10 Alarm State:  0
Tue Sep 19 15:40:28 PDT 2017 ON: 20.00 +20.0 20.05 -15.4 27.6 16.5 31.4 7 9 Alarm State:  0
Tue Sep 19 15:39:27 PDT 2017 ON: 20.00 +20.0 20.05 -15.5 27.5 16.6 31.4 7 10 Alarm State:  0
Tue Sep 19 15:38:25 PDT 2017 ON: 19.99 +20.0 20.06 -15.5 27.4 16.7 31.4 8 9 Alarm State:  0
Tue Sep 19 15:37:24 PDT 2017 ON: 20.00 +20.0 20.07 -15.5 27.4 16.7 31.3 7 9 Alarm State:  0
Tue Sep 19 15:36:22 PDT 2017 ON: 19.99 +20.0 20.05 -15.3 27.7 16.5 31.4 7 10 Alarm State:  0
Tue Sep 19 15:35:21 PDT 2017 ON: 20.00 +20.0 20.04 -15.3 27.8 16.4 31.4 7 10 Alarm State:  0
Tue Sep 19 15:34:19 PDT 2017 ON: 20.00 +20.0 20.06 -15.6 27.3 16.8 31.3 7 10 Alarm State:  0
Tue Sep 19 15:33:18 PDT 2017 ON: 19.99 +20.0 20.05 -15.7 27.2 16.8 31.3 7 10 Alarm State:  0
Tue Sep 19 15:32:16 PDT 2017 ON: 19.99 +20.0 20.04 -15.2 27.9 16.3 31.4 7 10 Alarm State:  0
Tue Sep 19 15:31:15 PDT 2017 ON: 20.00 +20.0 20.06 -15.6 27.3 16.8 31.3 7 9 Alarm State:  0
Tue Sep 19 15:30:13 PDT 2017 ON: 19.99 +20.0 20.06 -15.4 27.6 16.5 31.4 7 10 Alarm State:  0
Tue Sep 19 15:29:12 PDT 2017 ON: 20.00 +20.0 20.06 -15.4 27.6 16.5 31.4 7 10 Alarm State:  0
Tue Sep 19 15:28:10 PDT 2017 ON: 19.99 +20.0 20.04 -15.4 27.6 16.5 31.4 7 11 Alarm State:  0
Tue Sep 19 15:27:09 PDT 2017 ON: 20.00 +20.0 20.05 -15.3 27.7 16.5 31.4 7 9 Alarm State:  0
Tue Sep 19 15:26:07 PDT 2017 ON: 19.99 +20.0 20.06 -15.4 27.6 16.5 31.4 7 9 Alarm State:  0
Tue Sep 19 15:25:06 PDT 2017 ON: 20.00 +20.0 20.05 -15.5 27.4 16.7 31.3 7 10 Alarm State:  0
Tue Sep 19 15:24:04 PDT 2017 ON: 20.00 +20.0 20.06 -15.5 27.4 16.7 31.4 7 9 Alarm State:  0
Tue Sep 19 15:23:03 PDT 2017 ON: 20.00 +20.0 20.06 -15.3 27.8 16.4 31.4 7 10 Alarm State:  0
Tue Sep 19 15:22:01 PDT 2017 ON: 19.99 +20.0 20.05 -15.3 27.8 16.4 31.5 7 10 Alarm State:  0
Tue Sep 19 15:21:00 PDT 2017 ON: 20.00 +20.0 20.06 -15.5 27.5 16.6 31.4 7 9 Alarm State:  0
Tue Sep 19 15:19:58 PDT 2017 ON: 20.00 +20.0 20.05 -15.4 27.6 16.5 31.4 7 10 Alarm State:  0
Tue Sep 19 15:18:57 PDT 2017 ON: 20.00 +20.0 20.05 -15.3 27.8 16.4 31.5 7 10 Alarm State:  0
Tue Sep 19 15:17:55 PDT 2017 ON: 19.99 +20.0 20.05 -15.5 27.5 16.6 31.4 7 10 Alarm State:  0
Tue Sep 19 15:16:54 PDT 2017 ON: 20.00 +20.0 20.04 -15.3 27.7 16.5 31.5 7 10 Alarm State:  0
Tue Sep 19 15:15:52 PDT 2017 ON: 20.00 +20.0 20.05 -15.2 27.9 16.3 31.5 7 10 Alarm State:  0
Tue Sep 19 15:14:51 PDT 2017 ON: 19.99 +20.0 20.07 -15.4 27.6 16.5 31.5 7 10 Alarm State:  0
Tue Sep 19 15:13:49 PDT 2017 ON: 19.99 +20.0 20.05 -15.3 27.7 16.5 31.4 7 10 Alarm State:  0
Tue Sep 19 15:12:48 PDT 2017 ON: 20.00 +20.0 20.05 -15.2 27.9 16.3 31.5 7 10 Alarm State:  0
Tue Sep 19 15:11:47 PDT 2017 ON: 20.00 +20.0 20.07 -15.5 27.4 16.7 31.3 7 9 Alarm State:  0
Tue Sep 19 15:10:45 PDT 2017 ON: 19.99 +20.0 20.07 -15.6 27.3 16.8 31.4 8 9 Alarm State:  0
Tue Sep 19 15:09:44 PDT 2017 ON: 19.99 +20.0 20.04 -15.3 27.7 16.5 31.4 7 10 Alarm State:  0
Tue Sep 19 15:08:42 PDT 2017 ON: 20.00 +20.0 20.05 -15.3 27.7 16.5 31.5 7 10 Alarm State:  0
Tue Sep 19 15:07:41 PDT 2017 ON: 20.01 +20.0 20.06 -15.5 27.4 16.7 31.3 8 10 Alarm State:  0
Tue Sep 19 15:06:39 PDT 2017 ON: 19.99 +20.0 20.06 -15.5 27.5 16.6 31.4 7 10 Alarm State:  0
Tue Sep 19 15:05:38 PDT 2017 ON: 19.99 +20.0 20.04 -15.2 27.9 16.3 31.5 7 10 Alarm State:  0
Tue Sep 19 15:04:36 PDT 2017 ON: 20.00 +20.0 20.06 -15.2 27.9 16.3 31.5 7 10 Alarm State:  0
Tue Sep 19 15:03:35 PDT 2017 ON: 19.99 +20.0 20.04 -15.4 27.6 16.5 31.4 7 10 Alarm State:  0
Tue Sep 19 15:02:33 PDT 2017 ON: 20.00 +20.0 20.04 -15.1 28.1 16.2 31.6 7 10 Alarm State:  0
Tue Sep 19 15:01:32 PDT 2017 ON: 19.99 +20.0 20.05 -15.5 27.4 16.7 31.3 7 10 Alarm State:  0
Tue Sep 19 15:00:30 PDT 2017 ON: 20.00 +20.0 20.06 -15.5 27.4 16.7 31.3 7 9 Alarm State:  0
Tue Sep 19 14:59:29 PDT 2017 ON: 19.99 +20.0 20.06 -15.5 27.4 16.7 31.4 8 9 Alarm State:  0
Tue Sep 19 14:58:27 PDT 2017 ON: 20.00 +20.0 20.05 -15.3 27.8 16.4 31.5 7 10 Alarm State:  0
Tue Sep 19 14:57:26 PDT 2017 ON: 20.00 +20.0 20.05 -15.3 27.7 16.5 31.4 7 11 Alarm State:  0
Tue Sep 19 14:56:24 PDT 2017 ON: 19.99 +20.0 20.04 -15.4 27.6 16.5 31.4 7 10 Alarm State:  0
Tue Sep 19 14:55:23 PDT 2017 ON: 20.00 +20.0 20.05 -15.2 27.9 16.3 31.5 7 9 Alarm State:  0
Tue Sep 19 14:54:21 PDT 2017 ON: 20.00 +20.0 20.05 -15.1 28.0 16.3 31.5 7 10 Alarm State:  0
Tue Sep 19 14:53:20 PDT 2017 ON: 19.99 +20.0 20.05 -15.5 27.5 16.6 31.5 7 10 Alarm State:  0
Tue Sep 19 14:52:18 PDT 2017 ON: 19.99 +20.0 20.04 -15.2 27.9 16.3 31.5 7 10 Alarm State:  0
Tue Sep 19 14:51:17 PDT 2017 ON: 20.00 +20.0 20.06 -15.5 27.5 16.6 31.4 7 9 Alarm State:  0
Tue Sep 19 14:50:15 PDT 2017 ON: 20.00 +20.0 20.06 -15.6 27.3 16.8 31.4 7 10 Alarm State:  0
Tue Sep 19 14:49:14 PDT 2017 ON: 19.99 +20.0 20.04 -15.4 27.6 16.5 31.3 7 11 Alarm State:  0
Tue Sep 19 14:48:12 PDT 2017 ON: 20.00 +20.0 20.05 -15.4 27.6 16.5 31.4 7 9 Alarm State:  0
Tue Sep 19 14:47:11 PDT 2017 ON: 20.00 +20.0 20.05 -15.6 27.3 16.8 31.3 7 10 Alarm State:  0
Tue Sep 19 14:46:09 PDT 2017 ON: 19.99 +20.0 20.05 -15.3 27.7 16.5 31.4 7 10 Alarm State:  0
Tue Sep 19 14:45:08 PDT 2017 ON: 20.00 +20.0 20.05 -15.2 27.9 16.3 31.5 7 10 Alarm State:  0
Tue Sep 19 14:44:06 PDT 2017 ON: 19.99 +20.0 20.03 -15.1 28.0 16.3 31.5 7 11 Alarm State:  0
Tue Sep 19 14:43:05 PDT 2017 ON: 19.99 +20.0 20.06 -15.7 27.1 16.9 31.3 8 9 Alarm State:  0
Tue Sep 19 14:42:03 PDT 2017 ON: 20.00 +20.0 20.06 -15.7 27.1 16.9 31.2 7 9 Alarm State:  0
Tue Sep 19 14:41:02 PDT 2017 ON: 20.00 +20.0 20.07 -15.6 27.3 16.8 31.3 7 9 Alarm State:  0
Tue Sep 19 14:40:00 PDT 2017 ON: 19.99 +20.0 20.05 -15.2 27.9 16.3 31.5 7 11 Alarm State:  0
Tue Sep 19 14:38:59 PDT 2017 ON: 19.99 +20.0 20.05 -15.4 27.6 16.5 31.5 7 10 Alarm State:  0
Tue Sep 19 14:37:57 PDT 2017 ON: 19.99 +20.0 20.04 -15.1 28.1 16.2 31.6 7 10 Alarm State:  0
Tue Sep 19 14:36:56 PDT 2017 ON: 20.00 +20.0 20.04 -15.5 27.5 16.6 31.4 7 10 Alarm State:  0
Tue Sep 19 14:35:54 PDT 2017 ON: 20.00 +20.0 20.06 -15.5 27.4 16.7 31.4 7 10 Alarm State:  0
Tue Sep 19 14:34:53 PDT 2017 ON: 20.00 +20.0 20.05 -15.3 27.8 16.4 31.5 7 10 Alarm State:  0
Tue Sep 19 14:33:51 PDT 2017 ON: 19.99 +20.0 20.05 -15.1 28.1 16.2 31.6 7 10 Alarm State:  0
Tue Sep 19 14:32:50 PDT 2017 ON: 19.99 +20.0 20.04 -15.2 27.9 16.3 31.5 7 11 Alarm State:  0
Tue Sep 19 14:31:48 PDT 2017 ON: 20.00 +20.0 20.06 -15.4 27.6 16.5 31.4 7 9 Alarm State:  0
Tue Sep 19 14:30:47 PDT 2017 ON: 20.00 +20.0 20.05 -15.5 27.4 16.7 31.3 7 10 Alarm State:  0
Tue Sep 19 14:29:45 PDT 2017 ON: 19.99 +20.0 20.05 -15.5 27.4 16.7 31.3 7 10 Alarm State:  0
Tue Sep 19 14:28:44 PDT 2017 ON: 20.00 +20.0 20.05 -15.3 27.8 16.4 31.5 7 10 Alarm State:  0
Tue Sep 19 14:27:42 PDT 2017 ON: 20.00 +20.0 20.07 -15.5 27.4 16.7 31.3 7 9 Alarm State:  0
Tue Sep 19 14:26:41 PDT 2017 ON: 19.99 +20.0 20.06 -15.5 27.5 16.6 31.4 7 10 Alarm State:  0
Tue Sep 19 14:25:39 PDT 2017 ON: 19.99 +20.0 20.04 -15.6 27.3 16.8 31.3 7 10 Alarm State:  0
Tue Sep 19 14:24:38 PDT 2017 ON: 20.00 +20.0 20.05 -15.7 27.1 16.9 31.3 7 9 Alarm State:  0
Tue Sep 19 14:23:36 PDT 2017 ON: 20.01 +20.0 20.05 -15.6 27.3 16.8 31.4 7 10 Alarm State:  0
Tue Sep 19 14:22:35 PDT 2017 ON: 20.01 +20.0 20.06 -15.5 27.5 16.6 31.4 7 10 Alarm State:  0
Tue Sep 19 14:21:33 PDT 2017 ON: 19.99 +20.0 20.06 -15.3 27.7 16.5 31.5 7 10 Alarm State:  0
Tue Sep 19 14:20:32 PDT 2017 ON: 19.99 +20.0 20.07 -15.5 27.4 16.7 31.3 7 9 Alarm State:  0
Tue Sep 19 14:19:30 PDT 2017 ON: 20.00 +20.0 20.06 -15.6 27.3 16.8 31.4 7 9 Alarm State:  0
Tue Sep 19 14:18:29 PDT 2017 ON: 19.99 +20.0 20.06 -15.5 27.5 16.6 31.3 7 10 Alarm State:  0
Tue Sep 19 14:17:28 PDT 2017 ON: 20.00 +20.0 20.04 -15.2 27.9 16.3 31.5 7 10 Alarm State:  0
Tue Sep 19 14:16:26 PDT 2017 ON: 19.99 +20.0 20.05 -15.6 27.3 16.8 31.4 7 10 Alarm State:  0
Tue Sep 19 14:15:25 PDT 2017 ON: 19.99 +20.0 20.05 -15.5 27.4 16.7 31.4 8 10 Alarm State:  0
Tue Sep 19 14:14:23 PDT 2017 ON: 20.00 +20.0 20.06 -15.6 27.3 16.8 31.4 7 9 Alarm State:  0
Tue Sep 19 14:13:22 PDT 2017 ON: 20.00 +20.0 20.06 -15.5 27.5 16.6 31.4 7 9 Alarm State:  0
Tue Sep 19 14:12:20 PDT 2017 ON: 19.99 +20.0 20.08 -15.7 27.1 16.9 31.3 7 9 Alarm State:  0
Tue Sep 19 14:11:19 PDT 2017 ON: 19.99 +20.0 20.05 -15.5 27.4 16.7 31.3 7 10 Alarm State:  0
Tue Sep 19 14:10:17 PDT 2017 ON: 19.99 +20.0 20.04 -15.5 27.5 16.6 31.4 8 10 Alarm State:  0
Tue Sep 19 14:09:16 PDT 2017 ON: 20.00 +20.0 20.06 -15.8 27.0 16.9 31.2 7 9 Alarm State:  0
Tue Sep 19 14:08:14 PDT 2017 ON: 19.99 +20.0 20.05 -15.2 27.9 16.3 31.4 7 10 Alarm State:  0
Tue Sep 19 14:07:13 PDT 2017 ON: 19.99 +20.0 20.04 -15.5 27.5 16.6 31.4 8 10 Alarm State:  0
Tue Sep 19 14:06:11 PDT 2017 ON: 20.00 +20.0 20.06 -15.7 27.1 16.9 31.3 7 9 Alarm State:  0
Tue Sep 19 14:05:10 PDT 2017 ON: 20.00 +20.0 20.07 -15.5 27.5 16.6 31.3 7 9 Alarm State:  0
Tue Sep 19 14:04:08 PDT 2017 ON: 19.99 +20.0 20.06 -15.3 27.8 16.4 31.5 7 10 Alarm State:  0
Tue Sep 19 14:03:07 PDT 2017 ON: 19.99 +20.0 20.04 -15.5 27.5 16.6 31.4 7 10 Alarm State:  0
Tue Sep 19 14:02:05 PDT 2017 ON: 20.00 +20.0 20.06 -15.5 27.5 16.6 31.5 8 9 Alarm State:  0
Tue Sep 19 14:01:04 PDT 2017 ON: 20.00 +20.0 20.04 -15.1 28.1 16.2 31.5 7 11 Alarm State:  0
Tue Sep 19 14:00:02 PDT 2017 ON: 20.00 +20.0 20.04 -15.2 27.9 16.3 31.5 7 10 Alarm State:  0
Tue Sep 19 13:59:01 PDT 2017 ON: 20.00 +20.0 20.06 -15.7 27.2 16.8 31.4 8 9 Alarm State:  0
Tue Sep 19 13:57:59 PDT 2017 ON: 20.00 +20.0 20.06 -15.2 27.9 16.3 31.5 7 10 Alarm State:  0
Tue Sep 19 13:56:58 PDT 2017 ON: 19.99 +20.0 20.06 -15.2 27.9 16.3 31.5 7 10 Alarm State:  0
Tue Sep 19 13:55:56 PDT 2017 ON: 19.99 +20.0 20.04 -15.3 27.8 16.4 31.5 7 10 Alarm State:  0
Tue Sep 19 13:54:55 PDT 2017 ON: 20.00 +20.0 20.05 -15.5 27.4 16.7 31.4 7 10 Alarm State:  0
Tue Sep 19 13:53:53 PDT 2017 ON: 19.99 +20.0 20.05 -15.5 27.4 16.7 31.4 8 10 Alarm State:  0
Tue Sep 19 13:52:52 PDT 2017 ON: 20.00 +20.0 20.06 -15.5 27.5 16.6 31.4 7 9 Alarm State:  0
Tue Sep 19 13:51:50 PDT 2017 ON: 20.00 +20.0 20.06 -15.5 27.5 16.6 31.4 7 10 Alarm State:  0
Tue Sep 19 13:50:49 PDT 2017 ON: 20.00 +20.0 20.06 -15.5 27.5 16.6 31.4 8 9 Alarm State:  0
Tue Sep 19 13:49:47 PDT 2017 ON: 19.99 +20.0 20.04 -15.4 27.6 16.5 31.5 7 10 Alarm State:  0
Tue Sep 19 13:48:46 PDT 2017 ON: 20.00 +20.0 20.05 -15.3 27.7 16.5 31.4 7 10 Alarm State:  0
Tue Sep 19 13:47:44 PDT 2017 ON: 20.00 +20.0 20.06 -15.4 27.6 16.5 31.5 7 10 Alarm State:  0
Tue Sep 19 13:46:43 PDT 2017 ON: 19.99 +20.0 20.05 -15.3 27.8 16.4 31.4 7 10 Alarm State:  0
Tue Sep 19 13:45:41 PDT 2017 ON: 20.00 +20.0 20.04 -15.3 27.8 16.4 31.5 7 10 Alarm State:  0
Tue Sep 19 13:44:40 PDT 2017 ON: 20.00 +20.0 20.06 -15.5 27.4 16.7 31.3 7 10 Alarm State:  0
Tue Sep 19 13:43:38 PDT 2017 ON: 19.99 +20.0 20.05 -15.3 27.8 16.4 31.4 7 10 Alarm State:  0
Tue Sep 19 13:42:37 PDT 2017 ON: 19.99 +20.0 20.05 -15.7 27.2 16.8 31.3 8 9 Alarm State:  0
Tue Sep 19 13:41:35 PDT 2017 ON: 20.00 +20.0 20.05 -15.7 27.2 16.8 31.3 7 10 Alarm State:  0
Tue Sep 19 13:40:34 PDT 2017 ON: 20.00 +20.0 20.04 -15.3 27.8 16.4 31.4 7 11 Alarm State:  0
Tue Sep 19 13:39:32 PDT 2017 ON: 19.99 +20.0 20.06 -15.4 27.6 16.5 31.4 8 10 Alarm State:  0
Tue Sep 19 13:38:31 PDT 2017 ON: 19.99 +20.0 20.03 -15.3 27.8 16.4 31.5 7 10 Alarm State:  0
Tue Sep 19 13:37:29 PDT 2017 ON: 20.00 +20.0 20.05 -15.5 27.4 16.7 31.4 7 10 Alarm State:  0
Tue Sep 19 13:36:28 PDT 2017 ON: 20.00 +20.0 20.05 -15.2 27.9 16.3 31.5 7 10 Alarm State:  0
Tue Sep 19 13:35:26 PDT 2017 ON: 19.99 +20.0 20.05 -15.3 27.7 16.5 31.4 7 11 Alarm State:  0
Tue Sep 19 13:34:25 PDT 2017 ON: 19.99 +20.0 20.06 -15.6 27.3 16.8 31.3 8 9 Alarm State:  0
Tue Sep 19 13:33:23 PDT 2017 ON: 20.00 +20.0 20.05 -15.4 27.6 16.5 31.4 7 9 Alarm State:  0
Tue Sep 19 13:32:22 PDT 2017 ON: 20.00 +20.0 20.07 -15.5 27.4 16.7 31.4 7 9 Alarm State:  0
Tue Sep 19 13:31:20 PDT 2017 ON: 20.00 +20.0 20.06 -15.4 27.6 16.5 31.5 7 10 Alarm State:  0
Tue Sep 19 13:30:19 PDT 2017 ON: 19.99 +20.0 20.05 -15.5 27.5 16.6 31.4 7 10 Alarm State:  0
Tue Sep 19 13:29:17 PDT 2017 ON: 20.00 +20.0 20.05 -15.3 27.8 16.4 31.4 7 9 Alarm State:  0
Tue Sep 19 13:28:16 PDT 2017 ON: 20.01 +20.0 20.06 -15.6 27.3 16.8 31.3 7 10 Alarm State:  0
Tue Sep 19 13:27:14 PDT 2017 ON: 19.99 +20.0 20.05 -15.3 27.7 16.5 31.4 7 11 Alarm State:  0
Tue Sep 19 13:26:13 PDT 2017 ON: 19.99 +20.0 20.06 -15.4 27.6 16.5 31.4 7 9 Alarm State:  0
Tue Sep 19 13:25:12 PDT 2017 ON: 20.00 +20.0 20.05 -15.6 27.3 16.8 31.4 7 10 Alarm State:  0
Tue Sep 19 13:24:10 PDT 2017 ON: 19.99 +20.0 20.04 -15.3 27.8 16.4 31.5 7 10 Alarm State:  0
Tue Sep 19 13:23:09 PDT 2017 ON: 20.00 +20.0 20.04 -15.3 27.7 16.5 31.5 8 10 Alarm State:  0
Tue Sep 19 13:22:07 PDT 2017 ON: 20.00 +20.0 20.07 -15.4 27.6 16.5 31.4 7 9 Alarm State:  0
Tue Sep 19 13:21:06 PDT 2017 ON: 19.99 +20.0 20.05 -15.2 27.9 16.3 31.6 7 10 Alarm State:  0
Tue Sep 19 13:20:04 PDT 2017 ON: 20.00 +20.0 20.04 -15.3 27.7 16.5 31.5 7 10 Alarm State:  0
Tue Sep 19 13:19:03 PDT 2017 ON: 19.99 +20.0 20.06 -15.6 27.3 16.8 31.4 7 10 Alarm State:  0
Tue Sep 19 13:18:01 PDT 2017 ON: 20.00 +20.0 20.05 -15.3 27.7 16.5 31.5 7 10 Alarm State:  0
Tue Sep 19 13:17:00 PDT 2017 ON: 19.99 +20.0 20.03 -15.5 27.5 16.6 31.4 7 11 Alarm State:  0
Tue Sep 19 13:15:58 PDT 2017 ON: 20.00 +20.0 20.06 -15.3 27.7 16.5 31.4 7 10 Alarm State:  0
Tue Sep 19 13:14:57 PDT 2017 ON: 20.00 +20.0 20.06 -15.4 27.6 16.5 31.4 7 10 Alarm State:  0
Tue Sep 19 13:13:55 PDT 2017 ON: 19.98 +20.0 20.04 -15.3 27.8 16.4 31.5 7 10 Alarm State:  0
Tue Sep 19 13:12:54 PDT 2017 ON: 20.00 +20.0 20.04 -15.3 27.7 16.5 31.4 7 10 Alarm State:  0
Tue Sep 19 13:11:52 PDT 2017 ON: 20.00 +20.0 20.05 -15.4 27.6 16.5 31.4 7 10 Alarm State:  0
Tue Sep 19 13:10:51 PDT 2017 ON: 19.99 +20.0 20.06 -15.3 27.8 16.4 31.4 7 10 Alarm State:  0
Tue Sep 19 13:09:49 PDT 2017 ON: 19.99 +20.0 20.05 -15.4 27.6 16.5 31.4 7 10 Alarm State:  0
Tue Sep 19 13:08:48 PDT 2017 ON: 20.00 +20.0 20.04 -15.3 27.8 16.4 31.4 7 10 Alarm State:  0
Tue Sep 19 13:07:46 PDT 2017 ON: 20.00 +20.0 20.06 -15.5 27.5 16.6 31.3 7 9 Alarm State:  0
Tue Sep 19 13:06:45 PDT 2017 ON: 19.99 +20.0 20.07 -15.7 27.2 16.8 31.4 8 10 Alarm State:  0
Tue Sep 19 13:05:43 PDT 2017 ON: 19.99 +20.0 20.05 -15.5 27.4 16.7 31.4 7 10 Alarm State:  0
Tue Sep 19 13:04:42 PDT 2017 ON: 20.00 +20.0 20.05 -15.3 27.8 16.4 31.4 7 10 Alarm State:  0
Tue Sep 19 13:03:40 PDT 2017 ON: 20.01 +20.0 20.06 -15.7 27.2 16.8 31.3 7 10 Alarm State:  0
Tue Sep 19 13:02:39 PDT 2017 ON: 19.99 +20.0 20.06 -15.5 27.5 16.6 31.5 7 10 Alarm State:  0
Tue Sep 19 13:01:37 PDT 2017 ON: 19.99 +20.0 20.05 -15.1 28.1 16.2 31.6 8 10 Alarm State:  0
Tue Sep 19 13:00:36 PDT 2017 ON: 19.99 +20.0 20.06 -15.5 27.5 16.6 31.4 7 9 Alarm State:  0
Tue Sep 19 12:59:34 PDT 2017 ON: 20.00 +20.0 20.05 -15.1 28.0 16.3 31.5 7 10 Alarm State:  0
Tue Sep 19 12:58:33 PDT 2017 ON: 19.99 +20.0 20.06 -15.3 27.7 16.5 31.4 7 10 Alarm State:  0
Tue Sep 19 12:57:31 PDT 2017 ON: 19.99 +20.0 20.05 -15.5 27.4 16.7 31.3 7 10 Alarm State:  0
Tue Sep 19 12:56:30 PDT 2017 ON: 20.00 +20.0 20.04 -15.3 27.7 16.5 31.4 7 10 Alarm State:  0
Tue Sep 19 12:55:28 PDT 2017 ON: 20.00 +20.0 20.07 -15.7 27.1 16.9 31.3 8 9 Alarm State:  0
Tue Sep 19 12:54:27 PDT 2017 ON: 19.99 +20.0 20.05 -15.3 27.8 16.4 31.5 7 10 Alarm State:  0
Tue Sep 19 12:53:25 PDT 2017 ON: 19.99 +20.0 20.04 -15.2 27.9 16.3 31.5 7 10 Alarm State:  0
Tue Sep 19 12:52:24 PDT 2017 ON: 19.99 +20.0 20.04 -15.2 27.9 16.3 31.5 7 11 Alarm State:  0
Tue Sep 19 12:51:22 PDT 2017 ON: 19.99 +20.0 20.07 -15.7 27.1 16.9 31.3 7 9 Alarm State:  0
Tue Sep 19 12:50:21 PDT 2017 ON: 20.00 +20.0 20.05 -15.5 27.5 16.6 31.4 8 10 Alarm State:  0
Tue Sep 19 12:49:19 PDT 2017 ON: 19.99 +20.0 20.05 -15.3 27.8 16.4 31.4 7 10 Alarm State:  0
Tue Sep 19 12:48:18 PDT 2017 ON: 19.99 +20.0 20.04 -15.5 27.5 16.6 31.4 7 10 Alarm State:  0
Tue Sep 19 12:47:16 PDT 2017 ON: 20.00 +20.0 20.06 -15.3 27.7 16.5 31.5 7 9 Alarm State:  0
Tue Sep 19 12:46:15 PDT 2017 ON: 20.00 +20.0 20.07 -15.7 27.1 16.9 31.3 7 10 Alarm State:  0
Tue Sep 19 12:45:13 PDT 2017 ON: 19.99 +20.0 20.05 -15.1 28.0 16.3 31.5 7 10 Alarm State:  0
Tue Sep 19 12:44:12 PDT 2017 ON: 19.99 +20.0 20.03 -15.2 27.9 16.3 31.5 7 10 Alarm State:  0
Tue Sep 19 12:43:10 PDT 2017 ON: 20.00 +20.0 20.06 -15.5 27.5 16.6 31.4 7 9 Alarm State:  0
Tue Sep 19 12:42:09 PDT 2017 ON: 19.99 +20.0 20.07 -15.6 27.3 16.8 31.4 8 10 Alarm State:  0
Tue Sep 19 12:41:07 PDT 2017 ON: 19.99 +20.0 20.05 -15.3 27.8 16.4 31.5 7 10 Alarm State:  0
Tue Sep 19 12:40:06 PDT 2017 ON: 20.00 +20.0 20.04 -15.3 27.7 16.5 31.5 7 10 Alarm State:  0
Tue Sep 19 12:39:05 PDT 2017 ON: 20.00 +20.0 20.07 -15.6 27.3 16.8 31.4 8 9 Alarm State:  0
Tue Sep 19 12:38:03 PDT 2017 ON: 19.99 +20.0 20.05 -15.3 27.7 16.5 31.4 7 10 Alarm State:  0
Tue Sep 19 12:37:02 PDT 2017 ON: 19.99 +20.0 20.04 -15.3 27.7 16.5 31.6 7 10 Alarm State:  0
Tue Sep 19 12:36:00 PDT 2017 ON: 20.00 +20.0 20.05 -15.4 27.6 16.5 31.4 7 10 Alarm State:  0
Tue Sep 19 12:34:59 PDT 2017 ON: 19.99 +20.0 20.05 -15.4 27.6 16.5 31.4 7 10 Alarm State:  0
Tue Sep 19 12:33:57 PDT 2017 ON: 19.99 +20.0 20.05 -15.3 27.7 16.5 31.4 7 10 Alarm State:  0
Tue Sep 19 12:32:56 PDT 2017 ON: 20.00 +20.0 20.05 -15.3 27.7 16.5 31.5 7 10 Alarm State:  0
Tue Sep 19 12:31:54 PDT 2017 ON: 20.00 +20.0 20.06 -15.3 27.8 16.4 31.5 7 9 Alarm State:  0
Tue Sep 19 12:30:53 PDT 2017 ON: 19.99 +20.0 20.05 -15.3 27.7 16.5 31.5 7 10 Alarm State:  0
Tue Sep 19 12:29:51 PDT 2017 ON: 19.99 +20.0 20.05 -15.5 27.4 16.7 31.4 7 9 Alarm State:  0
Tue Sep 19 12:28:50 PDT 2017 ON: 20.00 +20.0 20.05 -15.0 28.2 16.1 31.6 7 10 Alarm State:  0
Tue Sep 19 12:27:48 PDT 2017 ON: 20.00 +20.0 20.06 -15.3 27.7 16.5 31.5 7 10 Alarm State:  0
Tue Sep 19 12:26:47 PDT 2017 ON: 19.99 +20.0 20.05 -15.3 27.7 16.5 31.4 7 10 Alarm State:  0
Tue Sep 19 12:25:45 PDT 2017 ON: 19.98 +20.0 20.05 -15.5 27.4 16.7 31.5 7 9 Alarm State:  0
Tue Sep 19 12:24:44 PDT 2017 ON: 20.00 +20.0 20.04 -15.5 27.5 16.6 31.4 7 10 Alarm State:  0
Tue Sep 19 12:23:42 PDT 2017 ON: 20.00 +20.0 20.06 -15.5 27.4 16.7 31.4 7 9 Alarm State:  0
Tue Sep 19 12:22:41 PDT 2017 ON: 20.00 +20.0 20.07 -15.7 27.2 16.8 31.4 8 10 Alarm State:  0
Tue Sep 19 12:21:39 PDT 2017 ON: 19.99 +20.0 20.07 -15.5 27.4 16.7 31.4 7 9 Alarm State:  0
Tue Sep 19 12:20:38 PDT 2017 ON: 19.99 +20.0 20.05 -15.4 27.6 16.5 31.4 7 9 Alarm State:  0
Tue Sep 19 12:19:36 PDT 2017 ON: 19.99 +20.0 20.05 -15.3 27.7 16.5 31.5 7 10 Alarm State:  0
Tue Sep 19 12:18:35 PDT 2017 ON: 20.00 +20.0 20.08 -15.7 27.1 16.9 31.3 7 9 Alarm State:  0
Tue Sep 19 12:17:33 PDT 2017 ON: 19.99 +20.0 20.05 -15.3 27.8 16.4 31.5 7 10 Alarm State:  0
Tue Sep 19 12:16:32 PDT 2017 ON: 19.99 +20.0 20.04 -15.5 27.5 16.6 31.4 7 10 Alarm State:  0
Tue Sep 19 12:15:30 PDT 2017 ON: 20.00 +20.0 20.06 -15.5 27.4 16.7 31.5 7 9 Alarm State:  0
Tue Sep 19 12:14:29 PDT 2017 ON: 19.99 +20.0 20.03 -15.2 27.9 16.3 31.5 7 11 Alarm State:  0
Tue Sep 19 12:13:27 PDT 2017 ON: 19.99 +20.0 20.04 -15.3 27.7 16.5 31.5 7 10 Alarm State:  0
Tue Sep 19 12:12:26 PDT 2017 ON: 20.00 +20.0 20.06 -15.4 27.6 16.5 31.5 7 9 Alarm State:  0
Tue Sep 19 12:11:24 PDT 2017 ON: 20.00 +20.0 20.06 -15.5 27.5 16.6 31.5 7 10 Alarm State:  0
Tue Sep 19 12:10:23 PDT 2017 ON: 19.99 +20.0 20.05 -15.2 27.9 16.3 31.5 7 10 Alarm State:  0
Tue Sep 19 12:09:21 PDT 2017 ON: 20.00 +20.0 20.06 -15.7 27.2 16.8 31.4 7 9 Alarm State:  0
Tue Sep 19 12:08:20 PDT 2017 ON: 20.00 +20.0 20.06 -15.7 27.2 16.8 31.2 7 10 Alarm State:  0
Tue Sep 19 12:07:18 PDT 2017 ON: 20.00 +20.0 20.06 -15.5 27.5 16.6 31.4 7 9 Alarm State:  0
Tue Sep 19 12:06:17 PDT 2017 ON: 20.00 +20.0 20.05 -15.4 27.6 16.5 31.4 8 10 Alarm State:  0
Tue Sep 19 12:05:15 PDT 2017 ON: 20.00 +20.0 20.05 -15.5 27.5 16.6 31.4 7 10 Alarm State:  0
Tue Sep 19 12:04:14 PDT 2017 ON: 19.99 +20.0 20.04 -15.4 27.6 16.5 31.4 7 10 Alarm State:  0
Tue Sep 19 12:03:12 PDT 2017 ON: 19.99 +20.0 20.05 -15.3 27.7 16.5 31.5 7 10 Alarm State:  0
Tue Sep 19 12:02:11 PDT 2017 ON: 20.00 +20.0 20.06 -15.4 27.6 16.5 31.4 7 10 Alarm State:  0
Tue Sep 19 12:01:09 PDT 2017 ON: 19.99 +20.0 20.06 -15.5 27.4 16.7 31.4 7 9 Alarm State:  0
Tue Sep 19 12:00:08 PDT 2017 ON: 20.00 +20.0 20.04 -15.6 27.3 16.8 31.4 7 10 Alarm State:  0
Tue Sep 19 11:59:06 PDT 2017 ON: 20.01 +20.0 20.06 -15.7 27.2 16.8 31.3 7 9 Alarm State:  0
Tue Sep 19 11:58:05 PDT 2017 ON: 19.99 +20.0 20.05 -15.3 27.8 16.4 31.5 7 10 Alarm State:  0
Tue Sep 19 11:57:03 PDT 2017 ON: 19.99 +20.0 20.05 -15.3 27.7 16.5 31.5 7 10 Alarm State:  0
Tue Sep 19 11:56:02 PDT 2017 ON: 20.00 +20.0 20.06 -15.5 27.5 16.6 31.4 7 9 Alarm State:  0
Tue Sep 19 11:55:01 PDT 2017 ON: 19.99 +20.0 20.04 -15.3 27.8 16.4 31.5 7 10 Alarm State:  0
Tue Sep 19 11:53:59 PDT 2017 ON: 19.99 +20.0 20.04 -15.3 27.7 16.5 31.4 7 10 Alarm State:  0
Tue Sep 19 11:52:58 PDT 2017 ON: 20.00 +20.0 20.05 -15.5 27.4 16.7 31.5 7 9 Alarm State:  0
Tue Sep 19 11:51:56 PDT 2017 ON: 20.00 +20.0 20.05 -15.5 27.5 16.6 31.4 7 10 Alarm State:  0
Tue Sep 19 11:50:55 PDT 2017 ON: 20.00 +20.0 20.06 -15.6 27.3 16.8 31.3 7 10 Alarm State:  0
Tue Sep 19 11:49:53 PDT 2017 ON: 19.99 +20.0 20.05 -15.3 27.7 16.5 31.5 7 9 Alarm State:  0
Tue Sep 19 11:48:52 PDT 2017 ON: 20.00 +20.0 20.04 -15.2 27.9 16.3 31.5 7 10 Alarm State:  0
Tue Sep 19 11:47:50 PDT 2017 ON: 20.00 +20.0 20.05 -15.3 27.8 16.4 31.5 7 10 Alarm State:  0
Tue Sep 19 11:46:49 PDT 2017 ON: 19.99 +20.0 20.05 -15.5 27.4 16.7 31.4 8 10 Alarm State:  0
Tue Sep 19 11:45:47 PDT 2017 ON: 20.00 +20.0 20.05 -15.5 27.4 16.7 31.4 7 9 Alarm State:  0
Tue Sep 19 11:44:46 PDT 2017 ON: 20.00 +20.0 20.05 -15.4 27.6 16.5 31.5 7 10 Alarm State:  0
Tue Sep 19 11:43:44 PDT 2017 ON: 19.99 +20.0 20.05 -15.4 27.6 16.5 31.5 7 10 Alarm State:  0
Tue Sep 19 11:42:43 PDT 2017 ON: 20.00 +20.0 20.05 -15.5 27.4 16.7 31.4 7 9 Alarm State:  0
Tue Sep 19 11:41:41 PDT 2017 ON: 20.00 +20.0 20.05 -15.1 28.1 16.2 31.6 7 10 Alarm State:  0
Tue Sep 19 11:40:40 PDT 2017 ON: 19.99 +20.0 20.05 -15.5 27.4 16.7 31.3 7 10 Alarm State:  0
Tue Sep 19 11:39:38 PDT 2017 ON: 19.99 +20.0 20.05 -15.5 27.5 16.6 31.4 7 9 Alarm State:  0
Tue Sep 19 11:38:37 PDT 2017 ON: 20.00 +20.0 20.05 -15.9 26.9 17.0 31.2 8 9 Alarm State:  0
Tue Sep 19 11:37:35 PDT 2017 ON: 20.00 +20.0 20.05 -15.4 27.6 16.5 31.5 7 10 Alarm State:  0
Tue Sep 19 11:36:34 PDT 2017 ON: 20.00 +20.0 20.06 -15.3 27.8 16.4 31.5 7 10 Alarm State:  0
Tue Sep 19 11:35:32 PDT 2017 ON: 19.99 +20.0 20.06 -15.3 27.7 16.5 31.5 8 9 Alarm State:  0
Tue Sep 19 11:34:31 PDT 2017 ON: 20.00 +20.0 20.05 -15.4 27.6 16.5 31.5 7 10 Alarm State:  0
Tue Sep 19 11:33:29 PDT 2017 ON: 20.00 +20.0 20.06 -15.3 27.7 16.5 31.4 7 10 Alarm State:  0
Tue Sep 19 11:32:28 PDT 2017 ON: 19.99 +20.0 20.04 -15.2 27.9 16.3 31.5 7 10 Alarm State:  0
Tue Sep 19 11:31:26 PDT 2017 ON: 20.00 +20.0 20.05 -15.4 27.6 16.5 31.4 7 10 Alarm State:  0
Tue Sep 19 11:30:25 PDT 2017 ON: 19.99 +20.0 20.05 -15.4 27.6 16.5 31.4 7 10 Alarm State:  0
Tue Sep 19 11:29:23 PDT 2017 ON: 20.00 +20.0 20.05 -15.4 27.6 16.5 31.5 7 9 Alarm State:  0
Tue Sep 19 11:28:22 PDT 2017 ON: 20.00 +20.0 20.05 -15.4 27.6 16.5 31.4 7 10 Alarm State:  0
Tue Sep 19 11:27:20 PDT 2017 ON: 19.99 +20.0 20.05 -15.5 27.5 16.6 31.5 8 10 Alarm State:  0
Tue Sep 19 11:26:19 PDT 2017 ON: 19.99 +20.0 20.04 -15.5 27.5 16.6 31.4 7 10 Alarm State:  0
Tue Sep 19 11:25:17 PDT 2017 ON: 19.99 +20.0 20.05 -15.5 27.5 16.6 31.4 7 9 Alarm State:  0
Tue Sep 19 11:24:16 PDT 2017 ON: 20.00 +20.0 20.05 -15.5 27.5 16.6 31.3 7 10 Alarm State:  0
Tue Sep 19 11:23:14 PDT 2017 ON: 20.00 +20.0 20.06 -15.5 27.4 16.7 31.4 7 9 Alarm State:  0
Tue Sep 19 11:22:13 PDT 2017 ON: 20.00 +20.0 20.05 -15.3 27.7 16.5 31.5 7 10 Alarm State:  0
Tue Sep 19 11:21:11 PDT 2017 ON: 19.99 +20.0 20.06 -15.6 27.3 16.8 31.4 7 10 Alarm State:  0
Tue Sep 19 11:20:10 PDT 2017 ON: 19.98 +20.0 20.06 -15.6 27.3 16.8 31.4 7 9 Alarm State:  0
Tue Sep 19 11:19:08 PDT 2017 ON: 20.00 +20.0 20.05 -15.5 27.5 16.6 31.4 8 9 Alarm State:  0
Tue Sep 19 11:18:07 PDT 2017 ON: 20.00 +20.0 20.07 -15.7 27.1 16.9 31.3 7 9 Alarm State:  0
Tue Sep 19 11:17:05 PDT 2017 ON: 19.99 +20.0 20.05 -15.3 27.8 16.4 31.5 7 10 Alarm State:  0
Tue Sep 19 11:16:04 PDT 2017 ON: 19.99 +20.0 20.05 -15.6 27.3 16.8 31.3 7 10 Alarm State:  0
Tue Sep 19 11:15:02 PDT 2017 ON: 20.00 +20.0 20.05 -15.5 27.4 16.7 31.3 7 10 Alarm State:  0
Tue Sep 19 11:14:01 PDT 2017 ON: 19.99 +20.0 20.05 -15.6 27.3 16.8 31.4 8 10 Alarm State:  0
Tue Sep 19 11:12:59 PDT 2017 ON: 19.99 +20.0 20.03 -15.4 27.6 16.5 31.4 7 10 Alarm State:  0
Tue Sep 19 11:11:58 PDT 2017 ON: 20.00 +20.0 20.06 -15.5 27.4 16.7 31.3 7 9 Alarm State:  0
Tue Sep 19 11:10:56 PDT 2017 ON: 20.00 +20.0 20.06 -15.6 27.3 16.8 31.4 8 10 Alarm State:  0
Tue Sep 19 11:09:55 PDT 2017 ON: 19.99 +20.0 20.05 -15.3 27.8 16.4 31.5 7 10 Alarm State:  0
Tue Sep 19 11:08:53 PDT 2017 ON: 19.99 +20.0 20.05 -15.5 27.5 16.6 31.4 7 9 Alarm State:  0
Tue Sep 19 11:07:52 PDT 2017 ON: 19.99 +20.0 20.04 -15.3 27.8 16.4 31.5 7 10 Alarm State:  0
Tue Sep 19 11:06:50 PDT 2017 ON: 20.00 +20.0 20.06 -15.5 27.5 16.6 31.4 7 10 Alarm State:  0
Tue Sep 19 11:05:49 PDT 2017 ON: 19.99 +20.0 20.04 -15.5 27.5 16.6 31.4 8 10 Alarm State:  0
Tue Sep 19 11:04:48 PDT 2017 ON: 20.00 +20.0 20.04 -15.3 27.7 16.5 31.4 7 10 Alarm State:  0
Tue Sep 19 11:03:46 PDT 2017 ON: 20.00 +20.0 20.07 -15.3 27.7 16.5 31.4 7 9 Alarm State:  0
Tue Sep 19 11:02:45 PDT 2017 ON: 20.00 +20.0 20.07 -15.5 27.5 16.6 31.4 7 10 Alarm State:  0
Tue Sep 19 11:01:43 PDT 2017 ON: 19.99 +20.0 20.05 -15.3 27.7 16.5 31.5 7 10 Alarm State:  0
Tue Sep 19 11:00:42 PDT 2017 ON: 19.99 +20.0 20.05 -15.4 27.6 16.5 31.4 7 9 Alarm State:  0
Tue Sep 19 10:59:40 PDT 2017 ON: 20.00 +20.0 20.05 -15.4 27.6 16.5 31.5 7 10 Alarm State:  0
Tue Sep 19 10:58:39 PDT 2017 ON: 19.99 +20.0 20.04 -15.3 27.7 16.5 31.5 7 11 Alarm State:  0
Tue Sep 19 10:57:37 PDT 2017 ON: 19.99 +20.0 20.05 -15.3 27.7 16.5 31.5 8 10 Alarm State:  0
Tue Sep 19 10:56:36 PDT 2017 ON: 20.00 +20.0 20.05 -15.4 27.6 16.5 31.4 7 10 Alarm State:  0
Tue Sep 19 10:55:34 PDT 2017 ON: 19.99 +20.0 20.05 -15.4 27.6 16.5 31.5 7 10 Alarm State:  0
Tue Sep 19 10:54:33 PDT 2017 ON: 20.00 +20.0 20.04 -15.4 27.6 16.5 31.5 7 10 Alarm State:  0
Tue Sep 19 10:53:31 PDT 2017 ON: 20.00 +20.0 20.04 -15.3 27.8 16.4 31.4 7 10 Alarm State:  0
Tue Sep 19 10:52:30 PDT 2017 ON: 19.99 +20.0 20.05 -15.3 27.8 16.4 31.5 7 10 Alarm State:  0
Tue Sep 19 10:51:28 PDT 2017 ON: 19.99 +20.0 20.06 -15.5 27.4 16.7 31.4 7 9 Alarm State:  0
Tue Sep 19 10:50:27 PDT 2017 ON: 20.00 +20.0 20.05 -15.5 27.5 16.6 31.4 7 10 Alarm State:  0
Tue Sep 19 10:49:25 PDT 2017 ON: 19.99 +20.0 20.07 -15.5 27.4 16.7 31.4 7 9 Alarm State:  0
Tue Sep 19 10:48:24 PDT 2017 ON: 19.99 +20.0 20.03 -15.0 28.2 16.1 31.6 7 11 Alarm State:  0
Tue Sep 19 10:47:22 PDT 2017 ON: 19.99 +20.0 20.04 -15.2 27.9 16.3 31.5 7 10 Alarm State:  0
Tue Sep 19 10:46:21 PDT 2017 ON: 19.99 +20.0 20.05 -15.3 27.7 16.5 31.5 8 10 Alarm State:  0
Tue Sep 19 10:45:19 PDT 2017 ON: 19.99 +20.0 20.05 -15.4 27.6 16.5 31.4 7 10 Alarm State:  0
Tue Sep 19 10:44:18 PDT 2017 ON: 20.00 +20.0 20.06 -15.5 27.4 16.7 31.4 7 9 Alarm State:  0
Tue Sep 19 10:43:16 PDT 2017 ON: 19.99 +20.0 20.05 -15.5 27.4 16.7 31.4 8 9 Alarm State:  0
Tue Sep 19 10:42:15 PDT 2017 ON: 20.00 +20.0 20.05 -15.2 27.9 16.3 31.5 7 10 Alarm State:  0
Tue Sep 19 10:41:13 PDT 2017 ON: 19.99 +20.0 20.06 -15.5 27.4 16.7 31.4 7 9 Alarm State:  0
Tue Sep 19 10:40:12 PDT 2017 ON: 20.00 +20.0 20.05 -15.5 27.5 16.6 31.4 7 10 Alarm State:  0
Tue Sep 19 10:39:10 PDT 2017 ON: 19.99 +20.0 20.05 -15.5 27.5 16.6 31.4 7 10 Alarm State:  0
Tue Sep 19 10:38:09 PDT 2017 ON: 19.99 +20.0 20.04 -15.4 27.6 16.5 31.5 7 10 Alarm State:  0
Tue Sep 19 10:37:07 PDT 2017 ON: 20.00 +20.0 20.05 -15.4 27.6 16.5 31.4 7 10 Alarm State:  0
Tue Sep 19 10:36:06 PDT 2017 ON: 20.00 +20.0 20.06 -15.6 27.3 16.8 31.3 7 10 Alarm State:  0
Tue Sep 19 10:35:04 PDT 2017 ON: 19.99 +20.0 20.05 -15.5 27.5 16.6 31.4 8 10 Alarm State:  0
Tue Sep 19 10:34:03 PDT 2017 ON: 20.00 +20.0 20.05 -15.3 27.8 16.4 31.5 7 9 Alarm State:  0
Tue Sep 19 10:33:01 PDT 2017 ON: 20.00 +20.0 20.05 -15.5 27.5 16.6 31.4 7 10 Alarm State:  0
Tue Sep 19 10:32:00 PDT 2017 ON: 19.99 +20.0 20.04 -15.3 27.7 16.5 31.4 7 10 Alarm State:  0
Tue Sep 19 10:30:58 PDT 2017 ON: 20.00 +20.0 20.07 -15.6 27.3 16.8 31.4 7 9 Alarm State:  0
Tue Sep 19 10:29:57 PDT 2017 ON: 19.99 +20.0 20.04 -15.3 27.7 16.5 31.5 7 10 Alarm State:  0
Tue Sep 19 10:28:55 PDT 2017 ON: 20.00 +20.0 20.05 -15.3 27.8 16.4 31.5 7 9 Alarm State:  0
Tue Sep 19 10:27:54 PDT 2017 ON: 20.00 +20.0 20.06 -15.4 27.6 16.5 31.4 7 10 Alarm State:  0
Tue Sep 19 10:26:52 PDT 2017 ON: 19.99 +20.0 20.06 -15.7 27.2 16.8 31.3 8 9 Alarm State:  0
Tue Sep 19 10:25:51 PDT 2017 ON: 20.00 +20.0 20.05 -15.6 27.3 16.8 31.4 7 10 Alarm State:  0
Tue Sep 19 10:24:49 PDT 2017 ON: 20.00 +20.0 20.05 -15.4 27.6 16.5 31.4 7 10 Alarm State:  0
Tue Sep 19 10:23:48 PDT 2017 ON: 19.99 +20.0 20.05 -15.4 27.6 16.5 31.5 7 10 Alarm State:  0
Tue Sep 19 10:22:46 PDT 2017 ON: 19.99 +20.0 20.04 -15.5 27.5 16.6 31.4 7 10 Alarm State:  0
Tue Sep 19 10:21:45 PDT 2017 ON: 20.00 +20.0 20.07 -15.7 27.2 16.8 31.4 8 9 Alarm State:  0
Tue Sep 19 10:20:43 PDT 2017 ON: 20.00 +20.0 20.05 -15.3 27.7 16.5 31.5 7 9 Alarm State:  0
Tue Sep 19 10:19:42 PDT 2017 ON: 20.00 +20.0 20.07 -15.4 27.6 16.5 31.4 7 9 Alarm State:  0
Tue Sep 19 10:18:41 PDT 2017 ON: 19.99 +20.0 20.06 -15.6 27.3 16.8 31.3 8 9 Alarm State:  0
Tue Sep 19 10:17:39 PDT 2017 ON: 20.00 +20.0 20.06 -15.6 27.3 16.8 31.4 7 9 Alarm State:  0
Tue Sep 19 10:16:38 PDT 2017 ON: 20.00 +20.0 20.06 -15.5 27.4 16.7 31.5 7 9 Alarm State:  0
Tue Sep 19 10:15:36 PDT 2017 ON: 19.99 +20.0 20.07 -15.6 27.3 16.8 31.4 7 9 Alarm State:  0
Tue Sep 19 10:14:35 PDT 2017 ON: 19.99 +20.0 20.04 -15.4 27.6 16.5 31.4 7 10 Alarm State:  0
Tue Sep 19 10:13:33 PDT 2017 ON: 20.00 +20.0 20.06 -15.6 27.3 16.8 31.4 7 9 Alarm State:  0
Tue Sep 19 10:12:32 PDT 2017 ON: 19.99 +20.0 20.06 -15.5 27.5 16.6 31.4 7 10 Alarm State:  0
Tue Sep 19 10:11:30 PDT 2017 ON: 19.99 +20.0 20.05 -15.5 27.4 16.7 31.4 7 9 Alarm State:  0
Tue Sep 19 10:10:29 PDT 2017 ON: 20.00 +20.0 20.06 -15.7 27.1 16.9 31.3 8 9 Alarm State:  0
Tue Sep 19 10:09:27 PDT 2017 ON: 20.00 +20.0 20.06 -15.3 27.7 16.5 31.4 7 9 Alarm State:  0
Tue Sep 19 10:08:26 PDT 2017 ON: 20.00 +20.0 20.04 -15.4 27.6 16.5 31.4 7 10 Alarm State:  0
Tue Sep 19 10:07:24 PDT 2017 ON: 20.00 +20.0 20.05 -15.4 27.6 16.5 31.4 7 10 Alarm State:  0
Tue Sep 19 10:06:23 PDT 2017 ON: 19.99 +20.0 20.04 -15.3 27.8 16.4 31.5 7 10 Alarm State:  0
Tue Sep 19 10:05:21 PDT 2017 ON: 20.00 +20.0 20.05 -15.4 27.6 16.5 31.4 7 10 Alarm State:  0
Tue Sep 19 10:04:20 PDT 2017 ON: 19.99 +20.0 20.06 -15.6 27.3 16.8 31.4 7 9 Alarm State:  0
Tue Sep 19 10:03:18 PDT 2017 ON: 20.00 +20.0 20.06 -15.5 27.4 16.7 31.4 7 9 Alarm State:  0
Tue Sep 19 10:02:17 PDT 2017 ON: 19.99 +20.0 20.05 -15.3 27.7 16.5 31.5 7 10 Alarm State:  0
Tue Sep 19 10:01:15 PDT 2017 ON: 20.00 +20.0 20.05 -15.4 27.6 16.5 31.5 7 10 Alarm State:  0
Tue Sep 19 10:00:14 PDT 2017 ON: 19.99 +20.0 20.04 -15.6 27.3 16.8 31.4 7 10 Alarm State:  0
Tue Sep 19 09:59:12 PDT 2017 ON: 20.00 +20.0 20.05 -15.5 27.4 16.7 31.4 8 10 Alarm State:  0
Tue Sep 19 09:58:11 PDT 2017 ON: 19.99 +20.0 20.05 -15.3 27.7 16.5 31.5 7 10 Alarm State:  0
Tue Sep 19 09:57:09 PDT 2017 ON: 19.99 +20.0 20.04 -15.3 27.7 16.5 31.5 7 10 Alarm State:  0
Tue Sep 19 09:56:08 PDT 2017 ON: 20.00 +20.0 20.05 -15.4 27.6 16.5 31.4 7 9 Alarm State:  0
Tue Sep 19 09:55:06 PDT 2017 ON: 20.00 +20.0 20.04 -15.1 28.0 16.3 31.5 7 11 Alarm State:  0
Tue Sep 19 09:54:05 PDT 2017 ON: 19.99 +20.0 20.05 -15.3 27.7 16.5 31.5 7 10 Alarm State:  0
Tue Sep 19 09:53:03 PDT 2017 ON: 20.00 +20.0 20.05 -15.4 27.6 16.5 31.4 7 9 Alarm State:  0
Tue Sep 19 09:52:02 PDT 2017 ON: 20.00 +20.0 20.07 -15.5 27.5 16.6 31.4 7 9 Alarm State:  0
Tue Sep 19 09:51:00 PDT 2017 ON: 19.99 +20.0 20.05 -15.5 27.5 16.6 31.4 7 10 Alarm State:  0
Tue Sep 19 09:49:59 PDT 2017 ON: 20.00 +20.0 20.06 -15.4 27.6 16.5 31.4 7 9 Alarm State:  0
Tue Sep 19 09:48:57 PDT 2017 ON: 20.00 +20.0 20.05 -15.5 27.4 16.7 31.4 7 10 Alarm State:  0
Tue Sep 19 09:47:56 PDT 2017 ON: 19.99 +20.0 20.06 -15.8 27.0 16.9 31.3 7 9 Alarm State:  0
Tue Sep 19 09:46:54 PDT 2017 ON: 20.00 +20.0 20.05 -15.7 27.2 16.8 31.4 7 9 Alarm State:  0
Tue Sep 19 09:45:53 PDT 2017 ON: 19.99 +20.0 20.07 -15.7 27.1 16.9 31.3 8 9 Alarm State:  0
Tue Sep 19 09:44:51 PDT 2017 ON: 19.99 +20.0 20.05 -15.5 27.5 16.6 31.5 7 9 Alarm State:  0
Tue Sep 19 09:43:50 PDT 2017 ON: 19.99 +20.0 20.04 -15.6 27.3 16.8 31.4 7 10 Alarm State:  0
Tue Sep 19 09:42:48 PDT 2017 ON: 19.99 +20.0 20.04 -15.3 27.8 16.4 31.5 7 10 Alarm State:  0
Tue Sep 19 09:41:47 PDT 2017 ON: 19.99 +20.0 20.05 -15.3 27.7 16.5 31.5 7 10 Alarm State:  0
Tue Sep 19 09:40:45 PDT 2017 ON: 19.99 +20.0 20.03 -15.2 27.9 16.3 31.5 7 11 Alarm State:  0
Tue Sep 19 09:39:44 PDT 2017 ON: 20.00 +20.0 20.05 -15.4 27.6 16.5 31.3 7 10 Alarm State:  0
Tue Sep 19 09:38:42 PDT 2017 ON: 19.99 +20.0 20.05 -15.3 27.8 16.4 31.5 7 10 Alarm State:  0
Tue Sep 19 09:37:41 PDT 2017 ON: 20.00 +20.0 20.06 -15.6 27.3 16.8 31.4 8 9 Alarm State:  0
Tue Sep 19 09:36:39 PDT 2017 ON: 20.00 +20.0 20.06 -15.4 27.6 16.5 31.4 7 10 Alarm State:  0
Tue Sep 19 09:35:38 PDT 2017 ON: 19.99 +20.0 20.04 -15.2 27.9 16.3 31.5 7 11 Alarm State:  0
Tue Sep 19 09:34:36 PDT 2017 ON: 19.99 +20.0 20.05 -15.5 27.5 16.6 31.5 8 9 Alarm State:  0
Tue Sep 19 09:33:35 PDT 2017 ON: 20.00 +20.0 20.06 -15.3 27.8 16.4 31.4 7 9 Alarm State:  0
Tue Sep 19 09:32:33 PDT 2017 ON: 19.99 +20.0 20.05 -15.3 27.8 16.4 31.5 7 10 Alarm State:  0
Tue Sep 19 09:31:32 PDT 2017 ON: 19.99 +20.0 20.05 -15.6 27.3 16.8 31.3 7 10 Alarm State:  0
Tue Sep 19 09:30:21 PDT 2017  Alarm State: 0
Tue Sep 19 09:30:21 PDT 2017 Chiller did not report ON, got this reading: 
Tue Sep 19 09:29:19 PDT 2017 ON: 20.00 +20.0 20.05 -15.3 27.7 16.5 31.4 7 10 Alarm State:  0
Tue Sep 19 09:28:18 PDT 2017 ON: 19.99 +20.0 20.06 -15.3 27.8 16.4 31.5 7 10 Alarm State:  0
Tue Sep 19 09:27:16 PDT 2017 ON: 19.99 +20.0 20.06 -15.6 27.3 16.8 31.4 8 9 Alarm State:  0
Tue Sep 19 09:26:14 PDT 2017 ON: 20.00 +20.0 20.04 -15.3 27.8 16.4 31.5 7 10 Alarm State:  0
Tue Sep 19 09:25:13 PDT 2017 ON: 20.00 +20.0 20.05 -15.4 27.6 16.5 31.5 7 10 Alarm State:  0
Tue Sep 19 09:24:11 PDT 2017 ON: 19.99 +20.0 20.05 -15.4 27.6 16.5 31.4 7 10 Alarm State:  0
Tue Sep 19 09:23:10 PDT 2017 ON: 20.00 +20.0 20.05 -15.1 28.1 16.2 31.6 7 9 Alarm State:  0
Tue Sep 19 09:22:08 PDT 2017 ON: 20.00 +20.0 20.07 -15.5 27.4 16.7 31.4 8 9 Alarm State:  0
Tue Sep 19 09:21:07 PDT 2017 ON: 19.99 +20.0 20.05 -15.3 27.7 16.5 31.5 7 10 Alarm State:  0
Tue Sep 19 09:20:05 PDT 2017 ON: 20.01 +20.0 20.07 -15.5 27.4 16.7 31.4 7 8 Alarm State:  0
Tue Sep 19 09:19:04 PDT 2017 ON: 20.00 +20.0 20.06 -15.5 27.5 16.6 31.4 8 9 Alarm State:  0
Tue Sep 19 09:18:02 PDT 2017 ON: 20.00 +20.0 20.05 -15.4 27.6 16.5 31.5 7 10 Alarm State:  0
Tue Sep 19 09:17:01 PDT 2017 ON: 20.00 +20.0 20.05 -15.4 27.6 16.5 31.5 7 9 Alarm State:  0
Tue Sep 19 09:16:00 PDT 2017 ON: 20.00 +20.0 20.06 -15.5 27.4 16.7 31.4 7 9 Alarm State:  0
Tue Sep 19 09:14:58 PDT 2017 ON: 20.00 +20.0 20.05 -15.3 27.8 16.4 31.5 7 10 Alarm State:  0
Tue Sep 19 09:13:56 PDT 2017 ON: 19.99 +20.0 20.05 -15.5 27.4 16.7 31.4 8 9 Alarm State:  0
Tue Sep 19 09:12:55 PDT 2017 ON: 20.00 +20.0 20.05 -15.5 27.4 16.7 31.4 7 10 Alarm State:  0
Tue Sep 19 09:11:53 PDT 2017 ON: 19.99 +20.0 20.05 -15.5 27.4 16.7 31.4 7 10 Alarm State:  0
Tue Sep 19 09:10:52 PDT 2017 ON: 19.99 +20.0 20.05 -15.4 27.6 16.5 31.4 7 9 Alarm State:  0
Tue Sep 19 09:09:50 PDT 2017 ON: 19.99 +20.0 20.05 -15.3 27.7 16.5 31.5 7 10 Alarm State:  0
Tue Sep 19 09:08:49 PDT 2017 ON: 20.00 +20.0 20.05 -15.4 27.6 16.5 31.4 7 10 Alarm State:  0
Tue Sep 19 09:07:47 PDT 2017 ON: 19.99 +20.0 20.05 -15.7 27.2 16.8 31.4 7 10 Alarm State:  0
Tue Sep 19 09:06:46 PDT 2017 ON: 20.00 +20.0 20.05 -15.6 27.3 16.8 31.4 7 9 Alarm State:  0
Tue Sep 19 09:05:44 PDT 2017 ON: 20.00 +20.0 20.06 -15.5 27.4 16.7 31.4 8 9 Alarm State:  0
Tue Sep 19 09:04:43 PDT 2017 ON: 19.99 +20.0 20.04 -15.2 27.9 16.3 31.5 7 10 Alarm State:  0
Tue Sep 19 09:03:41 PDT 2017 ON: 20.00 +20.0 20.06 -15.3 27.7 16.5 31.5 7 9 Alarm State:  0
Tue Sep 19 09:02:40 PDT 2017 ON: 19.99 +20.0 20.04 -15.2 27.9 16.3 31.6 7 10 Alarm State:  0
Tue Sep 19 09:01:38 PDT 2017 ON: 20.00 +20.0 20.07 -15.5 27.4 16.7 31.4 7 9 Alarm State:  0
Tue Sep 19 09:00:37 PDT 2017 ON: 19.99 +20.0 20.05 -15.3 27.7 16.5 31.5 7 10 Alarm State:  0
Tue Sep 19 08:59:35 PDT 2017 ON: 19.99 +20.0 20.05 -15.4 27.6 16.5 31.5 7 10 Alarm State:  0
Tue Sep 19 08:58:34 PDT 2017 ON: 20.00 +20.0 20.06 -15.6 27.3 16.8 31.4 7 9 Alarm State:  0
Tue Sep 19 08:57:32 PDT 2017 ON: 20.00 +20.0 20.05 -15.5 27.5 16.6 31.3 8 10 Alarm State:  0
Tue Sep 19 08:56:31 PDT 2017 ON: 19.99 +20.0 20.05 -15.5 27.5 16.6 31.5 7 9 Alarm State:  0
Tue Sep 19 08:55:29 PDT 2017 ON: 19.99 +20.0 20.05 -15.5 27.4 16.7 31.4 7 10 Alarm State:  0
Tue Sep 19 08:54:28 PDT 2017 ON: 20.00 +20.0 20.06 -15.5 27.5 16.6 31.4 7 9 Alarm State:  0
Tue Sep 19 08:53:26 PDT 2017 ON: 19.99 +20.0 20.05 -15.5 27.4 16.7 31.5 7 10 Alarm State:  0
Tue Sep 19 08:52:25 PDT 2017 ON: 19.99 +20.0 20.05 -15.3 27.7 16.5 31.5 8 9 Alarm State:  0
Tue Sep 19 08:51:23 PDT 2017 ON: 20.00 +20.0 20.06 -15.3 27.7 16.5 31.4 7 9 Alarm State:  0
Tue Sep 19 08:50:22 PDT 2017 ON: 19.99 +20.0 20.04 -15.1 28.0 16.3 31.5 7 11 Alarm State:  0
Tue Sep 19 08:49:20 PDT 2017 ON: 19.99 +20.0 20.05 -15.5 27.4 16.7 31.5 8 10 Alarm State:  0
Tue Sep 19 08:48:19 PDT 2017 ON: 20.00 +20.0 20.05 -15.6 27.3 16.8 31.4 7 9 Alarm State:  0
Tue Sep 19 08:47:17 PDT 2017 ON: 19.99 +20.0 20.05 -15.7 27.2 16.8 31.4 7 10 Alarm State:  0
Tue Sep 19 08:46:16 PDT 2017 ON: 19.99 +20.0 20.05 -15.6 27.3 16.8 31.4 7 10 Alarm State:  0
Tue Sep 19 08:45:14 PDT 2017 ON: 20.00 +20.0 20.06 -15.5 27.5 16.6 31.4 7 9 Alarm State:  0
Tue Sep 19 08:44:13 PDT 2017 ON: 19.99 +20.0 20.05 -15.5 27.5 16.6 31.3 7 10 Alarm State:  0
Tue Sep 19 08:43:11 PDT 2017 ON: 19.99 +20.0 20.04 -15.5 27.5 16.6 31.4 7 10 Alarm State:  0
Tue Sep 19 08:42:10 PDT 2017 ON: 20.00 +20.0 20.05 -15.4 27.6 16.5 31.5 7 10 Alarm State:  0
Tue Sep 19 08:41:08 PDT 2017 ON: 20.00 +20.0 20.05 -15.5 27.5 16.6 31.4 8 10 Alarm State:  0
Tue Sep 19 08:40:07 PDT 2017 ON: 19.99 +20.0 20.04 -15.3 27.8 16.4 31.4 7 10 Alarm State:  0
Tue Sep 19 08:39:05 PDT 2017 ON: 20.00 +20.0 20.05 -15.5 27.5 16.6 31.4 7 9 Alarm State:  0
Tue Sep 19 08:38:04 PDT 2017 ON: 20.00 +20.0 20.05 -15.1 28.0 16.3 31.6 7 10 Alarm State:  0
Tue Sep 19 08:37:03 PDT 2017 ON: 19.99 +20.0 20.05 -15.4 27.6 16.5 31.5 7 10 Alarm State:  0
Tue Sep 19 08:36:01 PDT 2017 ON: 19.99 +20.0 20.04 -15.3 27.8 16.4 31.4 7 10 Alarm State:  0
Tue Sep 19 08:35:00 PDT 2017 ON: 20.00 +20.0 20.04 -15.4 27.6 16.5 31.4 7 10 Alarm State:  0
Tue Sep 19 08:33:58 PDT 2017 ON: 19.99 +20.0 20.05 -15.3 27.8 16.4 31.5 7 10 Alarm State:  0
Tue Sep 19 08:32:57 PDT 2017 ON: 19.99 +20.0 20.05 -15.6 27.3 16.8 31.4 8 9 Alarm State:  0
Tue Sep 19 08:31:55 PDT 2017 ON: 20.00 +20.0 20.05 -15.5 27.5 16.6 31.4 7 10 Alarm State:  0
Tue Sep 19 08:30:44 PDT 2017  Alarm State: 0
Tue Sep 19 08:30:44 PDT 2017 Chiller did not report ON, got this reading: 
Tue Sep 19 08:29:42 PDT 2017 ON: 19.99 +20.0 20.05 -15.5 27.4 16.7 31.5 7 9 Alarm State:  0
Tue Sep 19 08:28:41 PDT 2017 ON: 19.99 +20.0 20.05 -15.3 27.7 16.5 31.5 7 10 Alarm State:  0
Tue Sep 19 08:27:39 PDT 2017 ON: 20.00 +20.0 20.06 -15.5 27.4 16.7 31.4 7 9 Alarm State:  0
Tue Sep 19 08:26:38 PDT 2017 ON: 19.99 +20.0 20.06 -15.7 27.1 16.9 31.2 7 9 Alarm State:  0
Tue Sep 19 08:25:36 PDT 2017 ON: 19.99 +20.0 20.05 -15.4 27.6 16.5 31.5 7 9 Alarm State:  0
Tue Sep 19 08:24:35 PDT 2017 ON: 20.00 +20.0 20.06 -15.4 27.6 16.5 31.4 7 9 Alarm State:  0
Tue Sep 19 08:23:33 PDT 2017 ON: 19.99 +20.0 20.05 -15.6 27.3 16.8 31.4 7 10 Alarm State:  0
Tue Sep 19 08:22:32 PDT 2017 ON: 19.99 +20.0 20.05 -15.5 27.5 16.6 31.5 7 10 Alarm State:  0
Tue Sep 19 08:21:30 PDT 2017 ON: 20.01 +20.0 20.06 -15.4 27.6 16.5 31.4 7 9 Alarm State:  0
Tue Sep 19 08:20:29 PDT 2017 ON: 20.00 +20.0 20.06 -15.3 27.7 16.5 31.4 7 10 Alarm State:  0
Tue Sep 19 08:19:27 PDT 2017 ON: 19.99 +20.0 20.05 -15.3 27.8 16.4 31.5 7 10 Alarm State:  0
Tue Sep 19 08:18:26 PDT 2017 ON: 20.00 +20.0 20.05 -15.7 27.2 16.8 31.4 7 9 Alarm State:  0
Tue Sep 19 08:17:24 PDT 2017 ON: 20.00 +20.0 20.07 -15.6 27.3 16.8 31.4 7 9 Alarm State:  0
Tue Sep 19 08:16:23 PDT 2017 ON: 19.99 +20.0 20.05 -15.4 27.6 16.5 31.4 7 10 Alarm State:  0
Tue Sep 19 08:15:21 PDT 2017 ON: 19.99 +20.0 20.04 -15.4 27.6 16.5 31.5 7 10 Alarm State:  0
Tue Sep 19 08:14:20 PDT 2017 ON: 20.00 +20.0 20.07 -15.7 27.1 16.9 31.3 7 9 Alarm State:  0
Tue Sep 19 08:13:18 PDT 2017 ON: 19.99 +20.0 20.05 -15.5 27.5 16.6 31.4 7 10 Alarm State:  0
Tue Sep 19 08:12:17 PDT 2017 ON: 20.00 +20.0 20.05 -15.2 27.9 16.3 31.5 8 10 Alarm State:  0
Tue Sep 19 08:11:15 PDT 2017 ON: 20.00 +20.0 20.06 -15.5 27.4 16.7 31.3 7 9 Alarm State:  0
Tue Sep 19 08:10:14 PDT 2017 ON: 20.00 +20.0 20.04 -15.4 27.6 16.5 31.4 7 10 Alarm State:  0
Tue Sep 19 08:09:12 PDT 2017 ON: 19.99 +20.0 20.06 -15.6 27.3 16.8 31.4 8 10 Alarm State:  0
Tue Sep 19 08:08:11 PDT 2017 ON: 20.00 +20.0 20.04 -15.4 27.6 16.5 31.4 7 10 Alarm State:  0
Tue Sep 19 08:07:09 PDT 2017 ON: 20.00 +20.0 20.05 -15.5 27.4 16.7 31.4 7 10 Alarm State:  0
Tue Sep 19 08:06:08 PDT 2017 ON: 19.99 +20.0 20.04 -15.3 27.8 16.4 31.5 7 10 Alarm State:  0
Tue Sep 19 08:05:06 PDT 2017 ON: 19.99 +20.0 20.05 -15.6 27.3 16.8 31.4 7 10 Alarm State:  0
Tue Sep 19 08:04:05 PDT 2017 ON: 20.00 +20.0 20.04 -15.3 27.8 16.4 31.5 7 10 Alarm State:  0
Tue Sep 19 08:03:03 PDT 2017 ON: 20.00 +20.0 20.05 -15.3 27.7 16.5 31.4 7 10 Alarm State:  0
Tue Sep 19 08:02:02 PDT 2017 ON: 20.00 +20.0 20.07 -15.6 27.3 16.8 31.3 7 9 Alarm State:  0
Tue Sep 19 08:01:00 PDT 2017 ON: 19.99 +20.0 20.05 -15.3 27.7 16.5 31.4 7 9 Alarm State:  0
Tue Sep 19 07:59:59 PDT 2017 ON: 20.00 +20.0 20.07 -15.6 27.3 16.8 31.3 7 9 Alarm State:  0
Tue Sep 19 07:58:57 PDT 2017 ON: 20.01 +20.0 20.07 -15.5 27.4 16.7 31.3 7 9 Alarm State:  0
Tue Sep 19 07:57:56 PDT 2017 ON: 19.99 +20.0 20.06 -15.4 27.6 16.5 31.4 7 10 Alarm State:  0
Tue Sep 19 07:56:54 PDT 2017 ON: 19.99 +20.0 20.05 -15.5 27.4 16.7 31.4 7 10 Alarm State:  0
Tue Sep 19 07:55:53 PDT 2017 ON: 20.00 +20.0 20.05 -15.5 27.4 16.7 31.4 7 9 Alarm State:  0
Tue Sep 19 07:54:51 PDT 2017 ON: 19.99 +20.0 20.05 -15.4 27.6 16.5 31.5 7 10 Alarm State:  0
Tue Sep 19 07:53:50 PDT 2017 ON: 19.99 +20.0 20.05 -15.5 27.5 16.6 31.4 7 10 Alarm State:  0
Tue Sep 19 07:52:48 PDT 2017 ON: 20.00 +20.0 20.07 -15.7 27.2 16.8 31.3 8 8 Alarm State:  0
Tue Sep 19 07:51:47 PDT 2017 ON: 19.99 +20.0 20.05 -15.5 27.5 16.6 31.4 7 10 Alarm State:  0
Tue Sep 19 07:50:45 PDT 2017 ON: 19.99 +20.0 20.05 -15.5 27.5 16.6 31.4 7 10 Alarm State:  0
Tue Sep 19 07:49:44 PDT 2017 ON: 20.00 +20.0 20.05 -15.1 28.1 16.2 31.5 7 10 Alarm State:  0
Tue Sep 19 07:48:42 PDT 2017 ON: 19.99 +20.0 20.05 -15.4 27.6 16.5 31.4 7 10 Alarm State:  0
Tue Sep 19 07:47:41 PDT 2017 ON: 19.99 +20.0 20.06 -15.5 27.5 16.6 31.5 7 9 Alarm State:  0
Tue Sep 19 07:46:39 PDT 2017 ON: 20.00 +20.0 20.06 -15.3 27.7 16.5 31.4 7 10 Alarm State:  0
Tue Sep 19 07:45:38 PDT 2017 ON: 19.99 +20.0 20.03 -15.1 28.1 16.2 31.5 7 11 Alarm State:  0
Tue Sep 19 07:44:36 PDT 2017 ON: 20.00 +20.0 20.06 -15.6 27.3 16.8 31.4 8 9 Alarm State:  0
Tue Sep 19 07:43:35 PDT 2017 ON: 19.99 +20.0 20.06 -15.5 27.5 16.6 31.4 7 10 Alarm State:  0
Tue Sep 19 07:42:33 PDT 2017 ON: 19.99 +20.0 20.05 -15.5 27.4 16.7 31.4 7 10 Alarm State:  0
Tue Sep 19 07:41:32 PDT 2017 ON: 20.00 +20.0 20.05 -15.5 27.4 16.7 31.3 8 10 Alarm State:  0
Tue Sep 19 07:40:30 PDT 2017 ON: 19.99 +20.0 20.06 -15.3 27.7 16.5 31.5 7 10 Alarm State:  0
Tue Sep 19 07:39:29 PDT 2017 ON: 19.99 +20.0 20.04 -15.4 27.6 16.5 31.5 7 10 Alarm State:  0
Tue Sep 19 07:38:27 PDT 2017 ON: 20.00 +20.0 20.05 -15.1 28.0 16.3 31.5 7 10 Alarm State:  0
Tue Sep 19 07:37:26 PDT 2017 ON: 19.99 +20.0 20.05 -15.5 27.5 16.6 31.5 7 10 Alarm State:  0
Tue Sep 19 07:36:24 PDT 2017 ON: 20.00 +20.0 20.07 -15.5 27.4 16.7 31.4 7 9 Alarm State:  0
Tue Sep 19 07:35:23 PDT 2017 ON: 19.99 +20.0 20.05 -15.4 27.6 16.5 31.4 7 10 Alarm State:  0
Tue Sep 19 07:34:21 PDT 2017 ON: 19.99 +20.0 20.04 -15.3 27.7 16.5 31.5 7 10 Alarm State:  0
Tue Sep 19 07:33:20 PDT 2017 ON: 20.00 +20.0 20.05 -15.3 27.8 16.4 31.5 7 10 Alarm State:  0
Tue Sep 19 07:32:18 PDT 2017 ON: 19.99 +20.0 20.04 -15.3 27.8 16.4 31.5 7 10 Alarm State:  0
Tue Sep 19 07:31:17 PDT 2017 ON: 19.99 +20.0 20.05 -15.7 27.1 16.9 31.3 7 10 Alarm State:  0
Tue Sep 19 07:30:15 PDT 2017 ON: 19.99 +20.0 20.05 -15.3 27.7 16.5 31.5 7 9 Alarm State:  0
Tue Sep 19 07:29:14 PDT 2017 ON: 20.00 +20.0 20.07 -15.3 27.8 16.4 31.5 7 9 Alarm State:  0
Tue Sep 19 07:28:12 PDT 2017 ON: 19.99 +20.0 20.05 -15.3 27.8 16.4 31.5 7 10 Alarm State:  0
Tue Sep 19 07:27:11 PDT 2017 ON: 20.00 +20.0 20.04 -15.4 27.6 16.5 31.4 7 10 Alarm State:  0
Tue Sep 19 07:26:09 PDT 2017 ON: 20.00 +20.0 20.04 -15.4 27.6 16.5 31.4 7 10 Alarm State:  0
Tue Sep 19 07:25:08 PDT 2017 ON: 19.99 +20.0 20.05 -15.6 27.3 16.8 31.4 7 9 Alarm State:  0
Tue Sep 19 07:24:07 PDT 2017 ON: 20.00 +20.0 20.05 -15.5 27.4 16.7 31.3 7 10 Alarm State:  0
Tue Sep 19 07:23:05 PDT 2017 ON: 19.99 +20.0 20.04 -15.1 28.0 16.3 31.6 7 10 Alarm State:  0
Tue Sep 19 07:22:04 PDT 2017 ON: 19.99 +20.0 20.05 -15.3 27.7 16.5 31.4 7 10 Alarm State:  0
Tue Sep 19 07:21:02 PDT 2017 ON: 20.00 +20.0 20.05 -15.4 27.6 16.5 31.4 7 10 Alarm State:  0
Tue Sep 19 07:20:01 PDT 2017 ON: 20.00 +20.0 20.06 -15.6 27.3 16.8 31.4 8 10 Alarm State:  0
Tue Sep 19 07:18:59 PDT 2017 ON: 19.99 +20.0 20.05 -15.7 27.2 16.8 31.3 7 10 Alarm State:  0
Tue Sep 19 07:17:58 PDT 2017 ON: 20.00 +20.0 20.04 -15.1 28.0 16.3 31.5 7 10 Alarm State:  0
Tue Sep 19 07:16:56 PDT 2017 ON: 20.00 +20.0 20.05 -15.5 27.5 16.6 31.3 8 10 Alarm State:  0
Tue Sep 19 07:15:55 PDT 2017 ON: 19.99 +20.0 20.05 -15.4 27.6 16.5 31.5 7 10 Alarm State:  0
Tue Sep 19 07:14:53 PDT 2017 ON: 19.99 +20.0 20.05 -15.4 27.6 16.5 31.4 7 10 Alarm State:  0
Tue Sep 19 07:13:51 PDT 2017 ON: 19.99 +20.0 20.06 -15.5 27.5 16.6 31.4 7 9 Alarm State:  0
Tue Sep 19 07:12:50 PDT 2017 ON: 20.00 +20.0 20.06 -15.4 27.6 16.5 31.5 7 9 Alarm State:  0
Tue Sep 19 07:11:48 PDT 2017 ON: 19.99 +20.0 20.06 -15.4 27.6 16.5 31.5 8 10 Alarm State:  0
Tue Sep 19 07:10:47 PDT 2017 ON: 20.00 +20.0 20.04 -15.2 27.9 16.3 31.5 7 10 Alarm State:  0
Tue Sep 19 07:09:45 PDT 2017 ON: 20.00 +20.0 20.07 -15.5 27.5 16.6 31.3 7 9 Alarm State:  0
Tue Sep 19 07:08:44 PDT 2017 ON: 19.99 +20.0 20.05 -15.3 27.7 16.5 31.4 7 10 Alarm State:  0
Tue Sep 19 07:07:42 PDT 2017 ON: 19.99 +20.0 20.05 -15.5 27.5 16.6 31.4 7 10 Alarm State:  0
Tue Sep 19 07:06:41 PDT 2017 ON: 20.00 +20.0 20.04 -15.4 27.6 16.5 31.4 7 10 Alarm State:  0
Tue Sep 19 07:05:39 PDT 2017 ON: 20.00 +20.0 20.06 -15.5 27.5 16.6 31.4 7 9 Alarm State:  0
Tue Sep 19 07:04:38 PDT 2017 ON: 19.99 +20.0 20.05 -15.3 27.8 16.4 31.5 7 10 Alarm State:  0
Tue Sep 19 07:03:37 PDT 2017 ON: 19.99 +20.0 20.04 -15.4 27.6 16.5 31.4 7 10 Alarm State:  0
Tue Sep 19 07:02:35 PDT 2017 ON: 20.00 +20.0 20.04 -15.2 27.9 16.3 31.4 7 10 Alarm State:  0
Tue Sep 19 07:01:34 PDT 2017 ON: 19.99 +20.0 20.04 -15.3 27.8 16.4 31.5 7 10 Alarm State:  0
Tue Sep 19 07:00:32 PDT 2017 ON: 20.00 +20.0 20.05 -15.3 27.7 16.5 31.4 7 10 Alarm State:  0
Tue Sep 19 06:59:31 PDT 2017 ON: 20.00 +20.0 20.05 -15.2 27.9 16.3 31.5 7 10 Alarm State:  0
Tue Sep 19 06:58:29 PDT 2017 ON: 20.00 +20.0 20.06 -15.5 27.5 16.6 31.4 7 9 Alarm State:  0
Tue Sep 19 06:57:28 PDT 2017 ON: 19.99 +20.0 20.05 -15.3 27.8 16.4 31.5 7 10 Alarm State:  0
Tue Sep 19 06:56:26 PDT 2017 ON: 19.99 +20.0 20.06 -15.7 27.2 16.8 31.4 7 9 Alarm State:  0
Tue Sep 19 06:55:25 PDT 2017 ON: 20.00 +20.0 20.05 -15.6 27.3 16.8 31.3 7 9 Alarm State:  0
Tue Sep 19 06:54:23 PDT 2017 ON: 20.00 +20.0 20.05 -15.3 27.8 16.4 31.5 7 10 Alarm State:  0
Tue Sep 19 06:53:22 PDT 2017 ON: 19.99 +20.0 20.05 -15.7 27.2 16.8 31.4 7 10 Alarm State:  0
Tue Sep 19 06:52:20 PDT 2017 ON: 20.00 +20.0 20.05 -15.5 27.4 16.7 31.4 7 10 Alarm State:  0
Tue Sep 19 06:51:19 PDT 2017 ON: 19.99 +20.0 20.04 -15.5 27.4 16.7 31.4 7 10 Alarm State:  0
Tue Sep 19 06:50:17 PDT 2017 ON: 20.00 +20.0 20.05 -15.4 27.6 16.5 31.4 7 10 Alarm State:  0
Tue Sep 19 06:49:16 PDT 2017 ON: 19.99 +20.0 20.05 -15.2 27.9 16.3 31.4 7 10 Alarm State:  0
Tue Sep 19 06:48:14 PDT 2017 ON: 19.99 +20.0 20.05 -15.5 27.4 16.7 31.4 7 10 Alarm State:  0
Tue Sep 19 06:47:13 PDT 2017 ON: 20.00 +20.0 20.07 -15.6 27.3 16.8 31.3 7 9 Alarm State:  0
Tue Sep 19 06:46:11 PDT 2017 ON: 19.99 +20.0 20.05 -15.5 27.5 16.6 31.4 7 10 Alarm State:  0
Tue Sep 19 06:45:10 PDT 2017 ON: 20.00 +20.0 20.06 -15.7 27.2 16.8 31.3 7 9 Alarm State:  0
Tue Sep 19 06:43:58 PDT 2017  Alarm State: 0
Tue Sep 19 06:43:58 PDT 2017 Chiller did not report ON, got this reading: 
Tue Sep 19 06:42:57 PDT 2017 ON: 19.99 +20.0 20.05 -15.4 27.6 16.5 31.4 7 10 Alarm State:  0